Wetterdaten: Freitag, 27.12.2019
Datum Zeit Temp. I. Temp. A. Feuchte I. Feuchte A. Luftdruck Regen Wind Richtung Richtung Sonnenschein Solar Taupunkt Windchill Windböen
27.12.2019 00:00 24,1 °C 3,2 °C 49 % 92 % 1024,3 hPa 0,0 l/m² 0,4 km/h (0 Bft) W 275 ° 0 min 0 W/m² 2,0 °C 3,2 °C 1,6 km/h (1 Bft)
27.12.2019 00:01 24,1 °C 3,2 °C 49 % 92 % 1024,3 hPa 0,0 l/m² 1,6 km/h (1 Bft) W 275 ° 0 min 0 W/m² 2,0 °C 3,2 °C 1,6 km/h (1 Bft)
27.12.2019 00:03 24,1 °C 3,2 °C 49 % 92 % 1024,3 hPa 0,0 l/m² 2,2 km/h (1 Bft) W 275 ° 0 min 0 W/m² 2,0 °C 3,2 °C 3,2 km/h (1 Bft)
27.12.2019 00:05 24,1 °C 3,2 °C 49 % 92 % 1024,3 hPa 0,0 l/m² 2,1 km/h (1 Bft) W 275 ° 0 min 0 W/m² 2,0 °C 3,2 °C 3,2 km/h (1 Bft)
27.12.2019 00:07 24,1 °C 3,2 °C 49 % 92 % 1024,2 hPa 0,0 l/m² 3,3 km/h (1 Bft) W 275 ° 0 min 0 W/m² 2,0 °C 3,2 °C 4,8 km/h (1 Bft)
27.12.2019 00:09 24,1 °C 3,1 °C 49 % 92 % 1024,3 hPa 0,0 l/m² 1,9 km/h (1 Bft) W 275 ° 0 min 0 W/m² 1,9 °C 3,1 °C 3,2 km/h (1 Bft)
27.12.2019 00:10 24,1 °C 3,2 °C 49 % 92 % 1024,3 hPa 0,0 l/m² 0,8 km/h (0 Bft) W 275 ° 0 min 0 W/m² 2,0 °C 3,2 °C 1,6 km/h (1 Bft)
27.12.2019 00:11 24,1 °C 3,2 °C 49 % 92 % 1024,2 hPa 0,0 l/m² 1,3 km/h (1 Bft) W 275 ° 0 min 0 W/m² 2,0 °C 3,2 °C 1,6 km/h (1 Bft)
27.12.2019 00:12 24,1 °C 3,1 °C 49 % 92 % 1024,2 hPa 0,0 l/m² 1,0 km/h (0 Bft) W 275 ° 0 min 0 W/m² 1,9 °C 3,1 °C 1,6 km/h (1 Bft)
27.12.2019 00:13 24,1 °C 3,2 °C 49 % 92 % 1024,2 hPa 0,0 l/m² 0,7 km/h (0 Bft) W 275 ° 0 min 0 W/m² 2,0 °C 3,2 °C 1,6 km/h (1 Bft)
27.12.2019 00:14 24,1 °C 3,1 °C 49 % 92 % 1024,2 hPa 0,0 l/m² 1,2 km/h (1 Bft) W 275 ° 0 min 0 W/m² 1,9 °C 3,1 °C 3,2 km/h (1 Bft)
27.12.2019 00:15 24,1 °C 3,1 °C 49 % 92 % 1024,2 hPa 0,0 l/m² 2,5 km/h (1 Bft) W 275 ° 0 min 0 W/m² 1,9 °C 3,1 °C 3,2 km/h (1 Bft)
27.12.2019 00:17 24,1 °C 3,2 °C 49 % 92 % 1024,2 hPa 0,0 l/m² 5,6 km/h (2 Bft) S-SO 162 ° 0 min 0 W/m² 2,0 °C 3,2 °C 8,0 km/h (2 Bft)
27.12.2019 00:19 24,1 °C 3,1 °C 49 % 92 % 1024,1 hPa 0,0 l/m² 4,1 km/h (1 Bft) S-SO 162 ° 0 min 0 W/m² 1,9 °C 3,1 °C 6,4 km/h (2 Bft)
27.12.2019 00:21 24,1 °C 3,1 °C 49 % 92 % 1024,1 hPa 0,0 l/m² 6,0 km/h (2 Bft) S-SO 162 ° 0 min 0 W/m² 1,9 °C 3,1 °C 8,0 km/h (2 Bft)
27.12.2019 00:22 24,1 °C 3,1 °C 49 % 92 % 1024,1 hPa 0,0 l/m² 4,7 km/h (1 Bft) S-SO 162 ° 0 min 0 W/m² 1,9 °C 3,1 °C 6,4 km/h (2 Bft)
27.12.2019 00:23 24,1 °C 3,1 °C 49 % 92 % 1024,1 hPa 0,0 l/m² 3,5 km/h (1 Bft) S-SO 162 ° 0 min 0 W/m² 1,9 °C 3,1 °C 6,4 km/h (2 Bft)
27.12.2019 00:24 24,1 °C 3,1 °C 49 % 92 % 1024,2 hPa 0,0 l/m² 3,8 km/h (1 Bft) S-SO 162 ° 0 min 0 W/m² 1,9 °C 3,1 °C 6,4 km/h (2 Bft)
27.12.2019 00:26 24,1 °C 3,1 °C 49 % 92 % 1024,1 hPa 0,0 l/m² 4,0 km/h (1 Bft) S-SO 162 ° 0 min 0 W/m² 1,9 °C 3,1 °C 6,4 km/h (2 Bft)
27.12.2019 00:28 24,1 °C 3,1 °C 49 % 92 % 1024,1 hPa 0,0 l/m² 0,9 km/h (0 Bft) S-SO 162 ° 0 min 0 W/m² 1,9 °C 3,1 °C 3,2 km/h (1 Bft)
27.12.2019 00:30 24,1 °C 3,1 °C 49 % 92 % 1024,1 hPa 0,0 l/m² 3,0 km/h (1 Bft) S-SO 162 ° 0 min 0 W/m² 1,9 °C 3,1 °C 6,4 km/h (2 Bft)
27.12.2019 00:32 24,1 °C 3,1 °C 49 % 92 % 1024,1 hPa 0,0 l/m² 1,5 km/h (1 Bft) S-SO 162 ° 0 min 0 W/m² 1,9 °C 3,1 °C 3,2 km/h (1 Bft)
27.12.2019 00:34 24,1 °C 3,1 °C 49 % 92 % 1024,1 hPa 0,0 l/m² 0,5 km/h (0 Bft) S-SO 162 ° 0 min 0 W/m² 1,9 °C 3,1 °C 1,6 km/h (1 Bft)
27.12.2019 00:36 24,1 °C 3,1 °C 49 % 92 % 1024,0 hPa 0,0 l/m² 0,0 km/h (0 Bft) S-SO 162 ° 0 min 0 W/m² 1,9 °C 3,1 °C 0,0 km/h (0 Bft)
27.12.2019 00:38 24,1 °C 3,1 °C 49 % 92 % 1024,1 hPa 0,0 l/m² 0,6 km/h (0 Bft) S-SO 162 ° 0 min 0 W/m² 1,9 °C 3,1 °C 1,6 km/h (1 Bft)
27.12.2019 00:40 24,1 °C 3,1 °C 50 % 92 % 1024,0 hPa 0,0 l/m² 1,7 km/h (1 Bft) S-SO 162 ° 0 min 0 W/m² 1,9 °C 3,1 °C 3,2 km/h (1 Bft)
27.12.2019 00:42 24,1 °C 3,1 °C 49 % 92 % 1024,0 hPa 0,0 l/m² 1,7 km/h (1 Bft) S-SO 162 ° 0 min 0 W/m² 1,9 °C 3,1 °C 3,2 km/h (1 Bft)
27.12.2019 00:44 24,1 °C 3,1 °C 50 % 92 % 1024,0 hPa 0,0 l/m² 1,3 km/h (1 Bft) S-SO 162 ° 0 min 0 W/m² 1,9 °C 3,1 °C 1,6 km/h (1 Bft)
27.12.2019 00:47 24,1 °C 3,1 °C 50 % 92 % 1024,0 hPa 0,0 l/m² 1,1 km/h (1 Bft) S-SO 162 ° 0 min 0 W/m² 1,9 °C 3,1 °C 1,6 km/h (1 Bft)
27.12.2019 00:48 24,1 °C 3,0 °C 49 % 92 % 1024,0 hPa 0,0 l/m² 0,5 km/h (0 Bft) S-SO 162 ° 0 min 0 W/m² 1,8 °C 3,0 °C 1,6 km/h (1 Bft)
27.12.2019 00:50 24,1 °C 3,0 °C 50 % 92 % 1024,0 hPa 0,0 l/m² 0,8 km/h (0 Bft) S-SO 162 ° 0 min 0 W/m² 1,8 °C 3,0 °C 1,6 km/h (1 Bft)
27.12.2019 00:52 24,1 °C 3,0 °C 50 % 92 % 1023,9 hPa 0,0 l/m² 1,1 km/h (1 Bft) S-SO 162 ° 0 min 0 W/m² 1,8 °C 3,0 °C 1,6 km/h (1 Bft)
27.12.2019 00:53 24,1 °C 3,0 °C 50 % 92 % 1023,9 hPa 0,0 l/m² 0,9 km/h (0 Bft) S-SO 162 ° 0 min 0 W/m² 1,8 °C 3,0 °C 1,6 km/h (1 Bft)
27.12.2019 00:55 24,1 °C 3,0 °C 50 % 92 % 1024,0 hPa 0,0 l/m² 0,7 km/h (0 Bft) S-SO 162 ° 0 min 0 W/m² 1,8 °C 3,0 °C 1,6 km/h (1 Bft)
27.12.2019 00:57 24,1 °C 3,0 °C 50 % 92 % 1023,9 hPa 0,0 l/m² 1,3 km/h (1 Bft) S-SO 162 ° 0 min 0 W/m² 1,8 °C 3,0 °C 1,6 km/h (1 Bft)
27.12.2019 00:59 24,1 °C 3,0 °C 50 % 92 % 1023,9 hPa 0,0 l/m² 1,1 km/h (1 Bft) S-SO 162 ° 0 min 0 W/m² 1,8 °C 3,0 °C 1,6 km/h (1 Bft)
27.12.2019 01:01 24,1 °C 3,0 °C 49 % 92 % 1023,9 hPa 0,0 l/m² 1,5 km/h (1 Bft) S-SO 162 ° 0 min 0 W/m² 1,8 °C 3,0 °C 1,6 km/h (1 Bft)
27.12.2019 01:02 24,1 °C 3,0 °C 49 % 92 % 1023,9 hPa 0,0 l/m² 1,3 km/h (1 Bft) S-SO 162 ° 0 min 0 W/m² 1,8 °C 3,0 °C 1,6 km/h (1 Bft)
27.12.2019 01:03 24,1 °C 3,1 °C 49 % 92 % 1023,9 hPa 0,0 l/m² 1,2 km/h (1 Bft) S-SO 162 ° 0 min 0 W/m² 1,9 °C 3,1 °C 1,6 km/h (1 Bft)
27.12.2019 01:04 24,1 °C 3,0 °C 49 % 92 % 1023,9 hPa 0,0 l/m² 0,9 km/h (0 Bft) S-SO 162 ° 0 min 0 W/m² 1,8 °C 3,0 °C 1,6 km/h (1 Bft)
27.12.2019 01:06 24,1 °C 3,0 °C 49 % 92 % 1023,9 hPa 0,0 l/m² 1,1 km/h (1 Bft) S-SO 162 ° 0 min 0 W/m² 1,8 °C 3,0 °C 1,6 km/h (1 Bft)
27.12.2019 01:08 24,1 °C 3,0 °C 49 % 92 % 1024,0 hPa 0,0 l/m² 1,5 km/h (1 Bft) S-SO 162 ° 0 min 0 W/m² 1,8 °C 3,0 °C 3,2 km/h (1 Bft)
27.12.2019 01:10 24,1 °C 3,0 °C 49 % 93 % 1024,0 hPa 0,0 l/m² 1,5 km/h (1 Bft) S-SO 162 ° 0 min 0 W/m² 2,0 °C 3,0 °C 3,2 km/h (1 Bft)
27.12.2019 01:12 24,1 °C 3,0 °C 49 % 93 % 1023,9 hPa 0,0 l/m² 1,3 km/h (1 Bft) S-SO 162 ° 0 min 0 W/m² 2,0 °C 3,0 °C 3,2 km/h (1 Bft)
27.12.2019 01:14 24,1 °C 3,0 °C 49 % 92 % 1023,9 hPa 0,0 l/m² 2,6 km/h (1 Bft) S 182 ° 0 min 0 W/m² 1,8 °C 3,0 °C 3,2 km/h (1 Bft)
27.12.2019 01:16 24,0 °C 3,0 °C 49 % 93 % 1023,9 hPa 0,0 l/m² 3,0 km/h (1 Bft) W 260 ° 0 min 0 W/m² 2,0 °C 3,0 °C 4,8 km/h (1 Bft)
27.12.2019 01:18 24,0 °C 3,0 °C 49 % 93 % 1023,9 hPa 0,0 l/m² 2,4 km/h (1 Bft) NW 323 ° 0 min 0 W/m² 2,0 °C 3,0 °C 3,2 km/h (1 Bft)
27.12.2019 01:20 24,0 °C 3,0 °C 49 % 93 % 1023,9 hPa 0,0 l/m² 2,8 km/h (1 Bft) N 355 ° 0 min 0 W/m² 2,0 °C 3,0 °C 4,8 km/h (1 Bft)
27.12.2019 01:22 24,0 °C 3,0 °C 49 % 93 % 1023,8 hPa 0,0 l/m² 3,0 km/h (1 Bft) NO 43 ° 0 min 0 W/m² 2,0 °C 3,0 °C 4,8 km/h (1 Bft)
27.12.2019 01:23 24,0 °C 3,0 °C 49 % 93 % 1023,9 hPa 0,0 l/m² 3,6 km/h (1 Bft) NO 49 ° 0 min 0 W/m² 2,0 °C 3,0 °C 4,8 km/h (1 Bft)
27.12.2019 01:25 23,9 °C 3,0 °C 49 % 93 % 1023,9 hPa 0,0 l/m² 1,9 km/h (1 Bft) NO 49 ° 0 min 0 W/m² 2,0 °C 3,0 °C 4,8 km/h (1 Bft)
27.12.2019 01:27 23,9 °C 3,0 °C 49 % 93 % 1023,9 hPa 0,0 l/m² 0,9 km/h (0 Bft) NO 49 ° 0 min 0 W/m² 2,0 °C 3,0 °C 3,2 km/h (1 Bft)
27.12.2019 01:29 23,9 °C 2,9 °C 49 % 93 % 1024,0 hPa 0,0 l/m² 0,0 km/h (0 Bft) NO 49 ° 0 min 0 W/m² 1,9 °C 2,9 °C 0,0 km/h (0 Bft)
27.12.2019 01:31 23,9 °C 2,9 °C 49 % 93 % 1023,9 hPa 0,0 l/m² 0,5 km/h (0 Bft) NO 49 ° 0 min 0 W/m² 1,9 °C 2,9 °C 1,6 km/h (1 Bft)
27.12.2019 01:32 23,9 °C 2,9 °C 49 % 93 % 1023,9 hPa 0,0 l/m² 1,4 km/h (1 Bft) NO 49 ° 0 min 0 W/m² 1,9 °C 2,9 °C 1,6 km/h (1 Bft)
27.12.2019 01:33 23,9 °C 2,9 °C 49 % 93 % 1023,9 hPa 0,0 l/m² 1,5 km/h (1 Bft) NO 49 ° 0 min 0 W/m² 1,9 °C 2,9 °C 3,2 km/h (1 Bft)
27.12.2019 01:34 23,9 °C 3,0 °C 49 % 93 % 1023,8 hPa 0,0 l/m² 2,5 km/h (1 Bft) NO 49 ° 0 min 0 W/m² 2,0 °C 3,0 °C 3,2 km/h (1 Bft)
27.12.2019 01:36 23,9 °C 3,0 °C 49 % 93 % 1023,8 hPa 0,0 l/m² 2,2 km/h (1 Bft) NO 49 ° 0 min 0 W/m² 2,0 °C 3,0 °C 3,2 km/h (1 Bft)
27.12.2019 01:38 23,9 °C 2,9 °C 49 % 93 % 1023,8 hPa 0,0 l/m² 2,5 km/h (1 Bft) NO 49 ° 0 min 0 W/m² 1,9 °C 2,9 °C 3,2 km/h (1 Bft)
27.12.2019 01:40 23,9 °C 2,9 °C 49 % 93 % 1023,8 hPa 0,0 l/m² 2,8 km/h (1 Bft) NO 49 ° 0 min 0 W/m² 1,9 °C 2,9 °C 3,2 km/h (1 Bft)
27.12.2019 01:42 23,9 °C 2,9 °C 49 % 93 % 1023,7 hPa 0,0 l/m² 2,8 km/h (1 Bft) NO 49 ° 0 min 0 W/m² 1,9 °C 2,9 °C 3,2 km/h (1 Bft)
27.12.2019 01:43 23,9 °C 2,9 °C 49 % 93 % 1023,8 hPa 0,0 l/m² 3,0 km/h (1 Bft) NO 49 ° 0 min 0 W/m² 1,9 °C 2,9 °C 3,2 km/h (1 Bft)
27.12.2019 01:44 23,9 °C 2,9 °C 49 % 93 % 1023,8 hPa 0,0 l/m² 2,7 km/h (1 Bft) NO 49 ° 0 min 0 W/m² 1,9 °C 2,9 °C 3,2 km/h (1 Bft)
27.12.2019 01:46 23,9 °C 2,9 °C 49 % 93 % 1023,8 hPa 0,0 l/m² 2,1 km/h (1 Bft) NO 49 ° 0 min 0 W/m² 1,9 °C 2,9 °C 3,2 km/h (1 Bft)
27.12.2019 01:48 23,8 °C 2,9 °C 49 % 93 % 1023,8 hPa 0,0 l/m² 0,7 km/h (0 Bft) NO 49 ° 0 min 0 W/m² 1,9 °C 2,9 °C 1,6 km/h (1 Bft)
27.12.2019 01:50 23,8 °C 2,9 °C 49 % 93 % 1023,8 hPa 0,0 l/m² 0,0 km/h (0 Bft) NO 49 ° 0 min 0 W/m² 1,9 °C 2,9 °C 0,0 km/h (0 Bft)
27.12.2019 01:52 23,8 °C 2,9 °C 49 % 93 % 1023,8 hPa 0,0 l/m² 0,8 km/h (0 Bft) NO 49 ° 0 min 0 W/m² 1,9 °C 2,9 °C 1,6 km/h (1 Bft)
27.12.2019 01:53 23,8 °C 2,9 °C 49 % 93 % 1023,8 hPa 0,0 l/m² 0,0 km/h (0 Bft) NO 49 ° 0 min 0 W/m² 1,9 °C 2,9 °C 0,0 km/h (0 Bft)
27.12.2019 01:55 23,8 °C 2,9 °C 49 % 93 % 1023,9 hPa 0,0 l/m² 0,0 km/h (0 Bft) NO 49 ° 0 min 0 W/m² 1,9 °C 2,9 °C 0,0 km/h (0 Bft)
27.12.2019 01:57 23,8 °C 2,9 °C 49 % 93 % 1023,9 hPa 0,0 l/m² 0,0 km/h (0 Bft) NO 49 ° 0 min 0 W/m² 1,9 °C 2,9 °C 0,0 km/h (0 Bft)
27.12.2019 01:59 23,8 °C 2,9 °C 49 % 93 % 1023,9 hPa 0,0 l/m² 0,6 km/h (0 Bft) NO 49 ° 0 min 0 W/m² 1,9 °C 2,9 °C 1,6 km/h (1 Bft)
27.12.2019 02:01 23,8 °C 2,9 °C 49 % 93 % 1023,9 hPa 0,0 l/m² 3,1 km/h (1 Bft) S-SO 147 ° 0 min 0 W/m² 1,9 °C 2,9 °C 4,8 km/h (1 Bft)
27.12.2019 02:02 23,8 °C 2,9 °C 49 % 92 % 1023,9 hPa 0,0 l/m² 4,8 km/h (1 Bft) S-SO 155 ° 0 min 0 W/m² 1,7 °C 2,9 °C 6,4 km/h (2 Bft)
27.12.2019 02:03 23,8 °C 2,9 °C 49 % 93 % 1024,0 hPa 0,0 l/m² 8,1 km/h (2 Bft) S-SO 159 ° 0 min 0 W/m² 1,9 °C 1,3 °C 9,7 km/h (2 Bft)
27.12.2019 02:04 23,8 °C 2,8 °C 49 % 92 % 1024,0 hPa 0,0 l/m² 8,0 km/h (2 Bft) S-SO 161 ° 0 min 0 W/m² 1,6 °C 1,3 °C 9,7 km/h (2 Bft)
27.12.2019 02:06 23,7 °C 2,8 °C 49 % 92 % 1024,0 hPa 0,0 l/m² 6,9 km/h (2 Bft) S-SO 164 ° 0 min 0 W/m² 1,6 °C 2,3 °C 9,7 km/h (2 Bft)
27.12.2019 02:08 23,7 °C 2,8 °C 49 % 92 % 1023,9 hPa 0,0 l/m² 3,4 km/h (1 Bft) S-SO 168 ° 0 min 0 W/m² 1,6 °C 2,8 °C 8,0 km/h (2 Bft)
27.12.2019 02:10 23,8 °C 2,8 °C 49 % 92 % 1023,9 hPa 0,0 l/m² 2,6 km/h (1 Bft) S-SO 167 ° 0 min 0 W/m² 1,6 °C 2,8 °C 4,8 km/h (1 Bft)
27.12.2019 02:12 23,8 °C 2,8 °C 49 % 92 % 1023,9 hPa 0,0 l/m² 3,9 km/h (1 Bft) S-SO 167 ° 0 min 0 W/m² 1,6 °C 2,8 °C 6,4 km/h (2 Bft)
27.12.2019 02:13 23,8 °C 2,8 °C 49 % 92 % 1023,9 hPa 0,0 l/m² 4,7 km/h (1 Bft) S-SO 167 ° 0 min 0 W/m² 1,6 °C 2,8 °C 6,4 km/h (2 Bft)
27.12.2019 02:15 23,7 °C 2,8 °C 49 % 92 % 1024,0 hPa 0,0 l/m² 3,5 km/h (1 Bft) S-SO 167 ° 0 min 0 W/m² 1,6 °C 2,8 °C 4,8 km/h (1 Bft)
27.12.2019 02:17 23,7 °C 2,8 °C 49 % 92 % 1024,0 hPa 0,0 l/m² 2,0 km/h (1 Bft) S-SO 167 ° 0 min 0 W/m² 1,6 °C 2,8 °C 4,8 km/h (1 Bft)
27.12.2019 02:19 23,7 °C 2,8 °C 49 % 92 % 1024,0 hPa 0,0 l/m² 0,8 km/h (0 Bft) S-SO 167 ° 0 min 0 W/m² 1,6 °C 2,8 °C 1,6 km/h (1 Bft)
27.12.2019 02:21 23,7 °C 2,8 °C 49 % 92 % 1024,0 hPa 0,0 l/m² 1,2 km/h (1 Bft) S-SO 167 ° 0 min 0 W/m² 1,6 °C 2,8 °C 1,6 km/h (1 Bft)
27.12.2019 02:22 23,7 °C 2,8 °C 49 % 92 % 1023,8 hPa 0,0 l/m² 3,5 km/h (1 Bft) W-SW 237 ° 0 min 0 W/m² 1,6 °C 2,8 °C 4,8 km/h (1 Bft)
27.12.2019 02:23 23,7 °C 2,9 °C 49 % 92 % 1023,8 hPa 0,0 l/m² 3,0 km/h (1 Bft) W-SW 237 ° 0 min 0 W/m² 1,7 °C 2,9 °C 3,2 km/h (1 Bft)
27.12.2019 02:24 23,7 °C 2,8 °C 49 % 92 % 1023,8 hPa 0,0 l/m² 2,4 km/h (1 Bft) W-SW 237 ° 0 min 0 W/m² 1,6 °C 2,8 °C 3,2 km/h (1 Bft)
27.12.2019 02:26 23,7 °C 2,8 °C 49 % 92 % 1023,8 hPa 0,0 l/m² 3,1 km/h (1 Bft) W-SW 245 ° 0 min 0 W/m² 1,6 °C 2,8 °C 3,2 km/h (1 Bft)
27.12.2019 02:28 23,7 °C 2,8 °C 49 % 92 % 1023,8 hPa 0,0 l/m² 3,9 km/h (1 Bft) N-NW 329 ° 0 min 0 W/m² 1,6 °C 2,8 °C 4,8 km/h (1 Bft)
27.12.2019 02:30 23,7 °C 2,8 °C 49 % 92 % 1023,8 hPa 0,0 l/m² 3,0 km/h (1 Bft) N-NW 329 ° 0 min 0 W/m² 1,6 °C 2,8 °C 3,2 km/h (1 Bft)
27.12.2019 02:32 23,7 °C 2,8 °C 49 % 92 % 1023,8 hPa 0,0 l/m² 2,9 km/h (1 Bft) N-NW 329 ° 0 min 0 W/m² 1,6 °C 2,8 °C 3,2 km/h (1 Bft)
27.12.2019 02:33 23,7 °C 2,8 °C 49 % 92 % 1023,8 hPa 0,0 l/m² 2,3 km/h (1 Bft) N-NW 329 ° 0 min 0 W/m² 1,6 °C 2,8 °C 3,2 km/h (1 Bft)
27.12.2019 02:35 23,7 °C 2,8 °C 49 % 92 % 1023,9 hPa 0,0 l/m² 2,1 km/h (1 Bft) N-NW 329 ° 0 min 0 W/m² 1,6 °C 2,8 °C 3,2 km/h (1 Bft)
27.12.2019 02:37 23,7 °C 2,8 °C 49 % 92 % 1023,9 hPa 0,0 l/m² 1,9 km/h (1 Bft) W-SW 242 ° 0 min 0 W/m² 1,6 °C 2,8 °C 4,8 km/h (1 Bft)
27.12.2019 02:39 23,7 °C 2,7 °C 49 % 92 % 1023,9 hPa 0,0 l/m² 2,8 km/h (1 Bft) S-SW 205 ° 0 min 0 W/m² 1,5 °C 2,7 °C 4,8 km/h (1 Bft)
27.12.2019 02:41 23,7 °C 2,7 °C 49 % 92 % 1023,9 hPa 0,0 l/m² 0,9 km/h (0 Bft) S-SW 205 ° 0 min 0 W/m² 1,5 °C 2,7 °C 3,2 km/h (1 Bft)
27.12.2019 02:42 23,7 °C 2,7 °C 49 % 92 % 1023,9 hPa 0,0 l/m² 0,0 km/h (0 Bft) S-SW 205 ° 0 min 0 W/m² 1,5 °C 2,7 °C 0,0 km/h (0 Bft)
27.12.2019 02:43 23,7 °C 2,7 °C 49 % 92 % 1023,9 hPa 0,0 l/m² 0,0 km/h (0 Bft) S-SW 205 ° 0 min 0 W/m² 1,5 °C 2,7 °C 0,0 km/h (0 Bft)
27.12.2019 02:44 23,7 °C 2,6 °C 49 % 92 % 1023,9 hPa 0,0 l/m² 0,0 km/h (0 Bft) S-SW 205 ° 0 min 0 W/m² 1,4 °C 2,6 °C 0,0 km/h (0 Bft)
27.12.2019 02:46 23,7 °C 2,6 °C 49 % 92 % 1024,0 hPa 0,0 l/m² 0,7 km/h (0 Bft) S-SW 205 ° 0 min 0 W/m² 1,4 °C 2,6 °C 3,2 km/h (1 Bft)
27.12.2019 02:48 23,7 °C 2,6 °C 49 % 92 % 1023,9 hPa 0,0 l/m² 2,4 km/h (1 Bft) S-SW 200 ° 0 min 0 W/m² 1,4 °C 2,6 °C 3,2 km/h (1 Bft)
27.12.2019 02:50 23,7 °C 2,4 °C 49 % 92 % 1024,0 hPa 0,0 l/m² 2,6 km/h (1 Bft) O 82 ° 0 min 0 W/m² 1,2 °C 2,4 °C 3,2 km/h (1 Bft)
27.12.2019 02:52 23,7 °C 2,4 °C 49 % 92 % 1024,0 hPa 0,0 l/m² 2,5 km/h (1 Bft) O-NO 75 ° 0 min 0 W/m² 1,2 °C 2,4 °C 4,8 km/h (1 Bft)
27.12.2019 02:53 23,7 °C 2,4 °C 49 % 92 % 1024,0 hPa 0,0 l/m² 3,0 km/h (1 Bft) O-NO 72 ° 0 min 0 W/m² 1,2 °C 2,4 °C 3,2 km/h (1 Bft)
27.12.2019 02:55 23,6 °C 2,4 °C 49 % 92 % 1024,0 hPa 0,0 l/m² 2,7 km/h (1 Bft) O-NO 61 ° 0 min 0 W/m² 1,2 °C 2,4 °C 4,8 km/h (1 Bft)
27.12.2019 02:57 23,6 °C 2,4 °C 49 % 92 % 1023,9 hPa 0,0 l/m² 2,0 km/h (1 Bft) O-NO 61 ° 0 min 0 W/m² 1,2 °C 2,4 °C 3,2 km/h (1 Bft)
27.12.2019 02:59 23,6 °C 2,4 °C 49 % 92 % 1024,0 hPa 0,0 l/m² 2,7 km/h (1 Bft) O-NO 59 ° 0 min 0 W/m² 1,2 °C 2,4 °C 4,8 km/h (1 Bft)
27.12.2019 03:00 23,6 °C 2,4 °C 49 % 92 % 1024,0 hPa 0,0 l/m² 3,2 km/h (1 Bft) O-NO 67 ° 0 min 0 W/m² 1,2 °C 2,4 °C 3,2 km/h (1 Bft)
27.12.2019 03:01 23,6 °C 2,4 °C 49 % 92 % 1024,0 hPa 0,0 l/m² 1,6 km/h (1 Bft) O-NO 67 ° 0 min 0 W/m² 1,2 °C 2,4 °C 3,2 km/h (1 Bft)
27.12.2019 03:07 23,6 °C 2,3 °C 49 % 92 % 1024,0 hPa 0,0 l/m² 2,5 km/h (1 Bft) W-SW 252 ° 0 min 0 W/m² 1,1 °C 2,3 °C 3,2 km/h (1 Bft)
27.12.2019 03:09 23,6 °C 2,3 °C 49 % 92 % 1024,1 hPa 0,0 l/m² 3,0 km/h (1 Bft) W-SW 252 ° 0 min 0 W/m² 1,1 °C 2,3 °C 4,8 km/h (1 Bft)
27.12.2019 03:11 23,6 °C 2,2 °C 49 % 91 % 1024,1 hPa 0,0 l/m² 2,6 km/h (1 Bft) W-SW 252 ° 0 min 0 W/m² 0,9 °C 2,2 °C 4,8 km/h (1 Bft)
27.12.2019 03:13 23,6 °C 2,2 °C 49 % 92 % 1024,0 hPa 0,0 l/m² 0,2 km/h (0 Bft) W-SW 252 ° 0 min 0 W/m² 1,0 °C 2,2 °C 1,6 km/h (1 Bft)
27.12.2019 03:14 23,6 °C 2,2 °C 49 % 92 % 1024,1 hPa 0,0 l/m² 0,0 km/h (0 Bft) W-SW 252 ° 0 min 0 W/m² 1,0 °C 2,2 °C 0,0 km/h (0 Bft)
27.12.2019 03:16 23,6 °C 2,2 °C 49 % 92 % 1024,1 hPa 0,0 l/m² 0,0 km/h (0 Bft) W-SW 252 ° 0 min 0 W/m² 1,0 °C 2,2 °C 0,0 km/h (0 Bft)
27.12.2019 03:18 23,6 °C 2,1 °C 49 % 92 % 1024,1 hPa 0,0 l/m² 0,0 km/h (0 Bft) W-SW 252 ° 0 min 0 W/m² 0,9 °C 2,1 °C 1,6 km/h (1 Bft)
27.12.2019 03:20 23,6 °C 2,1 °C 49 % 92 % 1024,1 hPa 0,0 l/m² 1,5 km/h (1 Bft) W-SW 252 ° 0 min 0 W/m² 0,9 °C 2,1 °C 3,2 km/h (1 Bft)
27.12.2019 03:21 23,6 °C 2,1 °C 49 % 92 % 1024,1 hPa 0,0 l/m² 2,0 km/h (1 Bft) W-SW 252 ° 0 min 0 W/m² 0,9 °C 2,1 °C 3,2 km/h (1 Bft)
27.12.2019 03:22 23,6 °C 2,1 °C 49 % 92 % 1024,1 hPa 0,0 l/m² 2,1 km/h (1 Bft) W-SW 252 ° 0 min 0 W/m² 0,9 °C 2,1 °C 3,2 km/h (1 Bft)
27.12.2019 03:23 23,6 °C 2,0 °C 49 % 91 % 1024,1 hPa 0,0 l/m² 1,9 km/h (1 Bft) W-SW 252 ° 0 min 0 W/m² 0,7 °C 2,0 °C 3,2 km/h (1 Bft)
27.12.2019 03:25 23,6 °C 2,0 °C 49 % 91 % 1024,0 hPa 0,0 l/m² 2,1 km/h (1 Bft) W-SW 252 ° 0 min 0 W/m² 0,7 °C 2,0 °C 3,2 km/h (1 Bft)
27.12.2019 03:27 23,6 °C 1,9 °C 49 % 91 % 1024,0 hPa 0,0 l/m² 2,2 km/h (1 Bft) W-SW 252 ° 0 min 0 W/m² 0,6 °C 1,9 °C 3,2 km/h (1 Bft)
27.12.2019 03:29 23,5 °C 1,9 °C 49 % 91 % 1024,1 hPa 0,0 l/m² 1,6 km/h (1 Bft) W-SW 252 ° 0 min 0 W/m² 0,6 °C 1,9 °C 3,2 km/h (1 Bft)
27.12.2019 03:30 23,6 °C 1,9 °C 49 % 91 % 1024,1 hPa 0,0 l/m² 0,5 km/h (0 Bft) W-SW 252 ° 0 min 0 W/m² 0,6 °C 1,9 °C 1,6 km/h (1 Bft)
27.12.2019 03:31 23,5 °C 1,9 °C 49 % 91 % 1024,0 hPa 0,0 l/m² 0,0 km/h (0 Bft) W-SW 252 ° 0 min 0 W/m² 0,6 °C 1,9 °C 0,0 km/h (0 Bft)
27.12.2019 03:33 23,5 °C 1,9 °C 49 % 91 % 1024,0 hPa 0,0 l/m² 0,0 km/h (0 Bft) W-SW 252 ° 0 min 0 W/m² 0,6 °C 1,9 °C 0,0 km/h (0 Bft)
27.12.2019 03:35 23,5 °C 1,8 °C 48 % 91 % 1024,1 hPa 0,0 l/m² 1,3 km/h (1 Bft) W-SW 252 ° 0 min 0 W/m² 0,5 °C 1,8 °C 3,2 km/h (1 Bft)
27.12.2019 03:37 23,5 °C 1,8 °C 49 % 91 % 1024,1 hPa 0,0 l/m² 2,9 km/h (1 Bft) W-NW 293 ° 0 min 0 W/m² 0,5 °C 1,8 °C 4,8 km/h (1 Bft)
27.12.2019 03:39 23,5 °C 1,7 °C 49 % 91 % 1024,0 hPa 0,0 l/m² 3,0 km/h (1 Bft) W-NW 302 ° 0 min 0 W/m² 0,4 °C 1,7 °C 4,8 km/h (1 Bft)
27.12.2019 03:40 23,5 °C 1,7 °C 48 % 91 % 1024,1 hPa 0,0 l/m² 1,7 km/h (1 Bft) W-NW 302 ° 0 min 0 W/m² 0,4 °C 1,7 °C 3,2 km/h (1 Bft)
27.12.2019 03:41 23,5 °C 1,7 °C 49 % 91 % 1024,1 hPa 0,0 l/m² 2,3 km/h (1 Bft) W-NW 302 ° 0 min 0 W/m² 0,4 °C 1,7 °C 3,2 km/h (1 Bft)
27.12.2019 03:43 23,5 °C 1,7 °C 49 % 91 % 1024,1 hPa 0,0 l/m² 2,0 km/h (1 Bft) NW 320 ° 0 min 0 W/m² 0,4 °C 1,7 °C 3,2 km/h (1 Bft)
27.12.2019 03:45 23,4 °C 1,6 °C 49 % 91 % 1024,2 hPa 0,0 l/m² 0,4 km/h (0 Bft) NW 320 ° 0 min 0 W/m² 0,3 °C 1,6 °C 1,6 km/h (1 Bft)
27.12.2019 03:47 23,5 °C 1,6 °C 49 % 91 % 1024,1 hPa 0,0 l/m² 1,3 km/h (1 Bft) NW 320 ° 0 min 0 W/m² 0,3 °C 1,6 °C 3,2 km/h (1 Bft)
27.12.2019 03:48 23,5 °C 1,5 °C 49 % 91 % 1024,1 hPa 0,0 l/m² 0,9 km/h (0 Bft) NW 320 ° 0 min 0 W/m² 0,2 °C 1,5 °C 1,6 km/h (1 Bft)
27.12.2019 03:50 23,4 °C 1,4 °C 49 % 91 % 1024,1 hPa 0,0 l/m² 0,0 km/h (0 Bft) NW 320 ° 0 min 0 W/m² 0,1 °C 1,4 °C 1,6 km/h (1 Bft)
27.12.2019 03:51 23,5 °C 1,4 °C 49 % 91 % 1024,0 hPa 0,0 l/m² 0,0 km/h (0 Bft) NW 320 ° 0 min 0 W/m² 0,1 °C 1,4 °C 0,0 km/h (0 Bft)
27.12.2019 03:52 23,4 °C 1,4 °C 49 % 91 % 1024,0 hPa 0,0 l/m² 0,0 km/h (0 Bft) NW 320 ° 0 min 0 W/m² 0,1 °C 1,4 °C 0,0 km/h (0 Bft)
27.12.2019 03:53 23,4 °C 1,4 °C 49 % 91 % 1024,0 hPa 0,0 l/m² 0,0 km/h (0 Bft) NW 320 ° 0 min 0 W/m² 0,1 °C 1,4 °C 0,0 km/h (0 Bft)
27.12.2019 03:55 23,4 °C 1,4 °C 49 % 91 % 1024,1 hPa 0,0 l/m² 0,0 km/h (0 Bft) NW 320 ° 0 min 0 W/m² 0,1 °C 1,4 °C 0,0 km/h (0 Bft)
27.12.2019 03:57 23,4 °C 1,3 °C 48 % 91 % 1024,1 hPa 0,0 l/m² 0,5 km/h (0 Bft) NW 320 ° 0 min 0 W/m² -0,0 °C 1,3 °C 1,6 km/h (1 Bft)
27.12.2019 03:59 23,4 °C 1,3 °C 49 % 91 % 1024,1 hPa 0,0 l/m² 0,0 km/h (0 Bft) NW 320 ° 0 min 0 W/m² -0,0 °C 1,3 °C 0,0 km/h (0 Bft)
27.12.2019 04:00 23,4 °C 1,3 °C 49 % 91 % 1024,1 hPa 0,0 l/m² 0,0 km/h (0 Bft) NW 320 ° 0 min 0 W/m² -0,0 °C 1,3 °C 0,0 km/h (0 Bft)
27.12.2019 04:01 23,4 °C 1,3 °C 49 % 91 % 1024,1 hPa 0,0 l/m² 0,0 km/h (0 Bft) NW 320 ° 0 min 0 W/m² -0,0 °C 1,3 °C 0,0 km/h (0 Bft)
27.12.2019 04:02 23,4 °C 1,2 °C 48 % 91 % 1024,1 hPa 0,0 l/m² 0,0 km/h (0 Bft) NW 320 ° 0 min 0 W/m² -0,1 °C 1,2 °C 0,0 km/h (0 Bft)
27.12.2019 04:03 23,4 °C 1,2 °C 48 % 91 % 1024,0 hPa 0,0 l/m² 0,0 km/h (0 Bft) NW 320 ° 0 min 0 W/m² -0,1 °C 1,2 °C 0,0 km/h (0 Bft)
27.12.2019 04:05 23,4 °C 1,2 °C 48 % 91 % 1024,1 hPa 0,0 l/m² 0,5 km/h (0 Bft) NW 320 ° 0 min 0 W/m² -0,1 °C 1,2 °C 1,6 km/h (1 Bft)
27.12.2019 04:06 23,4 °C 1,1 °C 48 % 91 % 1024,1 hPa 0,0 l/m² 1,9 km/h (1 Bft) NW 320 ° 0 min 0 W/m² -0,2 °C 1,1 °C 3,2 km/h (1 Bft)
27.12.2019 04:08 23,4 °C 1,1 °C 48 % 91 % 1024,1 hPa 0,0 l/m² 2,0 km/h (1 Bft) NW 320 ° 0 min 0 W/m² -0,2 °C 1,1 °C 3,2 km/h (1 Bft)
27.12.2019 04:10 23,4 °C 1,1 °C 48 % 91 % 1024,0 hPa 0,0 l/m² 1,7 km/h (1 Bft) NW 320 ° 0 min 0 W/m² -0,2 °C 1,1 °C 3,2 km/h (1 Bft)
27.12.2019 04:11 23,4 °C 0,9 °C 49 % 91 % 1024,0 hPa 0,0 l/m² 1,7 km/h (1 Bft) NW 320 ° 0 min 0 W/m² -0,4 °C 0,9 °C 3,2 km/h (1 Bft)
27.12.2019 04:12 23,4 °C 0,9 °C 48 % 91 % 1024,0 hPa 0,0 l/m² 1,9 km/h (1 Bft) NW 320 ° 0 min 0 W/m² -0,4 °C 0,9 °C 3,2 km/h (1 Bft)
27.12.2019 04:14 23,4 °C 0,9 °C 48 % 91 % 1024,1 hPa 0,0 l/m² 1,7 km/h (1 Bft) NW 320 ° 0 min 0 W/m² -0,4 °C 0,9 °C 3,2 km/h (1 Bft)
27.12.2019 04:16 23,4 °C 0,9 °C 48 % 91 % 1024,1 hPa 0,0 l/m² 1,4 km/h (1 Bft) NW 320 ° 0 min 0 W/m² -0,4 °C 0,9 °C 3,2 km/h (1 Bft)
27.12.2019 04:18 23,4 °C 0,8 °C 49 % 91 % 1024,1 hPa 0,0 l/m² 1,4 km/h (1 Bft) NW 320 ° 0 min 0 W/m² -0,5 °C 0,8 °C 1,6 km/h (1 Bft)
27.12.2019 04:20 23,4 °C 0,8 °C 48 % 91 % 1024,1 hPa 0,0 l/m² 1,5 km/h (1 Bft) NW 320 ° 0 min 0 W/m² -0,5 °C 0,8 °C 1,6 km/h (1 Bft)
27.12.2019 04:21 23,4 °C 0,8 °C 48 % 91 % 1024,1 hPa 0,0 l/m² 1,4 km/h (1 Bft) NW 320 ° 0 min 0 W/m² -0,5 °C 0,8 °C 3,2 km/h (1 Bft)
27.12.2019 04:22 23,4 °C 0,8 °C 48 % 91 % 1024,1 hPa 0,0 l/m² 1,8 km/h (1 Bft) NW 320 ° 0 min 0 W/m² -0,5 °C 0,8 °C 3,2 km/h (1 Bft)
27.12.2019 04:24 23,4 °C 0,7 °C 48 % 91 % 1024,1 hPa 0,0 l/m² 0,4 km/h (0 Bft) NW 320 ° 0 min 0 W/m² -0,6 °C 0,7 °C 1,6 km/h (1 Bft)
27.12.2019 04:26 23,4 °C 0,7 °C 48 % 91 % 1024,2 hPa 0,0 l/m² 0,0 km/h (0 Bft) NW 320 ° 0 min 0 W/m² -0,6 °C 0,7 °C 0,0 km/h (0 Bft)
27.12.2019 04:28 23,4 °C 0,7 °C 48 % 91 % 1024,1 hPa 0,0 l/m² 0,6 km/h (0 Bft) NW 320 ° 0 min 0 W/m² -0,6 °C 0,7 °C 1,6 km/h (1 Bft)
27.12.2019 04:30 23,4 °C 0,6 °C 48 % 91 % 1024,2 hPa 0,0 l/m² 1,9 km/h (1 Bft) NW 320 ° 0 min 0 W/m² -0,7 °C 0,6 °C 3,2 km/h (1 Bft)
27.12.2019 04:31 23,4 °C 0,6 °C 48 % 91 % 1024,1 hPa 0,0 l/m² 2,6 km/h (1 Bft) NW 311 ° 0 min 0 W/m² -0,7 °C 0,6 °C 3,2 km/h (1 Bft)
27.12.2019 04:32 23,4 °C 0,6 °C 48 % 91 % 1024,2 hPa 0,0 l/m² 3,4 km/h (1 Bft) NW 311 ° 0 min 0 W/m² -0,7 °C 0,6 °C 4,8 km/h (1 Bft)
27.12.2019 04:33 23,4 °C 0,5 °C 48 % 91 % 1024,2 hPa 0,0 l/m² 2,6 km/h (1 Bft) NW 310 ° 0 min 0 W/m² -0,8 °C 0,5 °C 4,8 km/h (1 Bft)
27.12.2019 04:35 23,4 °C 0,4 °C 48 % 91 % 1024,1 hPa 0,0 l/m² 2,1 km/h (1 Bft) NW 310 ° 0 min 0 W/m² -0,9 °C 0,4 °C 4,8 km/h (1 Bft)
27.12.2019 04:37 23,4 °C 0,4 °C 48 % 91 % 1024,2 hPa 0,0 l/m² 1,9 km/h (1 Bft) NW 310 ° 0 min 0 W/m² -0,9 °C 0,4 °C 3,2 km/h (1 Bft)
27.12.2019 04:39 23,4 °C 0,4 °C 48 % 91 % 1024,1 hPa 0,0 l/m² 1,8 km/h (1 Bft) NW 310 ° 0 min 0 W/m² -0,9 °C 0,4 °C 3,2 km/h (1 Bft)
27.12.2019 04:40 23,4 °C 0,4 °C 48 % 91 % 1024,2 hPa 0,0 l/m² 0,6 km/h (0 Bft) NW 310 ° 0 min 0 W/m² -0,9 °C 0,4 °C 1,6 km/h (1 Bft)
27.12.2019 04:41 23,4 °C 0,3 °C 48 % 91 % 1024,2 hPa 0,0 l/m² 0,5 km/h (0 Bft) NW 310 ° 0 min 0 W/m² -1,0 °C 0,3 °C 1,6 km/h (1 Bft)
27.12.2019 04:43 23,4 °C 0,3 °C 48 % 91 % 1024,2 hPa 0,0 l/m² 1,4 km/h (1 Bft) NW 310 ° 0 min 0 W/m² -1,0 °C 0,3 °C 3,2 km/h (1 Bft)
27.12.2019 04:45 23,4 °C 0,3 °C 48 % 91 % 1024,2 hPa 0,0 l/m² 1,8 km/h (1 Bft) NW 310 ° 0 min 0 W/m² -1,0 °C 0,3 °C 3,2 km/h (1 Bft)
27.12.2019 04:47 23,4 °C 0,3 °C 48 % 91 % 1024,2 hPa 0,0 l/m² 0,5 km/h (0 Bft) NW 310 ° 0 min 0 W/m² -1,0 °C 0,3 °C 1,6 km/h (1 Bft)
27.12.2019 04:49 23,4 °C 0,2 °C 48 % 91 % 1024,1 hPa 0,0 l/m² 1,0 km/h (0 Bft) NW 310 ° 0 min 0 W/m² -1,1 °C 0,2 °C 1,6 km/h (1 Bft)
27.12.2019 04:50 23,4 °C 0,2 °C 48 % 91 % 1024,1 hPa 0,0 l/m² 0,9 km/h (0 Bft) NW 310 ° 0 min 0 W/m² -1,1 °C 0,2 °C 1,6 km/h (1 Bft)
27.12.2019 04:51 23,4 °C 0,2 °C 48 % 91 % 1024,1 hPa 0,0 l/m² 0,5 km/h (0 Bft) NW 310 ° 0 min 0 W/m² -1,1 °C 0,2 °C 1,6 km/h (1 Bft)
27.12.2019 04:52 23,4 °C 0,2 °C 48 % 91 % 1024,1 hPa 0,0 l/m² 0,8 km/h (0 Bft) NW 310 ° 0 min 0 W/m² -1,1 °C 0,2 °C 1,6 km/h (1 Bft)
27.12.2019 04:53 23,4 °C 0,1 °C 48 % 91 % 1024,1 hPa 0,0 l/m² 0,5 km/h (0 Bft) NW 310 ° 0 min 0 W/m² -1,2 °C 0,1 °C 1,6 km/h (1 Bft)
27.12.2019 04:55 23,4 °C 0,1 °C 48 % 91 % 1024,2 hPa 0,0 l/m² 0,0 km/h (0 Bft) NW 310 ° 0 min 0 W/m² -1,2 °C 0,1 °C 1,6 km/h (1 Bft)
27.12.2019 04:57 23,4 °C 0,1 °C 48 % 91 % 1024,2 hPa 0,0 l/m² 0,0 km/h (0 Bft) NW 310 ° 0 min 0 W/m² -1,2 °C 0,1 °C 0,0 km/h (0 Bft)
27.12.2019 04:59 23,4 °C 0,0 °C 48 % 91 % 1024,0 hPa 0,0 l/m² 0,8 km/h (0 Bft) NW 310 ° 0 min 0 W/m² -1,3 °C 0,0 °C 1,6 km/h (1 Bft)
27.12.2019 05:00 23,4 °C -0,1 °C 48 % 91 % 1024,2 hPa 0,0 l/m² 1,6 km/h (1 Bft) NW 310 ° 0 min 0 W/m² -1,4 °C -0,1 °C 1,6 km/h (1 Bft)
27.12.2019 05:01 23,4 °C -0,1 °C 48 % 91 % 1024,2 hPa 0,0 l/m² 1,4 km/h (1 Bft) NW 310 ° 0 min 0 W/m² -1,4 °C -0,1 °C 1,6 km/h (1 Bft)
27.12.2019 05:02 23,4 °C -0,1 °C 48 % 90 % 1024,1 hPa 0,0 l/m² 0,9 km/h (0 Bft) NW 310 ° 0 min 0 W/m² -1,5 °C -0,1 °C 1,6 km/h (1 Bft)
27.12.2019 05:03 23,4 °C -0,1 °C 48 % 90 % 1024,2 hPa 0,0 l/m² 0,7 km/h (0 Bft) NW 310 ° 0 min 0 W/m² -1,5 °C -0,1 °C 1,6 km/h (1 Bft)
27.12.2019 05:05 23,4 °C -0,2 °C 48 % 90 % 1024,2 hPa 0,0 l/m² 0,1 km/h (0 Bft) NW 310 ° 0 min 0 W/m² -1,6 °C -0,2 °C 1,6 km/h (1 Bft)
27.12.2019 05:07 23,4 °C -0,2 °C 48 % 90 % 1024,2 hPa 0,0 l/m² 0,5 km/h (0 Bft) NW 310 ° 0 min 0 W/m² -1,6 °C -0,2 °C 1,6 km/h (1 Bft)
27.12.2019 05:09 23,4 °C -0,2 °C 48 % 91 % 1024,3 hPa 0,0 l/m² 1,0 km/h (0 Bft) NW 310 ° 0 min 0 W/m² -1,5 °C -0,2 °C 1,6 km/h (1 Bft)
27.12.2019 05:10 23,4 °C -0,2 °C 48 % 91 % 1024,3 hPa 0,0 l/m² 0,1 km/h (0 Bft) NW 310 ° 0 min 0 W/m² -1,5 °C -0,2 °C 1,6 km/h (1 Bft)
27.12.2019 05:11 23,4 °C -0,2 °C 48 % 91 % 1024,3 hPa 0,0 l/m² 0,0 km/h (0 Bft) NW 310 ° 0 min 0 W/m² -1,5 °C -0,2 °C 0,0 km/h (0 Bft)
27.12.2019 05:12 23,4 °C -0,3 °C 48 % 91 % 1024,3 hPa 0,0 l/m² 0,0 km/h (0 Bft) NW 310 ° 0 min 0 W/m² -1,6 °C -0,3 °C 0,0 km/h (0 Bft)
27.12.2019 05:13 23,4 °C -0,3 °C 48 % 91 % 1024,3 hPa 0,0 l/m² 0,0 km/h (0 Bft) NW 310 ° 0 min 0 W/m² -1,6 °C -0,3 °C 0,0 km/h (0 Bft)
27.12.2019 05:15 23,4 °C -0,3 °C 48 % 91 % 1024,3 hPa 0,0 l/m² 0,2 km/h (0 Bft) NW 310 ° 0 min 0 W/m² -1,6 °C -0,3 °C 1,6 km/h (1 Bft)
27.12.2019 05:16 23,4 °C -0,3 °C 48 % 91 % 1024,3 hPa 0,0 l/m² 0,0 km/h (0 Bft) NW 310 ° 0 min 0 W/m² -1,6 °C -0,3 °C 0,0 km/h (0 Bft)
27.12.2019 05:18 23,4 °C -0,4 °C 48 % 91 % 1024,3 hPa 0,0 l/m² 0,0 km/h (0 Bft) NW 310 ° 0 min 0 W/m² -1,7 °C -0,4 °C 0,0 km/h (0 Bft)
27.12.2019 05:20 23,4 °C -0,4 °C 48 % 91 % 1024,3 hPa 0,0 l/m² 0,0 km/h (0 Bft) NW 310 ° 0 min 0 W/m² -1,7 °C -0,4 °C 0,0 km/h (0 Bft)
27.12.2019 05:21 23,4 °C -0,4 °C 48 % 91 % 1024,3 hPa 0,0 l/m² 0,0 km/h (0 Bft) NW 310 ° 0 min 0 W/m² -1,7 °C -0,4 °C 0,0 km/h (0 Bft)
27.12.2019 05:22 23,4 °C -0,4 °C 48 % 91 % 1024,3 hPa 0,0 l/m² 0,0 km/h (0 Bft) NW 310 ° 0 min 0 W/m² -1,7 °C -0,4 °C 0,0 km/h (0 Bft)
27.12.2019 05:24 23,4 °C -0,4 °C 48 % 91 % 1024,4 hPa 0,0 l/m² 0,8 km/h (0 Bft) NW 310 ° 0 min 0 W/m² -1,7 °C -0,4 °C 1,6 km/h (1 Bft)
27.12.2019 05:26 23,4 °C -0,4 °C 48 % 91 % 1024,4 hPa 0,0 l/m² 1,5 km/h (1 Bft) NW 310 ° 0 min 0 W/m² -1,7 °C -0,4 °C 1,6 km/h (1 Bft)
27.12.2019 05:28 23,4 °C -0,5 °C 48 % 91 % 1024,4 hPa 0,0 l/m² 1,5 km/h (1 Bft) NW 310 ° 0 min 0 W/m² -1,8 °C -0,5 °C 3,2 km/h (1 Bft)
27.12.2019 05:30 23,4 °C -0,5 °C 48 % 91 % 1024,4 hPa 0,0 l/m² 0,7 km/h (0 Bft) NW 310 ° 0 min 0 W/m² -1,8 °C -0,5 °C 1,6 km/h (1 Bft)
27.12.2019 05:31 23,4 °C -0,5 °C 48 % 91 % 1024,3 hPa 0,0 l/m² 0,2 km/h (0 Bft) NW 310 ° 0 min 0 W/m² -1,8 °C -0,5 °C 1,6 km/h (1 Bft)
27.12.2019 05:32 23,4 °C -0,6 °C 48 % 91 % 1024,4 hPa 0,0 l/m² 0,0 km/h (0 Bft) NW 310 ° 0 min 0 W/m² -1,9 °C -0,6 °C 0,0 km/h (0 Bft)
27.12.2019 05:34 23,3 °C -0,5 °C 48 % 91 % 1024,4 hPa 0,0 l/m² 0,4 km/h (0 Bft) NW 310 ° 0 min 0 W/m² -1,8 °C -0,5 °C 1,6 km/h (1 Bft)
27.12.2019 05:36 23,3 °C -0,6 °C 48 % 91 % 1024,4 hPa 0,0 l/m² 0,8 km/h (0 Bft) NW 310 ° 0 min 0 W/m² -1,9 °C -0,6 °C 1,6 km/h (1 Bft)
27.12.2019 05:38 23,4 °C -0,6 °C 48 % 91 % 1024,4 hPa 0,0 l/m² 1,1 km/h (1 Bft) NW 310 ° 0 min 0 W/m² -1,9 °C -0,6 °C 3,2 km/h (1 Bft)
27.12.2019 05:40 23,4 °C -0,6 °C 48 % 91 % 1024,4 hPa 0,0 l/m² 1,0 km/h (0 Bft) NW 310 ° 0 min 0 W/m² -1,9 °C -0,6 °C 1,6 km/h (1 Bft)
27.12.2019 05:41 23,4 °C -0,6 °C 48 % 91 % 1024,6 hPa 0,0 l/m² 0,1 km/h (0 Bft) NW 310 ° 0 min 0 W/m² -1,9 °C -0,6 °C 1,6 km/h (1 Bft)
27.12.2019 05:42 23,3 °C -0,6 °C 48 % 91 % 1024,4 hPa 0,0 l/m² 0,0 km/h (0 Bft) NW 310 ° 0 min 0 W/m² -1,9 °C -0,6 °C 0,0 km/h (0 Bft)
27.12.2019 05:44 23,3 °C -0,7 °C 48 % 91 % 1024,5 hPa 0,0 l/m² 0,0 km/h (0 Bft) NW 310 ° 0 min 0 W/m² -2,0 °C -0,7 °C 0,0 km/h (0 Bft)
27.12.2019 05:46 23,3 °C -0,7 °C 48 % 91 % 1024,5 hPa 0,0 l/m² 0,2 km/h (0 Bft) NW 310 ° 0 min 0 W/m² -2,0 °C -0,7 °C 1,6 km/h (1 Bft)
27.12.2019 05:48 23,3 °C -0,7 °C 48 % 91 % 1024,6 hPa 0,0 l/m² 1,2 km/h (1 Bft) NW 310 ° 0 min 0 W/m² -2,0 °C -0,7 °C 1,6 km/h (1 Bft)
27.12.2019 05:50 23,4 °C -0,7 °C 48 % 91 % 1024,6 hPa 0,0 l/m² 0,2 km/h (0 Bft) NW 310 ° 0 min 0 W/m² -2,0 °C -0,7 °C 1,6 km/h (1 Bft)
27.12.2019 05:51 23,3 °C -0,7 °C 48 % 91 % 1024,6 hPa 0,0 l/m² 0,8 km/h (0 Bft) NW 310 ° 0 min 0 W/m² -2,0 °C -0,7 °C 1,6 km/h (1 Bft)
27.12.2019 05:52 23,3 °C -0,8 °C 48 % 91 % 1024,6 hPa 0,0 l/m² 0,6 km/h (0 Bft) NW 310 ° 0 min 0 W/m² -2,1 °C -0,8 °C 1,6 km/h (1 Bft)
27.12.2019 05:54 23,3 °C -0,8 °C 48 % 91 % 1024,6 hPa 0,0 l/m² 0,9 km/h (0 Bft) NW 310 ° 0 min 0 W/m² -2,1 °C -0,8 °C 1,6 km/h (1 Bft)
27.12.2019 05:56 23,3 °C -0,8 °C 48 % 91 % 1024,6 hPa 0,0 l/m² 0,3 km/h (0 Bft) NW 310 ° 0 min 0 W/m² -2,1 °C -0,8 °C 1,6 km/h (1 Bft)
27.12.2019 05:58 23,3 °C -0,8 °C 48 % 91 % 1024,7 hPa 0,0 l/m² 0,0 km/h (0 Bft) NW 310 ° 0 min 0 W/m² -2,1 °C -0,8 °C 0,0 km/h (0 Bft)
27.12.2019 06:00 23,3 °C -0,9 °C 48 % 91 % 1024,7 hPa 0,0 l/m² 0,0 km/h (0 Bft) NW 310 ° 0 min 0 W/m² -2,2 °C -0,9 °C 0,0 km/h (0 Bft)
27.12.2019 06:01 23,3 °C -0,9 °C 48 % 91 % 1024,6 hPa 0,0 l/m² 0,0 km/h (0 Bft) NW 310 ° 0 min 0 W/m² -2,2 °C -0,9 °C 0,0 km/h (0 Bft)
27.12.2019 06:02 23,3 °C -0,9 °C 48 % 91 % 1024,6 hPa 0,0 l/m² 0,1 km/h (0 Bft) NW 310 ° 0 min 0 W/m² -2,2 °C -0,9 °C 1,6 km/h (1 Bft)
27.12.2019 06:04 23,3 °C -0,9 °C 48 % 91 % 1024,7 hPa 0,0 l/m² 0,8 km/h (0 Bft) NW 310 ° 0 min 0 W/m² -2,2 °C -0,9 °C 1,6 km/h (1 Bft)
27.12.2019 06:06 23,3 °C -0,9 °C 48 % 91 % 1024,7 hPa 0,0 l/m² 0,8 km/h (0 Bft) NW 310 ° 0 min 0 W/m² -2,2 °C -0,9 °C 1,6 km/h (1 Bft)
27.12.2019 06:08 23,3 °C -0,9 °C 48 % 91 % 1024,7 hPa 0,0 l/m² 0,0 km/h (0 Bft) NW 310 ° 0 min 0 W/m² -2,2 °C -0,9 °C 0,0 km/h (0 Bft)
27.12.2019 06:10 23,4 °C -1,0 °C 48 % 91 % 1024,8 hPa 0,0 l/m² 0,0 km/h (0 Bft) NW 310 ° 0 min 0 W/m² -2,3 °C -1,0 °C 0,0 km/h (0 Bft)
27.12.2019 06:11 23,3 °C -1,0 °C 48 % 92 % 1024,7 hPa 0,0 l/m² 0,0 km/h (0 Bft) NW 310 ° 0 min 0 W/m² -2,1 °C -1,0 °C 0,0 km/h (0 Bft)
27.12.2019 06:12 23,3 °C -1,0 °C 48 % 92 % 1024,7 hPa 0,0 l/m² 0,0 km/h (0 Bft) NW 310 ° 0 min 0 W/m² -2,1 °C -1,0 °C 0,0 km/h (0 Bft)
27.12.2019 06:14 23,4 °C -1,0 °C 48 % 92 % 1024,7 hPa 0,0 l/m² 0,0 km/h (0 Bft) NW 310 ° 0 min 0 W/m² -2,1 °C -1,0 °C 0,0 km/h (0 Bft)
27.12.2019 06:16 23,3 °C -1,0 °C 48 % 92 % 1024,8 hPa 0,0 l/m² 0,7 km/h (0 Bft) NW 310 ° 0 min 0 W/m² -2,1 °C -1,0 °C 1,6 km/h (1 Bft)
27.12.2019 06:18 23,4 °C -1,0 °C 48 % 92 % 1024,8 hPa 0,0 l/m² 0,9 km/h (0 Bft) NW 310 ° 0 min 0 W/m² -2,1 °C -1,0 °C 1,6 km/h (1 Bft)
27.12.2019 06:20 23,3 °C -1,0 °C 48 % 92 % 1024,9 hPa 0,0 l/m² 0,2 km/h (0 Bft) NW 310 ° 0 min 0 W/m² -2,1 °C -1,0 °C 1,6 km/h (1 Bft)
27.12.2019 06:21 23,3 °C -1,0 °C 48 % 92 % 1024,8 hPa 0,0 l/m² 0,0 km/h (0 Bft) NW 310 ° 0 min 0 W/m² -2,1 °C -1,0 °C 0,0 km/h (0 Bft)
27.12.2019 06:22 23,4 °C -1,0 °C 48 % 92 % 1024,8 hPa 0,0 l/m² 0,0 km/h (0 Bft) NW 310 ° 0 min 0 W/m² -2,1 °C -1,0 °C 0,0 km/h (0 Bft)
27.12.2019 06:24 23,4 °C -1,0 °C 48 % 92 % 1024,9 hPa 0,0 l/m² 0,5 km/h (0 Bft) NW 310 ° 0 min 0 W/m² -2,1 °C -1,0 °C 3,2 km/h (1 Bft)
27.12.2019 06:26 23,4 °C -1,0 °C 48 % 92 % 1024,8 hPa 0,0 l/m² 2,0 km/h (1 Bft) NW 310 ° 0 min 0 W/m² -2,1 °C -1,0 °C 3,2 km/h (1 Bft)
27.12.2019 06:28 23,4 °C -1,0 °C 48 % 92 % 1024,8 hPa 0,0 l/m² 2,4 km/h (1 Bft) NW 309 ° 0 min 0 W/m² -2,1 °C -1,0 °C 3,2 km/h (1 Bft)
27.12.2019 06:30 23,4 °C -1,0 °C 48 % 92 % 1024,7 hPa 0,0 l/m² 1,8 km/h (1 Bft) NW 309 ° 0 min 0 W/m² -2,1 °C -1,0 °C 3,2 km/h (1 Bft)
27.12.2019 06:31 23,4 °C -1,0 °C 48 % 92 % 1024,7 hPa 0,0 l/m² 2,6 km/h (1 Bft) NW 309 ° 0 min 0 W/m² -2,1 °C -1,0 °C 3,2 km/h (1 Bft)
27.12.2019 06:32 23,4 °C -1,0 °C 48 % 92 % 1024,7 hPa 0,0 l/m² 1,9 km/h (1 Bft) NW 309 ° 0 min 0 W/m² -2,1 °C -1,0 °C 3,2 km/h (1 Bft)
27.12.2019 06:33 23,4 °C -0,9 °C 48 % 92 % 1024,8 hPa 0,0 l/m² 0,1 km/h (0 Bft) NW 309 ° 0 min 0 W/m² -2,0 °C -0,9 °C 1,6 km/h (1 Bft)
27.12.2019 06:35 23,4 °C -0,9 °C 48 % 92 % 1024,9 hPa 0,0 l/m² 0,2 km/h (0 Bft) NW 309 ° 0 min 0 W/m² -2,0 °C -0,9 °C 1,6 km/h (1 Bft)
27.12.2019 06:37 23,4 °C -0,9 °C 48 % 92 % 1024,9 hPa 0,0 l/m² 1,2 km/h (1 Bft) NW 309 ° 0 min 0 W/m² -2,0 °C -0,9 °C 1,6 km/h (1 Bft)
27.12.2019 06:39 23,4 °C -0,9 °C 48 % 92 % 1024,9 hPa 0,0 l/m² 1,7 km/h (1 Bft) NW 309 ° 0 min 0 W/m² -2,0 °C -0,9 °C 3,2 km/h (1 Bft)
27.12.2019 06:40 23,4 °C -0,9 °C 48 % 92 % 1024,9 hPa 0,0 l/m² 2,9 km/h (1 Bft) NW 309 ° 0 min 0 W/m² -2,0 °C -0,9 °C 3,2 km/h (1 Bft)
27.12.2019 06:41 23,4 °C -0,8 °C 48 % 92 % 1024,9 hPa 0,0 l/m² 1,9 km/h (1 Bft) NW 309 ° 0 min 0 W/m² -1,9 °C -0,8 °C 3,2 km/h (1 Bft)
27.12.2019 06:42 23,4 °C -0,8 °C 48 % 92 % 1024,9 hPa 0,0 l/m² 1,9 km/h (1 Bft) NW 309 ° 0 min 0 W/m² -1,9 °C -0,8 °C 3,2 km/h (1 Bft)
27.12.2019 06:43 23,4 °C -0,9 °C 48 % 92 % 1024,9 hPa 0,0 l/m² 1,9 km/h (1 Bft) NW 309 ° 0 min 0 W/m² -2,0 °C -0,9 °C 3,2 km/h (1 Bft)
27.12.2019 06:45 23,4 °C -0,8 °C 48 % 92 % 1024,9 hPa 0,0 l/m² 1,8 km/h (1 Bft) NW 309 ° 0 min 0 W/m² -1,9 °C -0,8 °C 3,2 km/h (1 Bft)
27.12.2019 06:47 23,4 °C -0,8 °C 48 % 92 % 1024,9 hPa 0,0 l/m² 1,0 km/h (0 Bft) NW 309 ° 0 min 0 W/m² -1,9 °C -0,8 °C 3,2 km/h (1 Bft)
27.12.2019 06:48 23,4 °C -0,8 °C 48 % 92 % 1024,9 hPa 0,0 l/m² 0,9 km/h (0 Bft) NW 309 ° 0 min 0 W/m² -1,9 °C -0,8 °C 1,6 km/h (1 Bft)
27.12.2019 06:50 23,4 °C -0,8 °C 48 % 92 % 1024,9 hPa 0,0 l/m² 0,0 km/h (0 Bft) NW 309 ° 0 min 0 W/m² -1,9 °C -0,8 °C 0,0 km/h (0 Bft)
27.12.2019 06:51 23,4 °C -0,8 °C 48 % 93 % 1025,0 hPa 0,0 l/m² 0,0 km/h (0 Bft) NW 309 ° 0 min 0 W/m² -1,8 °C -0,8 °C 0,0 km/h (0 Bft)
27.12.2019 06:52 23,4 °C -0,8 °C 48 % 92 % 1024,9 hPa 0,0 l/m² 0,0 km/h (0 Bft) NW 309 ° 0 min 0 W/m² -1,9 °C -0,8 °C 0,0 km/h (0 Bft)
27.12.2019 06:54 23,4 °C -0,8 °C 48 % 93 % 1025,0 hPa 0,0 l/m² 0,4 km/h (0 Bft) NW 309 ° 0 min 0 W/m² -1,8 °C -0,8 °C 1,6 km/h (1 Bft)
27.12.2019 06:56 23,4 °C -0,8 °C 48 % 93 % 1024,9 hPa 0,0 l/m² 0,3 km/h (0 Bft) NW 309 ° 0 min 0 W/m² -1,8 °C -0,8 °C 1,6 km/h (1 Bft)
27.12.2019 06:58 23,4 °C -0,8 °C 48 % 93 % 1025,0 hPa 0,0 l/m² 1,1 km/h (1 Bft) NW 309 ° 0 min 0 W/m² -1,8 °C -0,8 °C 1,6 km/h (1 Bft)
27.12.2019 07:00 23,4 °C -0,8 °C 48 % 93 % 1025,0 hPa 0,0 l/m² 1,9 km/h (1 Bft) W-NW 282 ° 0 min 0 W/m² -1,8 °C -0,8 °C 3,2 km/h (1 Bft)
27.12.2019 07:01 23,4 °C -0,7 °C 48 % 93 % 1024,9 hPa 0,0 l/m² 3,0 km/h (1 Bft) W-NW 282 ° 0 min 0 W/m² -1,7 °C -0,7 °C 3,2 km/h (1 Bft)
27.12.2019 07:02 23,4 °C -0,8 °C 48 % 93 % 1025,0 hPa 0,0 l/m² 2,6 km/h (1 Bft) W-NW 282 ° 0 min 0 W/m² -1,8 °C -0,8 °C 3,2 km/h (1 Bft)
27.12.2019 07:04 23,4 °C -0,7 °C 48 % 93 % 1025,0 hPa 0,0 l/m² 3,0 km/h (1 Bft) W 273 ° 0 min 0 W/m² -1,7 °C -0,7 °C 4,8 km/h (1 Bft)
27.12.2019 07:06 23,5 °C -0,7 °C 48 % 93 % 1025,0 hPa 0,0 l/m² 2,5 km/h (1 Bft) W 273 ° 0 min 0 W/m² -1,7 °C -0,7 °C 4,8 km/h (1 Bft)
27.12.2019 07:07 23,5 °C -0,7 °C 48 % 93 % 1025,0 hPa 0,0 l/m² 2,9 km/h (1 Bft) W 273 ° 0 min 0 W/m² -1,7 °C -0,7 °C 4,8 km/h (1 Bft)
27.12.2019 07:08 23,4 °C -0,7 °C 48 % 93 % 1025,0 hPa 0,0 l/m² 2,8 km/h (1 Bft) W 273 ° 0 min 0 W/m² -1,7 °C -0,7 °C 3,2 km/h (1 Bft)
27.12.2019 07:10 23,4 °C -0,7 °C 48 % 93 % 1025,0 hPa 0,0 l/m² 1,6 km/h (1 Bft) W 273 ° 0 min 0 W/m² -1,7 °C -0,7 °C 3,2 km/h (1 Bft)
27.12.2019 07:11 23,4 °C -0,7 °C 48 % 93 % 1025,1 hPa 0,0 l/m² 0,1 km/h (0 Bft) W 273 ° 0 min 0 W/m² -1,7 °C -0,7 °C 1,6 km/h (1 Bft)
27.12.2019 07:12 23,4 °C -0,7 °C 48 % 93 % 1025,1 hPa 0,0 l/m² 1,4 km/h (1 Bft) W 273 ° 0 min 0 W/m² -1,7 °C -0,7 °C 1,6 km/h (1 Bft)
27.12.2019 07:14 23,4 °C -0,7 °C 48 % 93 % 1025,0 hPa 0,0 l/m² 2,2 km/h (1 Bft) W 273 ° 0 min 0 W/m² -1,7 °C -0,7 °C 4,8 km/h (1 Bft)
27.12.2019 07:16 23,5 °C -0,6 °C 48 % 93 % 1025,0 hPa 0,0 l/m² 3,6 km/h (1 Bft) W-SW 250 ° 0 min 0 W/m² -1,6 °C -0,6 °C 4,8 km/h (1 Bft)
27.12.2019 07:18 23,5 °C -0,6 °C 48 % 93 % 1025,1 hPa 0,0 l/m² 3,9 km/h (1 Bft) W-SW 250 ° 0 min 0 W/m² -1,6 °C -0,6 °C 4,8 km/h (1 Bft)
27.12.2019 07:20 23,5 °C -0,6 °C 48 % 93 % 1025,1 hPa 0,0 l/m² 3,9 km/h (1 Bft) W-SW 250 ° 0 min 0 W/m² -1,6 °C -0,6 °C 4,8 km/h (1 Bft)
27.12.2019 07:21 23,5 °C -0,6 °C 48 % 93 % 1025,1 hPa 0,0 l/m² 3,6 km/h (1 Bft) W-SW 250 ° 0 min 0 W/m² -1,6 °C -0,6 °C 4,8 km/h (1 Bft)
27.12.2019 07:22 23,5 °C -0,6 °C 48 % 93 % 1025,1 hPa 0,0 l/m² 2,8 km/h (1 Bft) W-SW 250 ° 0 min 0 W/m² -1,6 °C -0,6 °C 4,8 km/h (1 Bft)
27.12.2019 07:24 23,5 °C -0,6 °C 48 % 93 % 1025,2 hPa 0,0 l/m² 1,5 km/h (1 Bft) W-SW 250 ° 0 min 0 W/m² -1,6 °C -0,6 °C 3,2 km/h (1 Bft)
27.12.2019 07:26 23,5 °C -0,6 °C 48 % 93 % 1025,2 hPa 0,0 l/m² 0,1 km/h (0 Bft) W-SW 250 ° 0 min 0 W/m² -1,6 °C -0,6 °C 1,6 km/h (1 Bft)
27.12.2019 07:28 23,5 °C -0,7 °C 48 % 93 % 1025,2 hPa 0,0 l/m² 0,0 km/h (0 Bft) W-SW 250 ° 0 min 0 W/m² -1,7 °C -0,7 °C 1,6 km/h (1 Bft)
27.12.2019 07:30 23,5 °C -0,7 °C 48 % 93 % 1025,3 hPa 0,0 l/m² 1,9 km/h (1 Bft) W-SW 250 ° 0 min 0 W/m² -1,7 °C -0,7 °C 3,2 km/h (1 Bft)
27.12.2019 07:31 23,6 °C -0,7 °C 48 % 93 % 1025,2 hPa 0,0 l/m² 2,6 km/h (1 Bft) W-SW 250 ° 0 min 0 W/m² -1,7 °C -0,7 °C 3,2 km/h (1 Bft)
27.12.2019 07:32 23,6 °C -0,7 °C 48 % 93 % 1025,2 hPa 0,0 l/m² 2,6 km/h (1 Bft) W-SW 250 ° 0 min 0 W/m² -1,7 °C -0,7 °C 3,2 km/h (1 Bft)
27.12.2019 07:34 23,5 °C -0,7 °C 48 % 93 % 1025,3 hPa 0,0 l/m² 1,7 km/h (1 Bft) W-SW 250 ° 0 min 0 W/m² -1,7 °C -0,7 °C 3,2 km/h (1 Bft)
27.12.2019 07:36 23,6 °C -0,7 °C 48 % 93 % 1025,3 hPa 0,0 l/m² 1,6 km/h (1 Bft) W-SW 250 ° 0 min 0 W/m² -1,7 °C -0,7 °C 3,2 km/h (1 Bft)
27.12.2019 07:38 23,5 °C -0,7 °C 48 % 93 % 1025,4 hPa 0,0 l/m² 2,4 km/h (1 Bft) W-SW 250 ° 0 min 0 W/m² -1,7 °C -0,7 °C 3,2 km/h (1 Bft)
27.12.2019 07:40 23,5 °C -0,8 °C 48 % 93 % 1025,3 hPa 0,0 l/m² 2,2 km/h (1 Bft) W-SW 250 ° 0 min 0 W/m² -1,8 °C -0,8 °C 3,2 km/h (1 Bft)
27.12.2019 07:41 23,5 °C -0,8 °C 48 % 93 % 1025,4 hPa 0,0 l/m² 1,7 km/h (1 Bft) W-SW 250 ° 0 min 0 W/m² -1,8 °C -0,8 °C 3,2 km/h (1 Bft)
27.12.2019 07:42 23,5 °C -0,8 °C 48 % 93 % 1025,4 hPa 0,0 l/m² 0,9 km/h (0 Bft) W-SW 250 ° 0 min 0 W/m² -1,8 °C -0,8 °C 1,6 km/h (1 Bft)
27.12.2019 07:43 23,5 °C -0,8 °C 48 % 93 % 1025,4 hPa 0,0 l/m² 0,8 km/h (0 Bft) W-SW 250 ° 0 min 0 W/m² -1,8 °C -0,8 °C 1,6 km/h (1 Bft)
27.12.2019 07:44 23,6 °C -0,8 °C 48 % 93 % 1025,5 hPa 0,0 l/m² 0,4 km/h (0 Bft) W-SW 250 ° 0 min 0 W/m² -1,8 °C -0,8 °C 1,6 km/h (1 Bft)
27.12.2019 07:46 23,5 °C -0,8 °C 48 % 93 % 1025,5 hPa 0,0 l/m² 1,4 km/h (1 Bft) W-SW 250 ° 0 min 0 W/m² -1,8 °C -0,8 °C 1,6 km/h (1 Bft)
27.12.2019 07:48 23,5 °C -0,8 °C 48 % 93 % 1025,5 hPa 0,0 l/m² 1,4 km/h (1 Bft) W-SW 250 ° 0 min 0 W/m² -1,8 °C -0,8 °C 1,6 km/h (1 Bft)
27.12.2019 07:50 23,5 °C -0,9 °C 48 % 93 % 1025,5 hPa 0,0 l/m² 1,1 km/h (1 Bft) W-SW 250 ° 0 min 0 W/m² -1,9 °C -0,9 °C 3,2 km/h (1 Bft)
27.12.2019 07:51 23,6 °C -0,9 °C 48 % 93 % 1025,6 hPa 0,0 l/m² 1,1 km/h (1 Bft) W-SW 250 ° 0 min 0 W/m² -1,9 °C -0,9 °C 3,2 km/h (1 Bft)
27.12.2019 07:52 23,6 °C -0,9 °C 48 % 92 % 1025,6 hPa 0,0 l/m² 0,2 km/h (0 Bft) W-SW 250 ° 0 min 0 W/m² -2,0 °C -0,9 °C 1,6 km/h (1 Bft)
27.12.2019 07:53 23,6 °C -0,9 °C 48 % 92 % 1025,6 hPa 0,0 l/m² 1,1 km/h (1 Bft) W-SW 250 ° 0 min 0 W/m² -2,0 °C -0,9 °C 1,6 km/h (1 Bft)
27.12.2019 07:54 23,5 °C -1,0 °C 48 % 92 % 1025,6 hPa 0,0 l/m² 0,1 km/h (0 Bft) W-SW 250 ° 0 min 0 W/m² -2,1 °C -1,0 °C 1,6 km/h (1 Bft)
27.12.2019 07:56 23,6 °C -1,0 °C 48 % 93 % 1025,7 hPa 0,0 l/m² 0,4 km/h (0 Bft) W-SW 250 ° 0 min 0 W/m² -2,0 °C -1,0 °C 3,2 km/h (1 Bft)
27.12.2019 07:58 23,5 °C -1,1 °C 48 % 93 % 1025,7 hPa 0,0 l/m² 1,6 km/h (1 Bft) W-SW 250 ° 0 min 0 W/m² -2,1 °C -1,1 °C 3,2 km/h (1 Bft)
27.12.2019 08:00 23,5 °C -1,1 °C 48 % 93 % 1025,7 hPa 0,0 l/m² 1,0 km/h (0 Bft) W-SW 250 ° 0 min 0 W/m² -2,1 °C -1,1 °C 1,6 km/h (1 Bft)
27.12.2019 08:01 23,5 °C -1,1 °C 48 % 93 % 1025,8 hPa 0,0 l/m² 0,9 km/h (0 Bft) W-SW 250 ° 0 min 0 W/m² -2,1 °C -1,1 °C 1,6 km/h (1 Bft)
27.12.2019 08:02 23,5 °C -1,1 °C 48 % 92 % 1025,8 hPa 0,0 l/m² 1,0 km/h (0 Bft) W-SW 250 ° 0 min 0 W/m² -2,2 °C -1,1 °C 1,6 km/h (1 Bft)
27.12.2019 08:03 23,5 °C -1,1 °C 48 % 93 % 1025,9 hPa 0,0 l/m² 0,8 km/h (0 Bft) W-SW 250 ° 0 min 0 W/m² -2,1 °C -1,1 °C 1,6 km/h (1 Bft)
27.12.2019 08:05 23,5 °C -1,2 °C 48 % 93 % 1026,0 hPa 0,0 l/m² 2,2 km/h (1 Bft) W-SW 250 ° 0 min 0 W/m² -2,2 °C -1,2 °C 3,2 km/h (1 Bft)
27.12.2019 08:07 23,5 °C -1,2 °C 48 % 93 % 1025,9 hPa 0,0 l/m² 2,0 km/h (1 Bft) W-SW 250 ° 0 min 0 W/m² -2,2 °C -1,2 °C 3,2 km/h (1 Bft)
27.12.2019 08:09 23,5 °C -1,2 °C 48 % 92 % 1026,0 hPa 0,0 l/m² 1,8 km/h (1 Bft) W-SW 250 ° 0 min 0 W/m² -2,3 °C -1,2 °C 3,2 km/h (1 Bft)
27.12.2019 08:10 23,5 °C -1,2 °C 48 % 92 % 1026,0 hPa 0,0 l/m² 3,4 km/h (1 Bft) W-SW 244 ° 0 min 0 W/m² -2,3 °C -1,2 °C 4,8 km/h (1 Bft)
27.12.2019 08:11 23,5 °C -1,2 °C 48 % 92 % 1026,0 hPa 0,0 l/m² 3,1 km/h (1 Bft) W-SW 244 ° 0 min 0 W/m² -2,3 °C -1,2 °C 4,8 km/h (1 Bft)
27.12.2019 08:12 23,5 °C -1,3 °C 48 % 92 % 1026,0 hPa 0,0 l/m² 2,5 km/h (1 Bft) W-SW 244 ° 0 min 0 W/m² -2,4 °C -1,3 °C 3,2 km/h (1 Bft)
27.12.2019 08:13 23,5 °C -1,3 °C 48 % 92 % 1026,1 hPa 0,0 l/m² 2,0 km/h (1 Bft) W-SW 244 ° 0 min 0 W/m² -2,4 °C -1,3 °C 3,2 km/h (1 Bft)
27.12.2019 08:15 23,5 °C -1,3 °C 48 % 93 % 1026,1 hPa 0,0 l/m² 1,5 km/h (1 Bft) W-SW 244 ° 0 min 0 W/m² -2,3 °C -1,3 °C 3,2 km/h (1 Bft)
27.12.2019 08:17 23,5 °C -1,3 °C 48 % 93 % 1026,1 hPa 0,0 l/m² 1,2 km/h (1 Bft) W-SW 244 ° 0 min 0 W/m² -2,3 °C -1,3 °C 1,6 km/h (1 Bft)
27.12.2019 08:19 23,4 °C -1,3 °C 48 % 93 % 1026,1 hPa 0,0 l/m² 2,7 km/h (1 Bft) W-SW 244 ° 0 min 0 W/m² -2,3 °C -1,3 °C 4,8 km/h (1 Bft)
27.12.2019 08:20 23,4 °C -1,3 °C 48 % 93 % 1026,2 hPa 0,0 l/m² 2,4 km/h (1 Bft) W-SW 244 ° 0 min 0 W/m² -2,3 °C -1,3 °C 3,2 km/h (1 Bft)
27.12.2019 08:21 23,4 °C -1,3 °C 48 % 93 % 1026,2 hPa 0,0 l/m² 2,6 km/h (1 Bft) W-SW 244 ° 0 min 5 W/m² -2,3 °C -1,3 °C 3,2 km/h (1 Bft)
27.12.2019 08:22 23,4 °C -1,3 °C 48 % 93 % 1026,3 hPa 0,0 l/m² 3,2 km/h (1 Bft) W-SW 244 ° 0 min 5 W/m² -2,3 °C -1,3 °C 3,2 km/h (1 Bft)
27.12.2019 08:23 23,4 °C -1,3 °C 48 % 93 % 1026,3 hPa 0,0 l/m² 3,9 km/h (1 Bft) W-SW 244 ° 0 min 5 W/m² -2,3 °C -1,3 °C 4,8 km/h (1 Bft)
27.12.2019 08:25 23,4 °C -1,3 °C 48 % 93 % 1026,2 hPa 0,0 l/m² 3,4 km/h (1 Bft) W-SW 244 ° 0 min 5 W/m² -2,3 °C -1,3 °C 4,8 km/h (1 Bft)
27.12.2019 08:27 23,4 °C -1,3 °C 48 % 93 % 1026,2 hPa 0,0 l/m² 2,6 km/h (1 Bft) W-SW 244 ° 0 min 5 W/m² -2,3 °C -1,3 °C 4,8 km/h (1 Bft)
27.12.2019 08:29 23,4 °C -1,3 °C 48 % 93 % 1026,3 hPa 0,0 l/m² 2,2 km/h (1 Bft) W-SW 244 ° 0 min 7 W/m² -2,3 °C -1,3 °C 3,2 km/h (1 Bft)
27.12.2019 08:30 23,4 °C -1,3 °C 48 % 93 % 1026,4 hPa 0,0 l/m² 1,1 km/h (1 Bft) W-SW 244 ° 0 min 7 W/m² -2,3 °C -1,3 °C 3,2 km/h (1 Bft)
27.12.2019 08:31 23,4 °C -1,3 °C 48 % 93 % 1026,4 hPa 0,0 l/m² 0,1 km/h (0 Bft) W-SW 244 ° 0 min 7 W/m² -2,3 °C -1,3 °C 1,6 km/h (1 Bft)
27.12.2019 08:32 23,4 °C -1,3 °C 48 % 93 % 1026,4 hPa 0,0 l/m² 0,1 km/h (0 Bft) W-SW 244 ° 0 min 7 W/m² -2,3 °C -1,3 °C 1,6 km/h (1 Bft)
27.12.2019 08:33 23,4 °C -1,3 °C 48 % 93 % 1026,4 hPa 0,0 l/m² 1,4 km/h (1 Bft) W-SW 244 ° 0 min 9 W/m² -2,3 °C -1,3 °C 1,6 km/h (1 Bft)
27.12.2019 08:35 23,4 °C -1,3 °C 48 % 93 % 1026,4 hPa 0,0 l/m² 3,3 km/h (1 Bft) W-SW 244 ° 0 min 9 W/m² -2,3 °C -1,3 °C 4,8 km/h (1 Bft)
27.12.2019 08:37 23,4 °C -1,3 °C 48 % 93 % 1026,4 hPa 0,0 l/m² 3,8 km/h (1 Bft) W-SW 244 ° 0 min 11 W/m² -2,3 °C -1,3 °C 4,8 km/h (1 Bft)
27.12.2019 08:39 23,4 °C -1,3 °C 48 % 93 % 1026,3 hPa 0,0 l/m² 2,8 km/h (1 Bft) W-SW 244 ° 0 min 11 W/m² -2,3 °C -1,3 °C 4,8 km/h (1 Bft)
27.12.2019 08:40 23,4 °C -1,3 °C 48 % 93 % 1026,4 hPa 0,0 l/m² 3,5 km/h (1 Bft) W-SW 244 ° 0 min 12 W/m² -2,3 °C -1,3 °C 4,8 km/h (1 Bft)
27.12.2019 08:41 23,4 °C -1,3 °C 48 % 93 % 1026,4 hPa 0,0 l/m² 4,4 km/h (1 Bft) W-SW 244 ° 0 min 12 W/m² -2,3 °C -1,3 °C 4,8 km/h (1 Bft)
27.12.2019 08:43 23,4 °C -1,3 °C 48 % 93 % 1026,5 hPa 0,0 l/m² 2,6 km/h (1 Bft) W-SW 244 ° 0 min 12 W/m² -2,3 °C -1,3 °C 4,8 km/h (1 Bft)
27.12.2019 08:45 23,4 °C -1,2 °C 48 % 93 % 1026,6 hPa 0,0 l/m² 2,8 km/h (1 Bft) W-SW 250 ° 0 min 12 W/m² -2,2 °C -1,2 °C 4,8 km/h (1 Bft)
27.12.2019 08:47 23,4 °C -1,2 °C 48 % 93 % 1026,6 hPa 0,0 l/m² 1,8 km/h (1 Bft) W-SW 250 ° 0 min 14 W/m² -2,2 °C -1,2 °C 3,2 km/h (1 Bft)
27.12.2019 08:49 23,4 °C -1,2 °C 48 % 93 % 1026,6 hPa 0,0 l/m² 0,7 km/h (0 Bft) W-SW 250 ° 0 min 14 W/m² -2,2 °C -1,2 °C 1,6 km/h (1 Bft)
27.12.2019 08:50 23,4 °C -1,2 °C 48 % 93 % 1026,6 hPa 0,0 l/m² 0,1 km/h (0 Bft) W-SW 250 ° 0 min 14 W/m² -2,2 °C -1,2 °C 1,6 km/h (1 Bft)
27.12.2019 08:51 23,4 °C -1,2 °C 48 % 93 % 1026,5 hPa 0,0 l/m² 0,0 km/h (0 Bft) W-SW 250 ° 0 min 14 W/m² -2,2 °C -1,2 °C 0,0 km/h (0 Bft)
27.12.2019 08:53 23,4 °C -1,2 °C 48 % 93 % 1026,7 hPa 0,0 l/m² 0,0 km/h (0 Bft) W-SW 250 ° 0 min 14 W/m² -2,2 °C -1,2 °C 0,0 km/h (0 Bft)
27.12.2019 08:55 23,4 °C -1,1 °C 48 % 93 % 1026,7 hPa 0,0 l/m² 0,6 km/h (0 Bft) W-SW 250 ° 0 min 14 W/m² -2,1 °C -1,1 °C 3,2 km/h (1 Bft)
27.12.2019 08:57 23,4 °C -1,1 °C 48 % 93 % 1026,7 hPa 0,0 l/m² 1,0 km/h (0 Bft) W-SW 250 ° 0 min 16 W/m² -2,1 °C -1,1 °C 1,6 km/h (1 Bft)
27.12.2019 08:59 23,4 °C -1,1 °C 48 % 93 % 1026,8 hPa 0,0 l/m² 0,0 km/h (0 Bft) W-SW 250 ° 0 min 16 W/m² -2,1 °C -1,1 °C 0,0 km/h (0 Bft)
27.12.2019 09:00 23,4 °C -1,1 °C 48 % 93 % 1026,8 hPa 0,0 l/m² 0,0 km/h (0 Bft) W-SW 250 ° 0 min 16 W/m² -2,1 °C -1,1 °C 0,0 km/h (0 Bft)
27.12.2019 09:01 23,4 °C -1,1 °C 48 % 93 % 1026,8 hPa 0,0 l/m² 0,0 km/h (0 Bft) W-SW 250 ° 0 min 18 W/m² -2,1 °C -1,1 °C 0,0 km/h (0 Bft)
27.12.2019 09:03 23,4 °C -1,1 °C 48 % 93 % 1026,8 hPa 0,0 l/m² 0,5 km/h (0 Bft) W-SW 250 ° 0 min 18 W/m² -2,1 °C -1,1 °C 1,6 km/h (1 Bft)
27.12.2019 09:05 23,4 °C -1,1 °C 48 % 93 % 1027,0 hPa 0,0 l/m² 1,0 km/h (0 Bft) W-SW 250 ° 0 min 18 W/m² -2,1 °C -1,1 °C 1,6 km/h (1 Bft)
27.12.2019 09:07 23,4 °C -1,1 °C 48 % 93 % 1027,0 hPa 0,0 l/m² 0,6 km/h (0 Bft) W-SW 250 ° 0 min 19 W/m² -2,1 °C -1,1 °C 1,6 km/h (1 Bft)
27.12.2019 09:09 23,4 °C -1,1 °C 48 % 93 % 1027,0 hPa 0,0 l/m² 0,1 km/h (0 Bft) W-SW 250 ° 0 min 21 W/m² -2,1 °C -1,1 °C 1,6 km/h (1 Bft)
27.12.2019 09:10 23,4 °C -1,0 °C 48 % 93 % 1027,1 hPa 0,0 l/m² 0,5 km/h (0 Bft) W-SW 250 ° 0 min 21 W/m² -2,0 °C -1,0 °C 1,6 km/h (1 Bft)
27.12.2019 09:11 23,4 °C -1,1 °C 48 % 93 % 1027,1 hPa 0,0 l/m² 1,8 km/h (1 Bft) W-SW 250 ° 0 min 21 W/m² -2,1 °C -1,1 °C 3,2 km/h (1 Bft)
27.12.2019 09:12 23,4 °C -1,1 °C 48 % 93 % 1027,1 hPa 0,0 l/m² 1,3 km/h (1 Bft) W-SW 250 ° 0 min 21 W/m² -2,1 °C -1,1 °C 1,6 km/h (1 Bft)
27.12.2019 09:13 23,4 °C -1,1 °C 48 % 93 % 1027,1 hPa 0,0 l/m² 1,5 km/h (1 Bft) W-SW 250 ° 0 min 21 W/m² -2,1 °C -1,1 °C 1,6 km/h (1 Bft)
27.12.2019 09:15 23,4 °C -1,0 °C 48 % 93 % 1027,1 hPa 0,0 l/m² 1,8 km/h (1 Bft) W-SW 250 ° 0 min 23 W/m² -2,0 °C -1,0 °C 3,2 km/h (1 Bft)
27.12.2019 09:17 23,4 °C -1,0 °C 48 % 93 % 1027,2 hPa 0,0 l/m² 1,5 km/h (1 Bft) W-SW 250 ° 0 min 25 W/m² -2,0 °C -1,0 °C 1,6 km/h (1 Bft)
27.12.2019 09:19 23,4 °C -0,9 °C 48 % 93 % 1027,2 hPa 0,0 l/m² 1,2 km/h (1 Bft) W-SW 250 ° 0 min 26 W/m² -1,9 °C -0,9 °C 1,6 km/h (1 Bft)
27.12.2019 09:20 23,5 °C -0,9 °C 48 % 93 % 1027,2 hPa 0,0 l/m² 0,7 km/h (0 Bft) W-SW 250 ° 0 min 28 W/m² -1,9 °C -0,9 °C 1,6 km/h (1 Bft)
27.12.2019 09:21 23,5 °C -0,9 °C 48 % 93 % 1027,2 hPa 0,0 l/m² 1,7 km/h (1 Bft) W-SW 250 ° 0 min 28 W/m² -1,9 °C -0,9 °C 3,2 km/h (1 Bft)
27.12.2019 09:23 23,4 °C -0,9 °C 47 % 93 % 1027,3 hPa 0,0 l/m² 0,4 km/h (0 Bft) W-SW 250 ° 0 min 28 W/m² -1,9 °C -0,9 °C 1,6 km/h (1 Bft)
27.12.2019 09:25 23,4 °C -0,9 °C 47 % 93 % 1027,2 hPa 0,0 l/m² 0,1 km/h (0 Bft) W-SW 250 ° 0 min 30 W/m² -1,9 °C -0,9 °C 1,6 km/h (1 Bft)
27.12.2019 09:27 23,5 °C -0,8 °C 47 % 93 % 1027,2 hPa 0,0 l/m² 1,5 km/h (1 Bft) W-SW 250 ° 0 min 30 W/m² -1,8 °C -0,8 °C 3,2 km/h (1 Bft)
27.12.2019 09:29 23,5 °C -0,8 °C 47 % 93 % 1027,3 hPa 0,0 l/m² 0,3 km/h (0 Bft) W-SW 250 ° 0 min 30 W/m² -1,8 °C -0,8 °C 1,6 km/h (1 Bft)
27.12.2019 09:30 23,5 °C -0,8 °C 47 % 94 % 1027,3 hPa 0,0 l/m² 0,0 km/h (0 Bft) W-SW 250 ° 0 min 30 W/m² -1,6 °C -0,8 °C 0,0 km/h (0 Bft)
27.12.2019 09:31 23,5 °C -0,8 °C 47 % 93 % 1027,3 hPa 0,0 l/m² 0,0 km/h (0 Bft) W-SW 250 ° 0 min 30 W/m² -1,8 °C -0,8 °C 0,0 km/h (0 Bft)
27.12.2019 09:33 23,5 °C -0,7 °C 47 % 94 % 1027,3 hPa 0,0 l/m² 0,1 km/h (0 Bft) W-SW 250 ° 0 min 30 W/m² -1,5 °C -0,7 °C 1,6 km/h (1 Bft)
27.12.2019 09:35 23,5 °C -0,7 °C 47 % 94 % 1027,4 hPa 0,0 l/m² 0,1 km/h (0 Bft) W-SW 250 ° 0 min 30 W/m² -1,5 °C -0,7 °C 1,6 km/h (1 Bft)
27.12.2019 09:37 23,6 °C -0,7 °C 47 % 94 % 1027,4 hPa 0,0 l/m² 1,4 km/h (1 Bft) W-SW 250 ° 0 min 32 W/m² -1,5 °C -0,7 °C 3,2 km/h (1 Bft)
27.12.2019 09:39 23,6 °C -0,7 °C 47 % 94 % 1027,4 hPa 0,0 l/m² 3,1 km/h (1 Bft) W-SW 250 ° 0 min 33 W/m² -1,5 °C -0,7 °C 4,8 km/h (1 Bft)
27.12.2019 09:40 23,6 °C -0,6 °C 47 % 94 % 1027,5 hPa 0,0 l/m² 3,0 km/h (1 Bft) W-SW 250 ° 0 min 33 W/m² -1,4 °C -0,6 °C 4,8 km/h (1 Bft)
27.12.2019 09:41 23,6 °C -0,6 °C 47 % 94 % 1027,5 hPa 0,0 l/m² 1,8 km/h (1 Bft) W-SW 250 ° 0 min 33 W/m² -1,4 °C -0,6 °C 3,2 km/h (1 Bft)
27.12.2019 09:43 23,6 °C -0,6 °C 47 % 94 % 1027,5 hPa 0,0 l/m² 1,2 km/h (1 Bft) W-SW 250 ° 0 min 33 W/m² -1,4 °C -0,6 °C 1,6 km/h (1 Bft)
27.12.2019 09:45 23,6 °C -0,5 °C 47 % 94 % 1027,6 hPa 0,0 l/m² 1,1 km/h (1 Bft) W-SW 250 ° 0 min 33 W/m² -1,3 °C -0,5 °C 1,6 km/h (1 Bft)
27.12.2019 09:47 23,6 °C -0,4 °C 47 % 94 % 1027,6 hPa 0,0 l/m² 1,3 km/h (1 Bft) W-SW 250 ° 0 min 35 W/m² -1,2 °C -0,4 °C 3,2 km/h (1 Bft)
27.12.2019 09:48 23,6 °C -0,4 °C 47 % 94 % 1027,6 hPa 0,0 l/m² 2,1 km/h (1 Bft) W-SW 250 ° 0 min 35 W/m² -1,2 °C -0,4 °C 3,2 km/h (1 Bft)
27.12.2019 09:50 23,6 °C -0,4 °C 47 % 94 % 1027,6 hPa 0,0 l/m² 1,2 km/h (1 Bft) W-SW 250 ° 0 min 37 W/m² -1,2 °C -0,4 °C 3,2 km/h (1 Bft)
27.12.2019 09:51 23,6 °C -0,4 °C 47 % 94 % 1027,6 hPa 0,0 l/m² 0,4 km/h (0 Bft) W-SW 250 ° 0 min 37 W/m² -1,2 °C -0,4 °C 1,6 km/h (1 Bft)
27.12.2019 09:52 23,6 °C -0,4 °C 47 % 94 % 1027,6 hPa 0,0 l/m² 1,4 km/h (1 Bft) W-SW 250 ° 0 min 39 W/m² -1,2 °C -0,4 °C 1,6 km/h (1 Bft)
27.12.2019 09:53 23,7 °C -0,4 °C 47 % 94 % 1027,7 hPa 0,0 l/m² 1,5 km/h (1 Bft) W-SW 250 ° 0 min 39 W/m² -1,2 °C -0,4 °C 1,6 km/h (1 Bft)
27.12.2019 09:55 23,7 °C -0,3 °C 46 % 94 % 1027,7 hPa 0,0 l/m² 1,5 km/h (1 Bft) W-SW 250 ° 0 min 42 W/m² -1,1 °C -0,3 °C 3,2 km/h (1 Bft)
27.12.2019 09:57 23,6 °C -0,3 °C 46 % 94 % 1027,7 hPa 0,0 l/m² 0,9 km/h (0 Bft) W-SW 250 ° 0 min 47 W/m² -1,1 °C -0,3 °C 1,6 km/h (1 Bft)
27.12.2019 09:59 23,7 °C -0,3 °C 46 % 94 % 1027,8 hPa 0,0 l/m² 1,7 km/h (1 Bft) W-SW 250 ° 0 min 49 W/m² -1,1 °C -0,3 °C 3,2 km/h (1 Bft)
27.12.2019 10:00 23,7 °C -0,2 °C 46 % 94 % 1027,8 hPa 0,0 l/m² 1,5 km/h (1 Bft) W-SW 250 ° 0 min 51 W/m² -1,0 °C -0,2 °C 3,2 km/h (1 Bft)
27.12.2019 10:01 23,7 °C -0,2 °C 46 % 94 % 1027,8 hPa 0,0 l/m² 1,3 km/h (1 Bft) W-SW 250 ° 0 min 51 W/m² -1,0 °C -0,2 °C 1,6 km/h (1 Bft)
27.12.2019 10:02 23,7 °C -0,2 °C 46 % 94 % 1027,8 hPa 0,0 l/m² 0,0 km/h (0 Bft) W-SW 250 ° 1 min 53 W/m² -1,0 °C -0,2 °C 0,0 km/h (0 Bft)
27.12.2019 10:03 23,6 °C -0,2 °C 46 % 94 % 1027,9 hPa 0,0 l/m² 0,1 km/h (0 Bft) W-SW 250 ° 1 min 53 W/m² -1,0 °C -0,2 °C 1,6 km/h (1 Bft)
27.12.2019 10:05 23,6 °C -0,1 °C 45 % 94 % 1027,9 hPa 0,0 l/m² 0,3 km/h (0 Bft) W-SW 250 ° 2 min 56 W/m² -0,9 °C -0,1 °C 1,6 km/h (1 Bft)
27.12.2019 10:07 23,6 °C -0,1 °C 45 % 94 % 1027,9 hPa 0,0 l/m² 0,6 km/h (0 Bft) W-SW 250 ° 2 min 56 W/m² -0,9 °C -0,1 °C 1,6 km/h (1 Bft)
27.12.2019 10:09 23,6 °C 0,0 °C 45 % 94 % 1027,9 hPa 0,0 l/m² 1,1 km/h (1 Bft) W-SW 250 ° 2 min 54 W/m² -0,8 °C 0,0 °C 3,2 km/h (1 Bft)
27.12.2019 10:10 23,6 °C 0,1 °C 45 % 94 % 1028,0 hPa 0,0 l/m² 0,5 km/h (0 Bft) W-SW 250 ° 1 min 54 W/m² -0,7 °C 0,1 °C 1,6 km/h (1 Bft)
27.12.2019 10:11 23,6 °C 0,1 °C 45 % 94 % 1028,0 hPa 0,0 l/m² 0,0 km/h (0 Bft) W-SW 250 ° 1 min 54 W/m² -0,7 °C 0,1 °C 0,0 km/h (0 Bft)
27.12.2019 10:12 23,6 °C 0,1 °C 45 % 94 % 1028,0 hPa 0,0 l/m² 0,3 km/h (0 Bft) W-SW 250 ° 1 min 54 W/m² -0,7 °C 0,1 °C 1,6 km/h (1 Bft)
27.12.2019 10:13 23,6 °C 0,1 °C 44 % 94 % 1028,1 hPa 0,0 l/m² 1,1 km/h (1 Bft) W-SW 250 ° 1 min 56 W/m² -0,7 °C 0,1 °C 1,6 km/h (1 Bft)
27.12.2019 10:15 23,6 °C 0,1 °C 44 % 94 % 1028,0 hPa 0,0 l/m² 1,1 km/h (1 Bft) W-SW 250 ° 2 min 56 W/m² -0,7 °C 0,1 °C 3,2 km/h (1 Bft)
27.12.2019 10:17 23,6 °C 0,2 °C 44 % 94 % 1028,1 hPa 0,0 l/m² 0,8 km/h (0 Bft) W-SW 250 ° 2 min 60 W/m² -0,6 °C 0,2 °C 3,2 km/h (1 Bft)
27.12.2019 10:19 23,6 °C 0,2 °C 43 % 94 % 1028,0 hPa 0,0 l/m² 1,1 km/h (1 Bft) W-SW 250 ° 2 min 63 W/m² -0,6 °C 0,2 °C 3,2 km/h (1 Bft)
27.12.2019 10:20 23,5 °C 0,3 °C 43 % 94 % 1028,1 hPa 0,0 l/m² 1,2 km/h (1 Bft) W-SW 250 ° 1 min 65 W/m² -0,5 °C 0,3 °C 1,6 km/h (1 Bft)
27.12.2019 10:21 23,5 °C 0,3 °C 43 % 94 % 1028,1 hPa 0,0 l/m² 1,2 km/h (1 Bft) W-SW 250 ° 1 min 65 W/m² -0,5 °C 0,3 °C 1,6 km/h (1 Bft)
27.12.2019 10:22 23,5 °C 0,3 °C 43 % 94 % 1028,1 hPa 0,0 l/m² 1,1 km/h (1 Bft) W-SW 250 ° 1 min 65 W/m² -0,5 °C 0,3 °C 1,6 km/h (1 Bft)
27.12.2019 10:23 23,5 °C 0,3 °C 43 % 94 % 1028,2 hPa 0,0 l/m² 2,5 km/h (1 Bft) W-SW 250 ° 1 min 65 W/m² -0,5 °C 0,3 °C 4,8 km/h (1 Bft)
27.12.2019 10:25 23,5 °C 0,4 °C 43 % 94 % 1028,2 hPa 0,0 l/m² 3,0 km/h (1 Bft) W-SW 250 ° 2 min 65 W/m² -0,5 °C 0,4 °C 4,8 km/h (1 Bft)
27.12.2019 10:27 23,5 °C 0,5 °C 43 % 94 % 1028,2 hPa 0,0 l/m² 2,2 km/h (1 Bft) W-SW 250 ° 2 min 65 W/m² -0,4 °C 0,5 °C 3,2 km/h (1 Bft)
27.12.2019 10:29 23,4 °C 0,6 °C 43 % 94 % 1028,2 hPa 0,0 l/m² 2,4 km/h (1 Bft) W-SW 250 ° 2 min 65 W/m² -0,3 °C 0,6 °C 3,2 km/h (1 Bft)
27.12.2019 10:30 23,4 °C 0,6 °C 43 % 94 % 1028,3 hPa 0,0 l/m² 1,7 km/h (1 Bft) W-SW 250 ° 1 min 63 W/m² -0,3 °C 0,6 °C 3,2 km/h (1 Bft)
27.12.2019 10:31 23,4 °C 0,6 °C 43 % 94 % 1028,3 hPa 0,0 l/m² 2,3 km/h (1 Bft) W-SW 250 ° 1 min 63 W/m² -0,3 °C 0,6 °C 3,2 km/h (1 Bft)
27.12.2019 10:33 23,4 °C 0,7 °C 43 % 94 % 1028,2 hPa 0,0 l/m² 2,1 km/h (1 Bft) W-SW 250 ° 2 min 60 W/m² -0,2 °C 0,7 °C 3,2 km/h (1 Bft)
27.12.2019 10:35 23,4 °C 0,8 °C 44 % 94 % 1028,3 hPa 0,0 l/m² 3,0 km/h (1 Bft) W-SW 250 ° 2 min 60 W/m² -0,1 °C 0,8 °C 4,8 km/h (1 Bft)
27.12.2019 10:37 23,4 °C 0,9 °C 44 % 94 % 1028,4 hPa 0,0 l/m² 4,7 km/h (1 Bft) W-SW 258 ° 2 min 65 W/m² 0,0 °C 0,9 °C 6,4 km/h (2 Bft)
27.12.2019 10:39 23,4 °C 0,9 °C 44 % 94 % 1028,4 hPa 0,0 l/m² 5,1 km/h (1 Bft) W 263 ° 2 min 70 W/m² 0,0 °C 0,9 °C 6,4 km/h (2 Bft)
27.12.2019 10:40 23,4 °C 1,0 °C 44 % 94 % 1028,4 hPa 0,0 l/m² 3,9 km/h (1 Bft) W 265 ° 1 min 72 W/m² 0,1 °C 1,0 °C 4,8 km/h (1 Bft)
27.12.2019 10:41 23,4 °C 1,1 °C 44 % 94 % 1028,4 hPa 0,0 l/m² 2,8 km/h (1 Bft) W 265 ° 1 min 76 W/m² 0,2 °C 1,1 °C 3,2 km/h (1 Bft)
27.12.2019 10:42 23,4 °C 1,1 °C 44 % 94 % 1028,4 hPa 0,0 l/m² 2,4 km/h (1 Bft) W 281 ° 1 min 77 W/m² 0,2 °C 1,1 °C 4,8 km/h (1 Bft)
27.12.2019 10:43 23,4 °C 1,1 °C 44 % 94 % 1028,4 hPa 0,0 l/m² 2,7 km/h (1 Bft) W-NW 288 ° 1 min 77 W/m² 0,2 °C 1,1 °C 4,8 km/h (1 Bft)
27.12.2019 10:45 23,4 °C 1,2 °C 44 % 94 % 1028,5 hPa 0,0 l/m² 1,1 km/h (1 Bft) W-NW 288 ° 2 min 77 W/m² 0,3 °C 1,2 °C 3,2 km/h (1 Bft)
27.12.2019 10:47 23,4 °C 1,2 °C 44 % 94 % 1028,4 hPa 0,0 l/m² 1,4 km/h (1 Bft) W-NW 288 ° 2 min 77 W/m² 0,3 °C 1,2 °C 3,2 km/h (1 Bft)
27.12.2019 10:49 23,4 °C 1,3 °C 44 % 94 % 1028,4 hPa 0,0 l/m² 2,3 km/h (1 Bft) W-NW 288 ° 2 min 79 W/m² 0,4 °C 1,3 °C 3,2 km/h (1 Bft)
27.12.2019 10:50 23,4 °C 1,3 °C 44 % 94 % 1028,5 hPa 0,0 l/m² 3,6 km/h (1 Bft) W-NW 288 ° 1 min 81 W/m² 0,4 °C 1,3 °C 4,8 km/h (1 Bft)
27.12.2019 10:51 23,4 °C 1,4 °C 44 % 94 % 1028,5 hPa 0,0 l/m² 3,5 km/h (1 Bft) W-NW 294 ° 1 min 83 W/m² 0,5 °C 1,4 °C 6,4 km/h (2 Bft)
27.12.2019 10:53 23,4 °C 1,4 °C 44 % 94 % 1028,4 hPa 0,0 l/m² 2,1 km/h (1 Bft) W-NW 294 ° 2 min 86 W/m² 0,5 °C 1,4 °C 3,2 km/h (1 Bft)
27.12.2019 10:55 23,5 °C 1,4 °C 44 % 94 % 1028,5 hPa 0,0 l/m² 0,6 km/h (0 Bft) W-NW 294 ° 2 min 90 W/m² 0,5 °C 1,4 °C 1,6 km/h (1 Bft)
27.12.2019 10:57 23,4 °C 1,5 °C 44 % 94 % 1028,6 hPa 0,0 l/m² 1,9 km/h (1 Bft) W-NW 294 ° 2 min 102 W/m² 0,6 °C 1,5 °C 3,2 km/h (1 Bft)
27.12.2019 10:59 23,4 °C 1,8 °C 44 % 95 % 1028,6 hPa 0,0 l/m² 1,2 km/h (1 Bft) W-NW 294 ° 2 min 137 W/m² 1,1 °C 1,8 °C 3,2 km/h (1 Bft)
27.12.2019 11:00 23,4 °C 1,9 °C 44 % 95 % 1028,6 hPa 0,0 l/m² 1,6 km/h (1 Bft) W-NW 294 ° 1 min 142 W/m² 1,2 °C 1,9 °C 3,2 km/h (1 Bft)
27.12.2019 11:01 23,5 °C 1,9 °C 44 % 95 % 1028,7 hPa 0,0 l/m² 2,2 km/h (1 Bft) W-NW 294 ° 1 min 139 W/m² 1,2 °C 1,9 °C 3,2 km/h (1 Bft)
27.12.2019 11:02 23,5 °C 2,0 °C 44 % 94 % 1028,6 hPa 0,0 l/m² 3,3 km/h (1 Bft) W-SW 255 ° 1 min 139 W/m² 1,1 °C 2,0 °C 4,8 km/h (1 Bft)
27.12.2019 11:03 23,5 °C 2,1 °C 44 % 94 % 1028,6 hPa 0,0 l/m² 3,2 km/h (1 Bft) W-SW 247 ° 1 min 139 W/m² 1,2 °C 2,1 °C 4,8 km/h (1 Bft)
27.12.2019 11:04 23,5 °C 2,1 °C 44 % 94 % 1028,7 hPa 0,0 l/m² 3,2 km/h (1 Bft) W-SW 247 ° 1 min 137 W/m² 1,2 °C 2,1 °C 4,8 km/h (1 Bft)
27.12.2019 11:10 23,5 °C 2,7 °C 44 % 94 % 1028,7 hPa 0,0 l/m² 2,3 km/h (1 Bft) NW 312 ° 6 min 111 W/m² 1,8 °C 2,7 °C 4,8 km/h (1 Bft)
27.12.2019 11:12 23,5 °C 2,9 °C 44 % 94 % 1028,8 hPa 0,0 l/m² 3,2 km/h (1 Bft) NW 319 ° 2 min 104 W/m² 2,0 °C 2,9 °C 4,8 km/h (1 Bft)
27.12.2019 11:14 23,5 °C 3,1 °C 44 % 94 % 1028,8 hPa 0,0 l/m² 4,1 km/h (1 Bft) W-NW 302 ° 2 min 104 W/m² 2,2 °C 3,1 °C 6,4 km/h (2 Bft)
27.12.2019 11:16 23,5 °C 3,2 °C 44 % 94 % 1028,8 hPa 0,0 l/m² 2,5 km/h (1 Bft) NW 320 ° 2 min 109 W/m² 2,3 °C 3,2 °C 4,8 km/h (1 Bft)
27.12.2019 11:18 23,5 °C 3,3 °C 44 % 93 % 1028,8 hPa 0,0 l/m² 2,0 km/h (1 Bft) NW 311 ° 2 min 111 W/m² 2,3 °C 3,3 °C 4,8 km/h (1 Bft)
27.12.2019 11:20 23,5 °C 3,3 °C 44 % 93 % 1028,8 hPa 0,0 l/m² 4,5 km/h (1 Bft) NW 315 ° 2 min 107 W/m² 2,3 °C 3,3 °C 6,4 km/h (2 Bft)
27.12.2019 11:21 23,5 °C 3,3 °C 44 % 93 % 1028,9 hPa 0,0 l/m² 7,5 km/h (2 Bft) N 349 ° 1 min 104 W/m² 2,3 °C 2,3 °C 9,7 km/h (2 Bft)
27.12.2019 11:22 23,5 °C 3,3 °C 44 % 93 % 1028,9 hPa 0,0 l/m² 7,1 km/h (2 Bft) NW 308 ° 1 min 98 W/m² 2,3 °C 2,6 °C 11,3 km/h (2 Bft)
27.12.2019 11:23 23,5 °C 3,3 °C 44 % 93 % 1028,9 hPa 0,0 l/m² 7,8 km/h (2 Bft) NW 317 ° 1 min 102 W/m² 2,3 °C 2,0 °C 12,9 km/h (3 Bft)
27.12.2019 11:25 23,5 °C 3,4 °C 45 % 92 % 1028,9 hPa 0,0 l/m² 5,6 km/h (2 Bft) NW 320 ° 2 min 100 W/m² 2,2 °C 3,4 °C 9,7 km/h (2 Bft)
27.12.2019 11:27 23,5 °C 3,4 °C 45 % 92 % 1028,9 hPa 0,0 l/m² 4,0 km/h (1 Bft) NW 318 ° 2 min 98 W/m² 2,2 °C 3,4 °C 8,0 km/h (2 Bft)
27.12.2019 11:29 23,5 °C 3,5 °C 45 % 92 % 1028,9 hPa 0,0 l/m² 3,8 km/h (1 Bft) N-NW 340 ° 2 min 97 W/m² 2,3 °C 3,5 °C 8,0 km/h (2 Bft)
27.12.2019 11:30 23,5 °C 3,5 °C 45 % 92 % 1029,0 hPa 0,0 l/m² 4,9 km/h (1 Bft) N 360 ° 1 min 95 W/m² 2,3 °C 3,5 °C 6,4 km/h (2 Bft)
27.12.2019 11:31 23,5 °C 3,6 °C 45 % 92 % 1029,0 hPa 0,0 l/m² 3,6 km/h (1 Bft) N-NW 333 ° 1 min 95 W/m² 2,4 °C 3,6 °C 6,4 km/h (2 Bft)
27.12.2019 11:33 23,5 °C 3,6 °C 45 % 91 % 1028,9 hPa 0,0 l/m² 5,0 km/h (1 Bft) NW 321 ° 2 min 100 W/m² 2,3 °C 3,6 °C 8,0 km/h (2 Bft)
27.12.2019 11:35 23,5 °C 3,6 °C 45 % 91 % 1029,0 hPa 0,0 l/m² 4,0 km/h (1 Bft) NW 315 ° 2 min 105 W/m² 2,3 °C 3,6 °C 6,4 km/h (2 Bft)
27.12.2019 11:37 23,5 °C 3,6 °C 45 % 91 % 1029,0 hPa 0,0 l/m² 3,6 km/h (1 Bft) N-NW 328 ° 2 min 109 W/m² 2,3 °C 3,6 °C 6,4 km/h (2 Bft)
27.12.2019 11:39 23,6 °C 3,6 °C 45 % 91 % 1029,0 hPa 0,0 l/m² 5,1 km/h (1 Bft) N-NW 333 ° 2 min 107 W/m² 2,3 °C 3,6 °C 8,0 km/h (2 Bft)
27.12.2019 11:40 23,5 °C 3,6 °C 43 % 91 % 1029,1 hPa 0,0 l/m² 4,7 km/h (1 Bft) NW 319 ° 1 min 105 W/m² 2,3 °C 3,6 °C 8,0 km/h (2 Bft)
27.12.2019 11:41 23,5 °C 3,7 °C 43 % 91 % 1029,1 hPa 0,0 l/m² 5,4 km/h (2 Bft) NW 318 ° 1 min 104 W/m² 2,4 °C 3,7 °C 8,0 km/h (2 Bft)
27.12.2019 11:43 23,5 °C 3,7 °C 43 % 91 % 1029,2 hPa 0,0 l/m² 5,1 km/h (1 Bft) NW 309 ° 2 min 98 W/m² 2,4 °C 3,7 °C 8,0 km/h (2 Bft)
27.12.2019 11:45 23,4 °C 3,7 °C 43 % 90 % 1029,3 hPa 0,0 l/m² 7,0 km/h (2 Bft) W-NW 301 ° 2 min 95 W/m² 2,2 °C 3,1 °C 12,9 km/h (3 Bft)
27.12.2019 11:47 23,4 °C 3,7 °C 43 % 90 % 1029,2 hPa 0,0 l/m² 9,6 km/h (2 Bft) NW 313 ° 2 min 93 W/m² 2,2 °C 0,9 °C 14,5 km/h (3 Bft)
27.12.2019 11:49 23,4 °C 3,6 °C 43 % 90 % 1029,1 hPa 0,0 l/m² 6,9 km/h (2 Bft) W-NW 302 ° 2 min 97 W/m² 2,1 °C 3,1 °C 11,3 km/h (2 Bft)
27.12.2019 11:50 23,4 °C 3,6 °C 43 % 90 % 1029,2 hPa 0,0 l/m² 4,8 km/h (1 Bft) NW 313 ° 1 min 98 W/m² 2,1 °C 3,6 °C 6,4 km/h (2 Bft)
27.12.2019 11:51 23,4 °C 3,6 °C 43 % 90 % 1029,2 hPa 0,0 l/m² 3,7 km/h (1 Bft) NW 313 ° 1 min 102 W/m² 2,1 °C 3,6 °C 6,4 km/h (2 Bft)
27.12.2019 11:53 23,4 °C 3,6 °C 43 % 90 % 1029,1 hPa 0,0 l/m² 5,7 km/h (2 Bft) NW 321 ° 2 min 120 W/m² 2,1 °C 3,6 °C 8,0 km/h (2 Bft)
27.12.2019 11:55 23,4 °C 3,6 °C 43 % 90 % 1029,2 hPa 0,0 l/m² 6,1 km/h (2 Bft) N-NW 339 ° 2 min 134 W/m² 2,1 °C 3,6 °C 9,7 km/h (2 Bft)
27.12.2019 11:57 23,4 °C 3,6 °C 43 % 90 % 1029,2 hPa 0,0 l/m² 6,4 km/h (2 Bft) NW 317 ° 2 min 148 W/m² 2,1 °C 3,6 °C 11,3 km/h (2 Bft)
27.12.2019 11:59 23,4 °C 3,7 °C 43 % 91 % 1029,3 hPa 0,0 l/m² 6,0 km/h (2 Bft) NW 320 ° 2 min 156 W/m² 2,4 °C 3,7 °C 9,7 km/h (2 Bft)
27.12.2019 12:00 23,4 °C 3,7 °C 43 % 91 % 1029,3 hPa 0,0 l/m² 6,7 km/h (2 Bft) W-NW 302 ° 1 min 155 W/m² 2,4 °C 3,4 °C 11,3 km/h (2 Bft)
27.12.2019 12:01 23,4 °C 3,8 °C 43 % 91 % 1029,3 hPa 0,0 l/m² 5,1 km/h (1 Bft) NW 309 ° 1 min 151 W/m² 2,5 °C 3,8 °C 6,4 km/h (2 Bft)
27.12.2019 12:03 23,4 °C 3,9 °C 43 % 91 % 1029,3 hPa 0,0 l/m² 6,3 km/h (2 Bft) N 360 ° 2 min 207 W/m² 2,6 °C 3,9 °C 12,9 km/h (3 Bft)
27.12.2019 12:04 23,4 °C 3,9 °C 43 % 91 % 1029,4 hPa 0,0 l/m² 4,6 km/h (1 Bft) N-NW 327 ° 1 min 128 W/m² 2,6 °C 3,9 °C 6,4 km/h (2 Bft)
27.12.2019 12:06 23,5 °C 4,1 °C 43 % 91 % 1029,4 hPa 0,0 l/m² 3,8 km/h (1 Bft) N 350 ° 2 min 116 W/m² 2,8 °C 4,1 °C 6,4 km/h (2 Bft)
27.12.2019 12:08 23,6 °C 4,2 °C 43 % 91 % 1029,3 hPa 0,0 l/m² 5,0 km/h (1 Bft) N-NW 347 ° 2 min 113 W/m² 2,9 °C 4,2 °C 6,4 km/h (2 Bft)
27.12.2019 12:10 23,6 °C 4,3 °C 44 % 90 % 1029,4 hPa 0,0 l/m² 6,2 km/h (2 Bft) NW 325 ° 2 min 114 W/m² 2,8 °C 4,3 °C 9,7 km/h (2 Bft)
27.12.2019 12:11 23,7 °C 4,2 °C 44 % 90 % 1029,4 hPa 0,0 l/m² 8,2 km/h (2 Bft) N-NW 342 ° 1 min 118 W/m² 2,7 °C 2,6 °C 14,5 km/h (3 Bft)
27.12.2019 12:12 23,7 °C 4,2 °C 44 % 90 % 1029,4 hPa 0,0 l/m² 9,0 km/h (2 Bft) NW 325 ° 1 min 120 W/m² 2,7 °C 1,9 °C 14,5 km/h (3 Bft)
27.12.2019 12:14 23,7 °C 4,2 °C 44 % 90 % 1029,5 hPa 0,0 l/m² 7,2 km/h (2 Bft) W-NW 301 ° 2 min 121 W/m² 2,7 °C 3,5 °C 12,9 km/h (3 Bft)
27.12.2019 12:16 23,7 °C 4,2 °C 44 % 90 % 1029,4 hPa 0,0 l/m² 6,5 km/h (2 Bft) NW 311 ° 2 min 121 W/m² 2,7 °C 4,1 °C 12,9 km/h (3 Bft)
27.12.2019 12:18 23,7 °C 4,2 °C 44 % 89 % 1029,4 hPa 0,0 l/m² 9,0 km/h (2 Bft) N-NW 333 ° 2 min 125 W/m² 2,6 °C 1,9 °C 14,5 km/h (3 Bft)
27.12.2019 12:20 23,7 °C 4,2 °C 44 % 89 % 1029,6 hPa 0,0 l/m² 9,7 km/h (2 Bft) N-NW 331 ° 2 min 121 W/m² 2,6 °C 1,4 °C 14,5 km/h (3 Bft)
27.12.2019 12:22 23,7 °C 4,3 °C 44 % 89 % 1029,5 hPa 0,0 l/m² 5,0 km/h (1 Bft) N-NW 327 ° 2 min 114 W/m² 2,7 °C 4,3 °C 8,0 km/h (2 Bft)
27.12.2019 12:24 23,7 °C 4,3 °C 44 % 89 % 1029,6 hPa 0,0 l/m² 7,1 km/h (2 Bft) N-NW 346 ° 2 min 109 W/m² 2,7 °C 3,7 °C 12,9 km/h (3 Bft)
27.12.2019 12:26 23,7 °C 4,3 °C 44 % 89 % 1029,7 hPa 0,0 l/m² 9,3 km/h (2 Bft) N-NW 344 ° 2 min 105 W/m² 2,7 °C 1,8 °C 12,9 km/h (3 Bft)
27.12.2019 12:28 23,7 °C 4,3 °C 44 % 89 % 1029,6 hPa 0,0 l/m² 6,3 km/h (2 Bft) NW 325 ° 2 min 105 W/m² 2,7 °C 4,3 °C 12,9 km/h (3 Bft)
27.12.2019 12:30 23,7 °C 4,3 °C 44 % 89 % 1029,7 hPa 0,0 l/m² 8,1 km/h (2 Bft) N-NW 337 ° 2 min 111 W/m² 2,7 °C 2,8 °C 12,9 km/h (3 Bft)
27.12.2019 12:32 23,7 °C 4,3 °C 44 % 89 % 1029,8 hPa 0,0 l/m² 8,5 km/h (2 Bft) N 355 ° 2 min 111 W/m² 2,7 °C 2,5 °C 14,5 km/h (3 Bft)
27.12.2019 12:34 23,7 °C 4,3 °C 44 % 89 % 1029,8 hPa 0,0 l/m² 7,3 km/h (2 Bft) N-NW 333 ° 2 min 111 W/m² 2,7 °C 3,5 °C 12,9 km/h (3 Bft)
27.12.2019 12:36 23,6 °C 4,3 °C 44 % 89 % 1029,8 hPa 0,0 l/m² 8,5 km/h (2 Bft) N-NW 347 ° 2 min 111 W/m² 2,7 °C 2,5 °C 14,5 km/h (3 Bft)
27.12.2019 12:38 23,6 °C 4,3 °C 44 % 88 % 1029,8 hPa 0,0 l/m² 9,9 km/h (2 Bft) N-NW 331 ° 2 min 111 W/m² 2,5 °C 1,4 °C 14,5 km/h (3 Bft)
27.12.2019 12:40 23,6 °C 4,3 °C 44 % 88 % 1029,9 hPa 0,0 l/m² 10,0 km/h (2 Bft) N-NW 341 ° 2 min 113 W/m² 2,5 °C 1,3 °C 14,5 km/h (3 Bft)
27.12.2019 12:42 23,6 °C 4,3 °C 44 % 88 % 1029,9 hPa 0,0 l/m² 10,7 km/h (2 Bft) N 355 ° 2 min 113 W/m² 2,5 °C 0,8 °C 14,5 km/h (3 Bft)
27.12.2019 12:44 23,6 °C 4,3 °C 44 % 88 % 1030,0 hPa 0,0 l/m² 6,7 km/h (2 Bft) N-NW 347 ° 2 min 114 W/m² 2,5 °C 4,0 °C 11,3 km/h (2 Bft)
27.12.2019 12:46 23,6 °C 4,4 °C 44 % 88 % 1030,0 hPa 0,0 l/m² 6,4 km/h (2 Bft) N-NW 338 ° 2 min 113 W/m² 2,6 °C 4,4 °C 14,5 km/h (3 Bft)
27.12.2019 12:47 23,6 °C 4,4 °C 44 % 88 % 1030,0 hPa 0,0 l/m² 10,0 km/h (2 Bft) N 350 ° 1 min 111 W/m² 2,6 °C 1,4 °C 14,5 km/h (3 Bft)
27.12.2019 12:48 23,6 °C 4,4 °C 44 % 88 % 1030,1 hPa 0,0 l/m² 12,4 km/h (2 Bft) N-NW 348 ° 1 min 109 W/m² 2,6 °C -0,2 °C 16,1 km/h (3 Bft)
27.12.2019 12:50 23,6 °C 4,4 °C 44 % 88 % 1030,0 hPa 0,0 l/m² 8,0 km/h (2 Bft) N-NW 329 ° 2 min 107 W/m² 2,6 °C 3,0 °C 14,5 km/h (3 Bft)
27.12.2019 12:52 23,6 °C 4,4 °C 44 % 88 % 1030,0 hPa 0,0 l/m² 10,5 km/h (2 Bft) N 360 ° 2 min 105 W/m² 2,6 °C 1,1 °C 14,5 km/h (3 Bft)
27.12.2019 12:54 23,6 °C 4,4 °C 44 % 88 % 1030,1 hPa 0,0 l/m² 9,2 km/h (2 Bft) N-NW 340 ° 2 min 102 W/m² 2,6 °C 2,0 °C 14,5 km/h (3 Bft)
27.12.2019 12:56 23,6 °C 4,4 °C 44 % 88 % 1030,1 hPa 0,0 l/m² 6,1 km/h (2 Bft) N 355 ° 2 min 100 W/m² 2,6 °C 4,4 °C 9,7 km/h (2 Bft)
27.12.2019 12:58 23,6 °C 4,4 °C 44 % 88 % 1030,2 hPa 0,0 l/m² 7,2 km/h (2 Bft) N 355 ° 2 min 93 W/m² 2,6 °C 3,7 °C 12,9 km/h (3 Bft)
27.12.2019 13:00 23,6 °C 4,4 °C 44 % 87 % 1030,2 hPa 0,0 l/m² 7,3 km/h (2 Bft) N 355 ° 2 min 91 W/m² 2,4 °C 3,6 °C 12,9 km/h (3 Bft)
27.12.2019 13:02 23,6 °C 4,5 °C 44 % 87 % 1030,2 hPa 0,0 l/m² 6,7 km/h (2 Bft) N 355 ° 2 min 95 W/m² 2,5 °C 4,2 °C 9,7 km/h (2 Bft)
27.12.2019 13:04 23,6 °C 4,5 °C 44 % 87 % 1030,2 hPa 0,0 l/m² 7,4 km/h (2 Bft) N 355 ° 2 min 97 W/m² 2,5 °C 3,6 °C 12,9 km/h (3 Bft)
27.12.2019 13:06 23,6 °C 4,5 °C 44 % 87 % 1030,2 hPa 0,0 l/m² 7,8 km/h (2 Bft) N-NW 344 ° 2 min 97 W/m² 2,5 °C 3,2 °C 12,9 km/h (3 Bft)
27.12.2019 13:08 23,6 °C 4,6 °C 44 % 87 % 1030,1 hPa 0,0 l/m² 6,7 km/h (2 Bft) N-NW 336 ° 2 min 95 W/m² 2,6 °C 4,3 °C 9,7 km/h (2 Bft)
27.12.2019 13:10 23,6 °C 4,6 °C 44 % 87 % 1030,2 hPa 0,0 l/m² 8,1 km/h (2 Bft) N 355 ° 2 min 95 W/m² 2,6 °C 3,1 °C 14,5 km/h (3 Bft)
27.12.2019 13:12 23,6 °C 4,6 °C 44 % 87 % 1030,2 hPa 0,0 l/m² 9,3 km/h (2 Bft) N-NW 342 ° 2 min 98 W/m² 2,6 °C 2,1 °C 14,5 km/h (3 Bft)
27.12.2019 13:14 23,6 °C 4,6 °C 45 % 87 % 1030,2 hPa 0,0 l/m² 11,0 km/h (2 Bft) N-NW 330 ° 2 min 97 W/m² 2,6 °C 0,9 °C 16,1 km/h (3 Bft)
27.12.2019 13:16 23,6 °C 4,6 °C 45 % 87 % 1030,1 hPa 0,0 l/m² 7,9 km/h (2 Bft) N 360 ° 2 min 90 W/m² 2,6 °C 3,3 °C 12,9 km/h (3 Bft)
27.12.2019 13:18 23,6 °C 4,6 °C 45 % 87 % 1030,2 hPa 0,0 l/m² 8,8 km/h (2 Bft) N 360 ° 2 min 86 W/m² 2,6 °C 2,5 °C 12,9 km/h (3 Bft)
27.12.2019 13:20 23,6 °C 4,6 °C 45 % 87 % 1030,3 hPa 0,0 l/m² 6,6 km/h (2 Bft) N 5 ° 2 min 81 W/m² 2,6 °C 4,4 °C 12,9 km/h (3 Bft)
27.12.2019 13:22 23,6 °C 4,6 °C 45 % 87 % 1030,3 hPa 0,0 l/m² 6,5 km/h (2 Bft) N 5 ° 2 min 74 W/m² 2,6 °C 4,5 °C 14,5 km/h (3 Bft)
27.12.2019 13:24 23,6 °C 4,6 °C 45 % 86 % 1030,3 hPa 0,0 l/m² 9,0 km/h (2 Bft) N 350 ° 2 min 77 W/m² 2,5 °C 2,4 °C 14,5 km/h (3 Bft)
27.12.2019 13:26 23,6 °C 4,6 °C 45 % 86 % 1030,3 hPa 0,0 l/m² 7,4 km/h (2 Bft) NW 322 ° 2 min 81 W/m² 2,5 °C 3,7 °C 12,9 km/h (3 Bft)
27.12.2019 13:28 23,6 °C 4,6 °C 45 % 86 % 1030,3 hPa 0,0 l/m² 6,7 km/h (2 Bft) N 355 ° 2 min 77 W/m² 2,5 °C 4,3 °C 12,9 km/h (3 Bft)
27.12.2019 13:30 23,6 °C 4,6 °C 45 % 86 % 1030,3 hPa 0,0 l/m² 6,8 km/h (2 Bft) N-NW 348 ° 2 min 76 W/m² 2,5 °C 4,3 °C 9,7 km/h (2 Bft)
27.12.2019 13:32 23,6 °C 4,6 °C 45 % 86 % 1030,4 hPa 0,0 l/m² 5,7 km/h (2 Bft) N-NO 17 ° 2 min 74 W/m² 2,5 °C 4,6 °C 11,3 km/h (2 Bft)
27.12.2019 13:34 23,6 °C 4,6 °C 45 % 86 % 1030,4 hPa 0,0 l/m² 6,7 km/h (2 Bft) NO 44 ° 2 min 74 W/m² 2,5 °C 4,3 °C 9,7 km/h (2 Bft)
27.12.2019 13:36 23,6 °C 4,6 °C 46 % 86 % 1030,4 hPa 0,0 l/m² 8,0 km/h (2 Bft) N-NO 27 ° 2 min 72 W/m² 2,5 °C 3,2 °C 12,9 km/h (3 Bft)
27.12.2019 13:38 23,6 °C 4,6 °C 46 % 85 % 1030,4 hPa 0,0 l/m² 7,9 km/h (2 Bft) N-NO 23 ° 2 min 70 W/m² 2,3 °C 3,3 °C 14,5 km/h (3 Bft)
27.12.2019 13:40 23,6 °C 4,6 °C 46 % 84 % 1030,4 hPa 0,0 l/m² 8,1 km/h (2 Bft) N 355 ° 2 min 70 W/m² 2,1 °C 3,1 °C 12,9 km/h (3 Bft)
27.12.2019 13:42 23,6 °C 4,6 °C 46 % 84 % 1030,4 hPa 0,0 l/m² 5,8 km/h (2 Bft) N 355 ° 2 min 70 W/m² 2,1 °C 4,6 °C 11,3 km/h (2 Bft)
27.12.2019 13:44 23,6 °C 4,6 °C 46 % 84 % 1030,5 hPa 0,0 l/m² 5,6 km/h (2 Bft) N-NO 16 ° 2 min 69 W/m² 2,1 °C 4,6 °C 11,3 km/h (2 Bft)
27.12.2019 13:46 23,6 °C 4,6 °C 46 % 84 % 1030,6 hPa 0,0 l/m² 4,1 km/h (1 Bft) N 5 ° 2 min 67 W/m² 2,1 °C 4,6 °C 6,4 km/h (2 Bft)
27.12.2019 13:48 23,6 °C 4,6 °C 46 % 84 % 1030,5 hPa 0,0 l/m² 5,0 km/h (1 Bft) N-NO 13 ° 2 min 62 W/m² 2,1 °C 4,6 °C 8,0 km/h (2 Bft)
27.12.2019 13:50 23,6 °C 4,6 °C 46 % 83 % 1030,6 hPa 0,0 l/m² 8,1 km/h (2 Bft) N-NO 28 ° 2 min 58 W/m² 2,0 °C 3,1 °C 12,9 km/h (3 Bft)
27.12.2019 13:52 23,7 °C 4,5 °C 46 % 82 % 1030,6 hPa 0,0 l/m² 6,3 km/h (2 Bft) N-NW 348 ° 2 min 60 W/m² 1,7 °C 4,5 °C 11,3 km/h (2 Bft)
27.12.2019 13:54 23,6 °C 4,5 °C 46 % 82 % 1030,6 hPa 0,0 l/m² 7,0 km/h (2 Bft) N 360 ° 2 min 60 W/m² 1,7 °C 4,0 °C 11,3 km/h (2 Bft)
27.12.2019 13:56 23,6 °C 4,5 °C 46 % 82 % 1030,6 hPa 0,0 l/m² 7,2 km/h (2 Bft) N-NW 336 ° 2 min 62 W/m² 1,7 °C 3,8 °C 11,3 km/h (2 Bft)
27.12.2019 13:58 23,7 °C 4,5 °C 46 % 82 % 1030,5 hPa 0,0 l/m² 10,4 km/h (2 Bft) N 349 ° 2 min 62 W/m² 1,7 °C 1,2 °C 14,5 km/h (3 Bft)
27.12.2019 14:00 23,6 °C 4,5 °C 46 % 83 % 1030,6 hPa 0,0 l/m² 8,1 km/h (2 Bft) NW 322 ° 2 min 58 W/m² 1,9 °C 3,0 °C 14,5 km/h (3 Bft)
27.12.2019 14:02 23,7 °C 4,5 °C 46 % 83 % 1030,6 hPa 0,0 l/m² 8,7 km/h (2 Bft) N 350 ° 2 min 54 W/m² 1,9 °C 2,5 °C 14,5 km/h (3 Bft)
27.12.2019 14:04 23,7 °C 4,6 °C 46 % 83 % 1030,7 hPa 0,0 l/m² 10,3 km/h (2 Bft) N 360 ° 2 min 53 W/m² 2,0 °C 1,4 °C 16,1 km/h (3 Bft)
27.12.2019 14:06 23,7 °C 4,5 °C 46 % 83 % 1030,8 hPa 0,0 l/m² 8,7 km/h (2 Bft) N 360 ° 2 min 53 W/m² 1,9 °C 2,5 °C 14,5 km/h (3 Bft)
27.12.2019 14:08 23,7 °C 4,5 °C 46 % 83 % 1030,7 hPa 0,0 l/m² 11,3 km/h (2 Bft) N-NW 346 ° 2 min 54 W/m² 1,9 °C 0,6 °C 14,5 km/h (3 Bft)
27.12.2019 14:10 23,7 °C 4,5 °C 46 % 84 % 1030,8 hPa 0,0 l/m² 7,9 km/h (2 Bft) N-NW 328 ° 2 min 56 W/m² 2,0 °C 3,2 °C 12,9 km/h (3 Bft)
27.12.2019 14:12 23,7 °C 4,4 °C 46 % 84 % 1030,8 hPa 0,0 l/m² 9,3 km/h (2 Bft) N-NW 340 ° 2 min 56 W/m² 1,9 °C 1,9 °C 12,9 km/h (3 Bft)
27.12.2019 14:14 23,7 °C 4,4 °C 46 % 84 % 1030,8 hPa 0,0 l/m² 7,7 km/h (2 Bft) N 5 ° 2 min 54 W/m² 1,9 °C 3,2 °C 14,5 km/h (3 Bft)
27.12.2019 14:16 23,7 °C 4,4 °C 46 % 84 % 1030,8 hPa 0,0 l/m² 7,5 km/h (2 Bft) N 355 ° 0 min 51 W/m² 1,9 °C 3,4 °C 12,9 km/h (3 Bft)
27.12.2019 14:18 23,7 °C 4,4 °C 46 % 84 % 1030,9 hPa 0,0 l/m² 9,8 km/h (2 Bft) N 355 ° 0 min 51 W/m² 1,9 °C 1,6 °C 19,3 km/h (3 Bft)
27.12.2019 14:20 23,7 °C 4,4 °C 46 % 81 % 1030,9 hPa 0,0 l/m² 11,3 km/h (2 Bft) N-NW 341 ° 0 min 49 W/m² 1,4 °C 0,5 °C 17,7 km/h (3 Bft)
27.12.2019 14:22 23,7 °C 4,3 °C 46 % 79 % 1031,0 hPa 0,0 l/m² 8,9 km/h (2 Bft) N-NW 342 ° 0 min 44 W/m² 1,0 °C 2,1 °C 12,9 km/h (3 Bft)
27.12.2019 14:24 23,7 °C 4,3 °C 46 % 81 % 1031,0 hPa 0,0 l/m² 10,5 km/h (2 Bft) N-NO 24 ° 0 min 40 W/m² 1,3 °C 0,9 °C 14,5 km/h (3 Bft)
27.12.2019 14:26 23,7 °C 4,3 °C 46 % 82 % 1030,9 hPa 0,0 l/m² 7,8 km/h (2 Bft) N 5 ° 0 min 39 W/m² 1,5 °C 3,0 °C 12,9 km/h (3 Bft)
27.12.2019 14:28 23,7 °C 4,3 °C 46 % 83 % 1031,0 hPa 0,0 l/m² 6,9 km/h (2 Bft) N-NO 15 ° 0 min 37 W/m² 1,7 °C 3,9 °C 12,9 km/h (3 Bft)
27.12.2019 14:30 23,7 °C 4,3 °C 46 % 83 % 1031,1 hPa 0,0 l/m² 9,7 km/h (2 Bft) N-NO 20 ° 0 min 33 W/m² 1,7 °C 1,5 °C 14,5 km/h (3 Bft)
27.12.2019 14:32 23,7 °C 4,3 °C 46 % 83 % 1031,0 hPa 0,0 l/m² 6,2 km/h (2 Bft) N-NW 347 ° 0 min 33 W/m² 1,7 °C 4,3 °C 9,7 km/h (2 Bft)
27.12.2019 14:34 23,7 °C 4,3 °C 46 % 83 % 1031,1 hPa 0,0 l/m² 5,2 km/h (1 Bft) N 360 ° 0 min 33 W/m² 1,7 °C 4,3 °C 8,0 km/h (2 Bft)
27.12.2019 14:36 23,7 °C 4,3 °C 46 % 82 % 1031,1 hPa 0,0 l/m² 5,8 km/h (2 Bft) N-NO 30 ° 0 min 33 W/m² 1,5 °C 4,3 °C 11,3 km/h (2 Bft)
27.12.2019 14:38 23,7 °C 4,3 °C 45 % 82 % 1031,2 hPa 0,0 l/m² 7,2 km/h (2 Bft) N 5 ° 0 min 30 W/m² 1,5 °C 3,6 °C 12,9 km/h (3 Bft)
27.12.2019 14:40 23,7 °C 4,2 °C 45 % 83 % 1031,2 hPa 0,0 l/m² 6,4 km/h (2 Bft) N 355 ° 0 min 30 W/m² 1,6 °C 4,2 °C 12,9 km/h (3 Bft)
27.12.2019 14:42 23,7 °C 4,2 °C 45 % 83 % 1031,2 hPa 0,0 l/m² 7,4 km/h (2 Bft) N 5 ° 0 min 28 W/m² 1,6 °C 3,3 °C 12,9 km/h (3 Bft)
27.12.2019 14:44 23,7 °C 4,2 °C 45 % 83 % 1031,3 hPa 0,0 l/m² 8,1 km/h (2 Bft) N-NO 23 ° 0 min 28 W/m² 1,6 °C 2,7 °C 16,1 km/h (3 Bft)
27.12.2019 14:46 23,7 °C 4,2 °C 45 % 83 % 1031,2 hPa 0,0 l/m² 9,3 km/h (2 Bft) N-NO 24 ° 0 min 28 W/m² 1,6 °C 1,7 °C 14,5 km/h (3 Bft)
27.12.2019 14:48 23,7 °C 4,2 °C 45 % 80 % 1031,3 hPa 0,0 l/m² 9,9 km/h (2 Bft) N-NO 13 ° 0 min 28 W/m² 1,1 °C 1,3 °C 16,1 km/h (3 Bft)
27.12.2019 14:50 23,7 °C 4,1 °C 46 % 78 % 1031,3 hPa 0,0 l/m² 7,7 km/h (2 Bft) N 360 ° 0 min 25 W/m² 0,6 °C 2,9 °C 17,7 km/h (3 Bft)
27.12.2019 14:52 23,6 °C 4,1 °C 45 % 77 % 1031,4 hPa 0,0 l/m² 8,4 km/h (2 Bft) N-NW 348 ° 0 min 23 W/m² 0,4 °C 2,3 °C 12,9 km/h (3 Bft)
27.12.2019 14:54 23,6 °C 4,1 °C 46 % 78 % 1031,3 hPa 0,0 l/m² 8,9 km/h (2 Bft) N-NW 346 ° 0 min 21 W/m² 0,6 °C 1,9 °C 16,1 km/h (3 Bft)
27.12.2019 14:56 23,6 °C 4,1 °C 46 % 77 % 1031,4 hPa 0,0 l/m² 11,1 km/h (2 Bft) N-NO 32 ° 0 min 19 W/m² 0,4 °C 0,3 °C 14,5 km/h (3 Bft)
27.12.2019 14:58 23,6 °C 4,1 °C 46 % 77 % 1031,3 hPa 0,0 l/m² 10,9 km/h (2 Bft) N 355 ° 0 min 19 W/m² 0,4 °C 0,4 °C 17,7 km/h (3 Bft)
27.12.2019 15:00 23,6 °C 4,0 °C 46 % 77 % 1031,4 hPa 0,0 l/m² 9,5 km/h (2 Bft) N 360 ° 0 min 19 W/m² 0,3 °C 1,3 °C 16,1 km/h (3 Bft)
27.12.2019 15:02 23,7 °C 4,0 °C 46 % 77 % 1031,4 hPa 0,0 l/m² 9,0 km/h (2 Bft) N-NW 346 ° 0 min 19 W/m² 0,3 °C 1,7 °C 12,9 km/h (3 Bft)
27.12.2019 15:04 23,7 °C 4,0 °C 46 % 77 % 1031,4 hPa 0,0 l/m² 8,4 km/h (2 Bft) N-NW 344 ° 0 min 18 W/m² 0,3 °C 2,2 °C 14,5 km/h (3 Bft)
27.12.2019 15:06 23,7 °C 4,0 °C 46 % 77 % 1031,4 hPa 0,0 l/m² 7,6 km/h (2 Bft) N-NW 338 ° 0 min 18 W/m² 0,3 °C 2,9 °C 12,9 km/h (3 Bft)
27.12.2019 15:08 23,7 °C 3,9 °C 46 % 78 % 1031,5 hPa 0,0 l/m² 5,7 km/h (2 Bft) N-NW 328 ° 0 min 16 W/m² 0,4 °C 3,9 °C 8,0 km/h (2 Bft)
27.12.2019 15:10 23,7 °C 4,0 °C 45 % 78 % 1031,5 hPa 0,0 l/m² 4,4 km/h (1 Bft) N-NW 334 ° 0 min 14 W/m² 0,5 °C 4,0 °C 8,0 km/h (2 Bft)
27.12.2019 15:12 23,7 °C 3,9 °C 45 % 79 % 1031,5 hPa 0,0 l/m² 3,1 km/h (1 Bft) N-NW 336 ° 0 min 14 W/m² 0,6 °C 3,9 °C 6,4 km/h (2 Bft)
27.12.2019 15:14 23,7 °C 4,0 °C 45 % 79 % 1031,5 hPa 0,0 l/m² 6,6 km/h (2 Bft) N 355 ° 0 min 14 W/m² 0,7 °C 3,8 °C 9,7 km/h (2 Bft)
27.12.2019 15:16 23,7 °C 3,9 °C 45 % 79 % 1031,5 hPa 0,0 l/m² 7,5 km/h (2 Bft) N-NW 341 ° 0 min 12 W/m² 0,6 °C 2,9 °C 12,9 km/h (3 Bft)
27.12.2019 15:18 23,8 °C 3,9 °C 45 % 79 % 1031,5 hPa 0,0 l/m² 5,6 km/h (2 Bft) N-NW 341 ° 0 min 11 W/m² 0,6 °C 3,9 °C 8,0 km/h (2 Bft)
27.12.2019 15:20 23,8 °C 3,9 °C 45 % 79 % 1031,6 hPa 0,0 l/m² 5,4 km/h (2 Bft) NW 322 ° 0 min 11 W/m² 0,6 °C 3,9 °C 9,7 km/h (2 Bft)
27.12.2019 15:22 23,8 °C 3,9 °C 46 % 79 % 1031,6 hPa 0,0 l/m² 4,6 km/h (1 Bft) NW 313 ° 0 min 11 W/m² 0,6 °C 3,9 °C 6,4 km/h (2 Bft)
27.12.2019 15:24 23,8 °C 3,9 °C 46 % 78 % 1031,6 hPa 0,0 l/m² 4,5 km/h (1 Bft) N-NW 327 ° 0 min 9 W/m² 0,4 °C 3,9 °C 8,0 km/h (2 Bft)
27.12.2019 15:26 23,9 °C 3,8 °C 46 % 78 % 1031,6 hPa 0,0 l/m² 2,9 km/h (1 Bft) NW 310 ° 0 min 9 W/m² 0,3 °C 3,8 °C 4,8 km/h (1 Bft)
27.12.2019 15:28 23,9 °C 3,8 °C 46 % 79 % 1031,7 hPa 0,0 l/m² 4,8 km/h (1 Bft) N 9 ° 0 min 9 W/m² 0,5 °C 3,8 °C 8,0 km/h (2 Bft)
27.12.2019 15:30 23,9 °C 3,8 °C 46 % 79 % 1031,7 hPa 0,0 l/m² 6,5 km/h (2 Bft) N-NW 342 ° 0 min 7 W/m² 0,5 °C 3,7 °C 9,7 km/h (2 Bft)
27.12.2019 15:32 24,0 °C 3,8 °C 46 % 79 % 1031,7 hPa 0,0 l/m² 8,6 km/h (2 Bft) N-NW 332 ° 0 min 7 W/m² 0,5 °C 1,8 °C 16,1 km/h (3 Bft)
27.12.2019 15:34 24,0 °C 3,8 °C 46 % 79 % 1031,8 hPa 0,0 l/m² 7,7 km/h (2 Bft) N-NW 330 ° 0 min 7 W/m² 0,5 °C 2,6 °C 9,7 km/h (2 Bft)
27.12.2019 15:36 24,0 °C 3,8 °C 46 % 79 % 1031,8 hPa 0,0 l/m² 5,9 km/h (2 Bft) N-NW 340 ° 0 min 5 W/m² 0,5 °C 3,8 °C 8,0 km/h (2 Bft)
27.12.2019 15:38 24,1 °C 3,8 °C 46 % 79 % 1031,9 hPa 0,0 l/m² 7,7 km/h (2 Bft) N-NW 338 ° 0 min 5 W/m² 0,5 °C 2,6 °C 12,9 km/h (3 Bft)
27.12.2019 15:40 24,1 °C 3,8 °C 46 % 79 % 1031,8 hPa 0,0 l/m² 11,2 km/h (2 Bft) N 5 ° 0 min 5 W/m² 0,5 °C -0,1 °C 17,7 km/h (3 Bft)
27.12.2019 15:42 24,1 °C 3,8 °C 46 % 80 % 1031,9 hPa 0,0 l/m² 7,3 km/h (2 Bft) N-NW 336 ° 0 min 0 W/m² 0,7 °C 3,0 °C 9,7 km/h (2 Bft)
27.12.2019 15:44 24,1 °C 3,8 °C 46 % 80 % 1031,9 hPa 0,0 l/m² 10,8 km/h (2 Bft) NW 319 ° 0 min 0 W/m² 0,7 °C 0,2 °C 14,5 km/h (3 Bft)
27.12.2019 15:46 24,2 °C 3,7 °C 47 % 81 % 1031,9 hPa 0,0 l/m² 9,5 km/h (2 Bft) N-NW 344 ° 0 min 0 W/m² 0,7 °C 1,0 °C 14,5 km/h (3 Bft)
27.12.2019 15:47 24,2 °C 3,7 °C 47 % 82 % 1031,9 hPa 0,0 l/m² 6,4 km/h (2 Bft) N 355 ° 0 min 0 W/m² 0,9 °C 3,7 °C 8,0 km/h (2 Bft)
27.12.2019 15:48 24,1 °C 3,8 °C 47 % 82 % 1031,9 hPa 0,0 l/m² 8,8 km/h (2 Bft) N-NW 330 ° 0 min 0 W/m² 1,0 °C 1,7 °C 14,5 km/h (3 Bft)
27.12.2019 15:50 24,2 °C 3,7 °C 47 % 83 % 1032,0 hPa 0,0 l/m² 6,6 km/h (2 Bft) N-NW 345 ° 0 min 0 W/m² 1,1 °C 3,5 °C 12,9 km/h (3 Bft)
27.12.2019 15:52 24,2 °C 3,7 °C 47 % 83 % 1032,0 hPa 0,0 l/m² 7,4 km/h (2 Bft) N 355 ° 0 min 0 W/m² 1,1 °C 2,8 °C 9,7 km/h (2 Bft)
27.12.2019 15:54 24,2 °C 3,7 °C 47 % 83 % 1032,1 hPa 0,0 l/m² 6,8 km/h (2 Bft) NW 325 ° 0 min 0 W/m² 1,1 °C 3,3 °C 9,7 km/h (2 Bft)
27.12.2019 15:56 24,2 °C 3,7 °C 46 % 84 % 1032,0 hPa 0,0 l/m² 5,8 km/h (2 Bft) N-NW 333 ° 0 min 0 W/m² 1,3 °C 3,7 °C 9,7 km/h (2 Bft)
27.12.2019 15:58 24,2 °C 3,7 °C 44 % 84 % 1032,1 hPa 0,0 l/m² 7,1 km/h (2 Bft) NW 312 ° 0 min 0 W/m² 1,3 °C 3,1 °C 14,5 km/h (3 Bft)
27.12.2019 16:00 24,2 °C 3,7 °C 44 % 84 % 1032,2 hPa 0,0 l/m² 8,9 km/h (2 Bft) N-NW 344 ° 0 min 0 W/m² 1,3 °C 1,5 °C 14,5 km/h (3 Bft)
27.12.2019 16:02 24,1 °C 3,7 °C 43 % 84 % 1032,1 hPa 0,0 l/m² 8,5 km/h (2 Bft) N-NW 346 ° 0 min 0 W/m² 1,3 °C 1,8 °C 14,5 km/h (3 Bft)
27.12.2019 16:04 24,1 °C 3,7 °C 43 % 85 % 1032,1 hPa 0,0 l/m² 8,4 km/h (2 Bft) N 350 ° 0 min 0 W/m² 1,4 °C 1,9 °C 12,9 km/h (3 Bft)
27.12.2019 16:06 24,1 °C 3,6 °C 44 % 85 % 1032,1 hPa 0,0 l/m² 8,2 km/h (2 Bft) N-NW 327 ° 0 min 0 W/m² 1,3 °C 2,0 °C 14,5 km/h (3 Bft)
27.12.2019 16:08 24,2 °C 3,6 °C 44 % 85 % 1032,2 hPa 0,0 l/m² 8,2 km/h (2 Bft) N-NW 327 ° 0 min 0 W/m² 1,3 °C 2,0 °C 12,9 km/h (3 Bft)
27.12.2019 16:10 24,1 °C 3,6 °C 44 % 85 % 1032,2 hPa 0,0 l/m² 6,6 km/h (2 Bft) N 351 ° 0 min 0 W/m² 1,3 °C 3,4 °C 12,9 km/h (3 Bft)
27.12.2019 16:12 24,2 °C 3,6 °C 45 % 85 % 1032,3 hPa 0,0 l/m² 6,7 km/h (2 Bft) N-NW 341 ° 0 min 0 W/m² 1,3 °C 3,3 °C 11,3 km/h (2 Bft)
27.12.2019 16:14 24,2 °C 3,6 °C 45 % 85 % 1032,3 hPa 0,0 l/m² 6,7 km/h (2 Bft) N 355 ° 0 min 0 W/m² 1,3 °C 3,3 °C 9,7 km/h (2 Bft)
27.12.2019 16:16 24,2 °C 3,6 °C 45 % 85 % 1032,3 hPa 0,0 l/m² 7,9 km/h (2 Bft) N-NW 334 ° 0 min 0 W/m² 1,3 °C 2,2 °C 12,9 km/h (3 Bft)
27.12.2019 16:18 24,2 °C 3,6 °C 45 % 86 % 1032,4 hPa 0,0 l/m² 8,5 km/h (2 Bft) NW 315 ° 0 min 0 W/m² 1,5 °C 1,7 °C 12,9 km/h (3 Bft)
27.12.2019 16:20 24,2 °C 3,5 °C 45 % 86 % 1032,4 hPa 0,0 l/m² 9,2 km/h (2 Bft) N-NW 327 ° 0 min 0 W/m² 1,4 °C 1,0 °C 16,1 km/h (3 Bft)
27.12.2019 16:22 24,2 °C 3,5 °C 45 % 86 % 1032,5 hPa 0,0 l/m² 9,0 km/h (2 Bft) NW 318 ° 0 min 0 W/m² 1,4 °C 1,2 °C 14,5 km/h (3 Bft)
27.12.2019 16:24 24,2 °C 3,5 °C 45 % 86 % 1032,4 hPa 0,0 l/m² 7,8 km/h (2 Bft) N-NW 348 ° 0 min 0 W/m² 1,4 °C 2,2 °C 12,9 km/h (3 Bft)
27.12.2019 16:26 24,2 °C 3,4 °C 45 % 86 % 1032,5 hPa 0,0 l/m² 7,6 km/h (2 Bft) N 355 ° 0 min 0 W/m² 1,3 °C 2,3 °C 12,9 km/h (3 Bft)
27.12.2019 16:28 24,2 °C 3,5 °C 45 % 86 % 1032,5 hPa 0,0 l/m² 8,0 km/h (2 Bft) N 355 ° 0 min 0 W/m² 1,4 °C 2,0 °C 14,5 km/h (3 Bft)
27.12.2019 16:30 24,3 °C 3,4 °C 46 % 86 % 1032,5 hPa 0,0 l/m² 8,5 km/h (2 Bft) N 355 ° 0 min 0 W/m² 1,3 °C 1,5 °C 12,9 km/h (3 Bft)
27.12.2019 16:32 24,3 °C 3,4 °C 46 % 86 % 1032,5 hPa 0,0 l/m² 8,6 km/h (2 Bft) N 355 ° 0 min 0 W/m² 1,3 °C 1,4 °C 14,5 km/h (3 Bft)
27.12.2019 16:34 24,2 °C 3,4 °C 46 % 86 % 1032,6 hPa 0,0 l/m² 4,8 km/h (1 Bft) N 351 ° 0 min 0 W/m² 1,3 °C 3,4 °C 9,7 km/h (2 Bft)
27.12.2019 16:36 24,3 °C 3,4 °C 46 % 86 % 1032,7 hPa 0,0 l/m² 7,3 km/h (2 Bft) N 355 ° 0 min 0 W/m² 1,3 °C 2,6 °C 9,7 km/h (2 Bft)
27.12.2019 16:38 24,3 °C 3,4 °C 45 % 86 % 1032,6 hPa 0,0 l/m² 7,6 km/h (2 Bft) N 355 ° 0 min 0 W/m² 1,3 °C 2,3 °C 12,9 km/h (3 Bft)
27.12.2019 16:40 24,3 °C 3,4 °C 45 % 86 % 1032,6 hPa 0,0 l/m² 5,8 km/h (2 Bft) N 355 ° 0 min 0 W/m² 1,3 °C 3,4 °C 8,0 km/h (2 Bft)
27.12.2019 16:42 24,2 °C 3,4 °C 45 % 86 % 1032,6 hPa 0,0 l/m² 5,3 km/h (1 Bft) N 349 ° 0 min 0 W/m² 1,3 °C 3,4 °C 8,0 km/h (2 Bft)
27.12.2019 16:44 24,3 °C 3,4 °C 45 % 86 % 1032,7 hPa 0,0 l/m² 6,0 km/h (2 Bft) N-NW 331 ° 0 min 0 W/m² 1,3 °C 3,4 °C 8,0 km/h (2 Bft)
27.12.2019 16:46 24,3 °C 3,4 °C 45 % 87 % 1032,7 hPa 0,0 l/m² 6,1 km/h (2 Bft) N-NW 346 ° 0 min 0 W/m² 1,4 °C 3,4 °C 9,7 km/h (2 Bft)
27.12.2019 16:48 24,3 °C 3,4 °C 45 % 87 % 1032,8 hPa 0,0 l/m² 6,7 km/h (2 Bft) N-NW 342 ° 0 min 0 W/m² 1,4 °C 3,1 °C 9,7 km/h (2 Bft)
27.12.2019 16:50 24,2 °C 3,3 °C 45 % 87 % 1032,8 hPa 0,0 l/m² 8,1 km/h (2 Bft) NW 315 ° 0 min 0 W/m² 1,3 °C 1,7 °C 12,9 km/h (3 Bft)
27.12.2019 16:52 24,3 °C 3,3 °C 45 % 87 % 1032,9 hPa 0,0 l/m² 5,5 km/h (2 Bft) N 360 ° 0 min 0 W/m² 1,3 °C 3,3 °C 8,0 km/h (2 Bft)
27.12.2019 16:54 24,3 °C 3,3 °C 46 % 87 % 1032,9 hPa 0,0 l/m² 8,1 km/h (2 Bft) N-NO 17 ° 0 min 0 W/m² 1,3 °C 1,7 °C 14,5 km/h (3 Bft)
27.12.2019 16:56 24,3 °C 3,3 °C 46 % 87 % 1032,8 hPa 0,0 l/m² 9,2 km/h (2 Bft) N 360 ° 0 min 0 W/m² 1,3 °C 0,8 °C 16,1 km/h (3 Bft)
27.12.2019 16:58 24,3 °C 3,3 °C 46 % 87 % 1032,9 hPa 0,0 l/m² 7,6 km/h (2 Bft) N-NW 348 ° 0 min 0 W/m² 1,3 °C 2,2 °C 14,5 km/h (3 Bft)
27.12.2019 17:00 24,3 °C 3,3 °C 46 % 87 % 1032,9 hPa 0,0 l/m² 6,4 km/h (2 Bft) N-NW 340 ° 0 min 0 W/m² 1,3 °C 3,3 °C 9,7 km/h (2 Bft)
27.12.2019 17:02 24,3 °C 3,3 °C 46 % 87 % 1032,9 hPa 0,0 l/m² 7,4 km/h (2 Bft) N-NW 344 ° 0 min 0 W/m² 1,3 °C 2,4 °C 12,9 km/h (3 Bft)
27.12.2019 17:04 24,3 °C 3,3 °C 46 % 87 % 1032,9 hPa 0,0 l/m² 7,4 km/h (2 Bft) NW 326 ° 0 min 0 W/m² 1,3 °C 2,4 °C 12,9 km/h (3 Bft)
27.12.2019 17:06 24,3 °C 3,3 °C 46 % 87 % 1032,9 hPa 0,0 l/m² 6,7 km/h (2 Bft) N 360 ° 0 min 0 W/m² 1,3 °C 3,0 °C 9,7 km/h (2 Bft)
27.12.2019 17:08 24,3 °C 3,3 °C 46 % 87 % 1033,0 hPa 0,0 l/m² 6,4 km/h (2 Bft) N-NW 331 ° 0 min 0 W/m² 1,3 °C 3,3 °C 9,7 km/h (2 Bft)
27.12.2019 17:10 24,3 °C 3,2 °C 45 % 87 % 1033,0 hPa 0,0 l/m² 5,9 km/h (2 Bft) N-NW 337 ° 0 min 0 W/m² 1,2 °C 3,2 °C 8,0 km/h (2 Bft)
27.12.2019 17:12 24,3 °C 3,2 °C 45 % 87 % 1032,9 hPa 0,0 l/m² 4,2 km/h (1 Bft) NW 317 ° 0 min 0 W/m² 1,2 °C 3,2 °C 8,0 km/h (2 Bft)
27.12.2019 17:14 24,3 °C 3,2 °C 45 % 87 % 1032,9 hPa 0,0 l/m² 3,5 km/h (1 Bft) N-NW 331 ° 0 min 0 W/m² 1,2 °C 3,2 °C 6,4 km/h (2 Bft)
27.12.2019 17:16 24,3 °C 3,2 °C 45 % 87 % 1033,1 hPa 0,0 l/m² 5,7 km/h (2 Bft) N-NW 340 ° 0 min 0 W/m² 1,2 °C 3,2 °C 9,7 km/h (2 Bft)
27.12.2019 17:18 24,3 °C 3,2 °C 45 % 87 % 1033,1 hPa 0,0 l/m² 6,7 km/h (2 Bft) NW 325 ° 0 min 0 W/m² 1,2 °C 2,9 °C 9,7 km/h (2 Bft)
27.12.2019 17:20 24,3 °C 3,2 °C 45 % 86 % 1033,1 hPa 0,0 l/m² 8,9 km/h (2 Bft) N 355 ° 0 min 0 W/m² 1,1 °C 0,9 °C 16,1 km/h (3 Bft)
27.12.2019 17:22 24,3 °C 3,1 °C 45 % 86 % 1033,1 hPa 0,0 l/m² 7,4 km/h (2 Bft) N 9 ° 0 min 0 W/m² 1,0 °C 2,2 °C 9,7 km/h (2 Bft)
27.12.2019 17:24 24,3 °C 3,1 °C 45 % 86 % 1033,2 hPa 0,0 l/m² 5,8 km/h (2 Bft) N-NW 347 ° 0 min 0 W/m² 1,0 °C 3,1 °C 8,0 km/h (2 Bft)
27.12.2019 17:26 24,3 °C 3,1 °C 45 % 86 % 1033,2 hPa 0,0 l/m² 6,4 km/h (2 Bft) N-NW 342 ° 0 min 0 W/m² 1,0 °C 3,1 °C 8,0 km/h (2 Bft)
27.12.2019 17:28 24,3 °C 3,1 °C 45 % 86 % 1033,3 hPa 0,0 l/m² 5,7 km/h (2 Bft) N-NW 345 ° 0 min 0 W/m² 1,0 °C 3,1 °C 8,0 km/h (2 Bft)
27.12.2019 17:30 24,4 °C 3,1 °C 46 % 86 % 1033,3 hPa 0,0 l/m² 4,6 km/h (1 Bft) N 360 ° 0 min 0 W/m² 1,0 °C 3,1 °C 8,0 km/h (2 Bft)
27.12.2019 17:32 24,4 °C 3,1 °C 46 % 86 % 1033,3 hPa 0,0 l/m² 6,0 km/h (2 Bft) N 360 ° 0 min 0 W/m² 1,0 °C 3,1 °C 9,7 km/h (2 Bft)
27.12.2019 17:34 24,4 °C 3,1 °C 46 % 86 % 1033,3 hPa 0,0 l/m² 4,0 km/h (1 Bft) N 355 ° 0 min 0 W/m² 1,0 °C 3,1 °C 4,8 km/h (1 Bft)
27.12.2019 17:36 24,4 °C 3,1 °C 46 % 87 % 1033,4 hPa 0,0 l/m² 4,8 km/h (1 Bft) N-NW 347 ° 0 min 0 W/m² 1,2 °C 3,1 °C 8,0 km/h (2 Bft)
27.12.2019 17:38 24,4 °C 3,1 °C 46 % 87 % 1033,3 hPa 0,0 l/m² 4,1 km/h (1 Bft) N-NW 336 ° 0 min 0 W/m² 1,2 °C 3,1 °C 8,0 km/h (2 Bft)
27.12.2019 17:40 24,4 °C 3,1 °C 46 % 87 % 1033,4 hPa 0,0 l/m² 3,9 km/h (1 Bft) N 355 ° 0 min 0 W/m² 1,2 °C 3,1 °C 8,0 km/h (2 Bft)
27.12.2019 17:42 24,4 °C 3,1 °C 46 % 87 % 1033,4 hPa 0,0 l/m² 3,4 km/h (1 Bft) N 350 ° 0 min 0 W/m² 1,2 °C 3,1 °C 4,8 km/h (1 Bft)
27.12.2019 17:44 24,4 °C 3,1 °C 46 % 87 % 1033,4 hPa 0,0 l/m² 5,7 km/h (2 Bft) N-NW 347 ° 0 min 0 W/m² 1,2 °C 3,1 °C 8,0 km/h (2 Bft)
27.12.2019 17:46 24,4 °C 3,0 °C 46 % 87 % 1033,5 hPa 0,0 l/m² 7,3 km/h (2 Bft) N 355 ° 0 min 0 W/m² 1,1 °C 2,1 °C 12,9 km/h (3 Bft)
27.12.2019 17:48 24,4 °C 3,1 °C 46 % 87 % 1033,6 hPa 0,0 l/m² 5,8 km/h (2 Bft) N 5 ° 0 min 0 W/m² 1,2 °C 3,1 °C 8,0 km/h (2 Bft)
27.12.2019 17:50 24,4 °C 3,0 °C 46 % 87 % 1033,6 hPa 0,0 l/m² 6,2 km/h (2 Bft) N-NW 342 ° 0 min 0 W/m² 1,1 °C 3,0 °C 8,0 km/h (2 Bft)
27.12.2019 17:52 24,4 °C 3,0 °C 46 % 87 % 1033,6 hPa 0,0 l/m² 6,2 km/h (2 Bft) N 355 ° 0 min 0 W/m² 1,1 °C 3,0 °C 9,7 km/h (2 Bft)
27.12.2019 17:54 24,4 °C 3,0 °C 44 % 87 % 1033,6 hPa 0,0 l/m² 6,1 km/h (2 Bft) N-NW 345 ° 0 min 0 W/m² 1,1 °C 3,0 °C 9,7 km/h (2 Bft)
27.12.2019 17:56 24,4 °C 2,9 °C 41 % 87 % 1033,6 hPa 0,0 l/m² 6,0 km/h (2 Bft) N 349 ° 0 min 0 W/m² 1,0 °C 2,9 °C 8,0 km/h (2 Bft)
27.12.2019 17:58 24,4 °C 2,9 °C 43 % 87 % 1033,7 hPa 0,0 l/m² 5,1 km/h (1 Bft) N 350 ° 0 min 0 W/m² 1,0 °C 2,9 °C 8,0 km/h (2 Bft)
27.12.2019 18:00 24,4 °C 2,9 °C 43 % 87 % 1033,8 hPa 0,0 l/m² 6,9 km/h (2 Bft) N-NW 344 ° 0 min 0 W/m² 1,0 °C 2,4 °C 14,5 km/h (3 Bft)
27.12.2019 18:02 24,3 °C 2,9 °C 43 % 87 % 1033,7 hPa 0,0 l/m² 6,9 km/h (2 Bft) N-NW 344 ° 0 min 0 W/m² 1,0 °C 2,4 °C 12,9 km/h (3 Bft)
27.12.2019 18:04 24,3 °C 2,9 °C 44 % 87 % 1033,8 hPa 0,0 l/m² 12,2 km/h (2 Bft) NW 321 ° 0 min 0 W/m² 1,0 °C -1,8 °C 16,1 km/h (3 Bft)
27.12.2019 18:06 24,3 °C 2,9 °C 44 % 87 % 1033,9 hPa 0,0 l/m² 11,7 km/h (2 Bft) N 360 ° 0 min 0 W/m² 1,0 °C -1,5 °C 16,1 km/h (3 Bft)
27.12.2019 18:08 24,3 °C 2,9 °C 44 % 87 % 1033,8 hPa 0,0 l/m² 10,4 km/h (2 Bft) N-NW 345 ° 0 min 0 W/m² 1,0 °C -0,5 °C 14,5 km/h (3 Bft)
27.12.2019 18:10 24,3 °C 2,9 °C 44 % 87 % 1033,9 hPa 0,0 l/m² 7,5 km/h (2 Bft) N-NW 344 ° 0 min 0 W/m² 1,0 °C 1,9 °C 12,9 km/h (3 Bft)
27.12.2019 18:12 24,3 °C 2,8 °C 44 % 87 % 1033,9 hPa 0,0 l/m² 14,5 km/h (3 Bft) N 355 ° 0 min 0 W/m² 0,9 °C -3,3 °C 20,9 km/h (4 Bft)
27.12.2019 18:14 24,3 °C 2,9 °C 45 % 87 % 1033,9 hPa 0,0 l/m² 12,0 km/h (2 Bft) N-NW 344 ° 0 min 0 W/m² 1,0 °C -1,7 °C 16,1 km/h (3 Bft)
27.12.2019 18:16 24,3 °C 2,8 °C 45 % 86 % 1034,0 hPa 0,0 l/m² 13,2 km/h (3 Bft) N 355 ° 0 min 0 W/m² 0,7 °C -2,5 °C 19,3 km/h (3 Bft)
27.12.2019 18:18 24,3 °C 2,8 °C 45 % 86 % 1034,1 hPa 0,0 l/m² 10,5 km/h (2 Bft) N-NW 331 ° 0 min 0 W/m² 0,7 °C -0,7 °C 16,1 km/h (3 Bft)
27.12.2019 18:20 24,3 °C 2,8 °C 45 % 86 % 1034,2 hPa 0,0 l/m² 7,8 km/h (2 Bft) NW 326 ° 0 min 0 W/m² 0,7 °C 1,5 °C 14,5 km/h (3 Bft)
27.12.2019 18:22 24,3 °C 2,8 °C 45 % 86 % 1034,1 hPa 0,0 l/m² 10,7 km/h (2 Bft) N-NW 346 ° 0 min 0 W/m² 0,7 °C -0,9 °C 14,5 km/h (3 Bft)
27.12.2019 18:24 24,3 °C 2,8 °C 45 % 86 % 1034,2 hPa 0,0 l/m² 9,2 km/h (2 Bft) N-NO 32 ° 0 min 0 W/m² 0,7 °C 0,3 °C 14,5 km/h (3 Bft)
27.12.2019 18:26 24,4 °C 2,8 °C 45 % 86 % 1034,3 hPa 0,0 l/m² 10,0 km/h (2 Bft) N 5 ° 0 min 0 W/m² 0,7 °C -0,4 °C 14,5 km/h (3 Bft)
27.12.2019 18:28 24,3 °C 2,8 °C 45 % 86 % 1034,3 hPa 0,0 l/m² 9,2 km/h (2 Bft) N 355 ° 0 min 0 W/m² 0,7 °C 0,3 °C 14,5 km/h (3 Bft)
27.12.2019 18:30 24,4 °C 2,8 °C 45 % 86 % 1034,3 hPa 0,0 l/m² 8,6 km/h (2 Bft) N-NW 343 ° 0 min 0 W/m² 0,7 °C 0,8 °C 14,5 km/h (3 Bft)
27.12.2019 18:32 24,4 °C 2,7 °C 45 % 86 % 1034,3 hPa 0,0 l/m² 8,7 km/h (2 Bft) N 350 ° 0 min 0 W/m² 0,6 °C 0,6 °C 12,9 km/h (3 Bft)
27.12.2019 18:34 24,4 °C 2,7 °C 45 % 86 % 1034,4 hPa 0,0 l/m² 8,7 km/h (2 Bft) N-NW 334 ° 0 min 0 W/m² 0,6 °C 0,6 °C 12,9 km/h (3 Bft)
27.12.2019 18:36 24,4 °C 2,7 °C 45 % 86 % 1034,3 hPa 0,0 l/m² 10,0 km/h (2 Bft) N 355 ° 0 min 0 W/m² 0,6 °C -0,5 °C 14,5 km/h (3 Bft)
27.12.2019 18:38 24,4 °C 2,7 °C 45 % 86 % 1034,5 hPa 0,0 l/m² 6,2 km/h (2 Bft) N-NW 333 ° 0 min 0 W/m² 0,6 °C 2,7 °C 9,7 km/h (2 Bft)
27.12.2019 18:40 24,4 °C 2,7 °C 46 % 86 % 1034,6 hPa 0,0 l/m² 5,6 km/h (2 Bft) N 355 ° 0 min 0 W/m² 0,6 °C 2,7 °C 9,7 km/h (2 Bft)
27.12.2019 18:42 24,4 °C 2,7 °C 46 % 86 % 1034,5 hPa 0,0 l/m² 6,5 km/h (2 Bft) N-NW 345 ° 0 min 0 W/m² 0,6 °C 2,6 °C 8,0 km/h (2 Bft)
27.12.2019 18:44 24,4 °C 2,6 °C 46 % 86 % 1034,6 hPa 0,0 l/m² 5,0 km/h (1 Bft) N-NW 334 ° 0 min 0 W/m² 0,5 °C 2,6 °C 6,4 km/h (2 Bft)
27.12.2019 18:48 24,4 °C 2,6 °C 46 % 86 % 1034,8 hPa 0,0 l/m² 4,9 km/h (1 Bft) NW 317 ° 0 min 0 W/m² 0,5 °C 2,6 °C 12,9 km/h (3 Bft)
27.12.2019 18:50 24,4 °C 2,6 °C 46 % 86 % 1034,7 hPa 0,0 l/m² 5,0 km/h (1 Bft) N 349 ° 0 min 0 W/m² 0,5 °C 2,6 °C 9,7 km/h (2 Bft)
27.12.2019 18:52 24,4 °C 2,6 °C 45 % 86 % 1034,7 hPa 0,0 l/m² 6,1 km/h (2 Bft) N-NW 332 ° 0 min 0 W/m² 0,5 °C 2,6 °C 9,7 km/h (2 Bft)
27.12.2019 18:54 24,4 °C 2,6 °C 45 % 86 % 1034,5 hPa 0,0 l/m² 3,3 km/h (1 Bft) N-NW 327 ° 0 min 0 W/m² 0,5 °C 2,6 °C 6,4 km/h (2 Bft)
27.12.2019 18:56 24,4 °C 2,6 °C 45 % 86 % 1034,9 hPa 0,0 l/m² 2,8 km/h (1 Bft) NW 321 ° 0 min 0 W/m² 0,5 °C 2,6 °C 4,8 km/h (1 Bft)
27.12.2019 18:58 24,4 °C 2,6 °C 45 % 86 % 1035,0 hPa 0,0 l/m² 3,6 km/h (1 Bft) NW 310 ° 0 min 0 W/m² 0,5 °C 2,6 °C 6,4 km/h (2 Bft)
27.12.2019 19:00 24,4 °C 2,6 °C 45 % 86 % 1034,9 hPa 0,0 l/m² 3,3 km/h (1 Bft) NW 321 ° 0 min 0 W/m² 0,5 °C 2,6 °C 6,4 km/h (2 Bft)
27.12.2019 19:02 24,4 °C 2,6 °C 46 % 86 % 1035,0 hPa 0,0 l/m² 3,9 km/h (1 Bft) NW 320 ° 0 min 0 W/m² 0,5 °C 2,6 °C 8,0 km/h (2 Bft)
27.12.2019 19:04 24,5 °C 2,6 °C 46 % 87 % 1035,1 hPa 0,0 l/m² 5,3 km/h (1 Bft) NW 317 ° 0 min 0 W/m² 0,7 °C 2,6 °C 8,0 km/h (2 Bft)
27.12.2019 19:06 24,5 °C 2,6 °C 46 % 87 % 1035,2 hPa 0,0 l/m² 4,6 km/h (1 Bft) N-NW 327 ° 0 min 0 W/m² 0,7 °C 2,6 °C 8,0 km/h (2 Bft)
27.12.2019 19:08 24,5 °C 2,5 °C 46 % 87 % 1035,2 hPa 0,0 l/m² 5,0 km/h (1 Bft) NW 309 ° 0 min 0 W/m² 0,6 °C 2,5 °C 8,0 km/h (2 Bft)
27.12.2019 19:10 24,5 °C 2,5 °C 46 % 86 % 1035,2 hPa 0,0 l/m² 4,4 km/h (1 Bft) NW 305 ° 0 min 0 W/m² 0,4 °C 2,5 °C 12,9 km/h (3 Bft)
27.12.2019 19:12 24,5 °C 2,5 °C 46 % 87 % 1035,2 hPa 0,0 l/m² 5,1 km/h (1 Bft) W-NW 295 ° 0 min 0 W/m² 0,6 °C 2,5 °C 8,0 km/h (2 Bft)
27.12.2019 19:14 24,6 °C 2,4 °C 47 % 86 % 1035,2 hPa 0,0 l/m² 5,5 km/h (2 Bft) NW 326 ° 0 min 0 W/m² 0,3 °C 2,4 °C 9,7 km/h (2 Bft)
27.12.2019 19:16 24,6 °C 2,5 °C 47 % 87 % 1035,3 hPa 0,0 l/m² 3,2 km/h (1 Bft) NW 313 ° 0 min 0 W/m² 0,6 °C 2,5 °C 6,4 km/h (2 Bft)
27.12.2019 19:18 24,6 °C 2,4 °C 47 % 86 % 1035,3 hPa 0,0 l/m² 3,3 km/h (1 Bft) W-NW 298 ° 0 min 0 W/m² 0,3 °C 2,4 °C 4,8 km/h (1 Bft)
27.12.2019 19:20 24,6 °C 2,4 °C 47 % 86 % 1035,2 hPa 0,0 l/m² 5,3 km/h (1 Bft) NW 321 ° 0 min 0 W/m² 0,3 °C 2,4 °C 9,7 km/h (2 Bft)
27.12.2019 19:22 24,6 °C 2,4 °C 47 % 86 % 1035,3 hPa 0,0 l/m² 7,3 km/h (2 Bft) NW 306 ° 0 min 0 W/m² 0,3 °C 1,5 °C 11,3 km/h (2 Bft)
27.12.2019 19:24 24,6 °C 2,4 °C 47 % 87 % 1035,3 hPa 0,0 l/m² 5,2 km/h (1 Bft) NW 322 ° 0 min 0 W/m² 0,5 °C 2,4 °C 8,0 km/h (2 Bft)
27.12.2019 19:26 24,6 °C 2,4 °C 47 % 87 % 1035,4 hPa 0,0 l/m² 2,8 km/h (1 Bft) N-NW 329 ° 0 min 0 W/m² 0,5 °C 2,4 °C 4,8 km/h (1 Bft)
27.12.2019 19:28 24,6 °C 2,4 °C 47 % 87 % 1035,5 hPa 0,0 l/m² 6,6 km/h (2 Bft) NW 326 ° 0 min 0 W/m² 0,5 °C 2,2 °C 12,9 km/h (3 Bft)
27.12.2019 19:30 24,6 °C 2,4 °C 46 % 87 % 1035,4 hPa 0,0 l/m² 5,4 km/h (2 Bft) N-NW 348 ° 0 min 0 W/m² 0,5 °C 2,4 °C 11,3 km/h (2 Bft)
27.12.2019 19:32 24,6 °C 2,3 °C 46 % 87 % 1035,4 hPa 0,0 l/m² 4,9 km/h (1 Bft) NW 306 ° 0 min 0 W/m² 0,4 °C 2,3 °C 8,0 km/h (2 Bft)
27.12.2019 19:34 24,6 °C 2,3 °C 46 % 87 % 1035,4 hPa 0,0 l/m² 6,3 km/h (2 Bft) NW 325 ° 0 min 0 W/m² 0,4 °C 2,3 °C 9,7 km/h (2 Bft)
27.12.2019 19:36 24,6 °C 2,3 °C 46 % 87 % 1035,5 hPa 0,0 l/m² 6,9 km/h (2 Bft) N 355 ° 0 min 0 W/m² 0,4 °C 1,8 °C 14,5 km/h (3 Bft)
27.12.2019 19:38 24,6 °C 2,3 °C 46 % 87 % 1035,6 hPa 0,0 l/m² 7,1 km/h (2 Bft) NW 325 ° 0 min 0 W/m² 0,4 °C 1,6 °C 12,9 km/h (3 Bft)
27.12.2019 19:40 24,6 °C 2,3 °C 47 % 87 % 1035,5 hPa 0,0 l/m² 6,8 km/h (2 Bft) N-NW 333 ° 0 min 0 W/m² 0,4 °C 1,9 °C 11,3 km/h (2 Bft)
27.12.2019 19:42 24,6 °C 2,3 °C 47 % 87 % 1035,6 hPa 0,0 l/m² 4,7 km/h (1 Bft) NW 304 ° 0 min 0 W/m² 0,4 °C 2,3 °C 14,5 km/h (3 Bft)
27.12.2019 19:44 24,6 °C 2,3 °C 47 % 87 % 1035,6 hPa 0,0 l/m² 5,8 km/h (2 Bft) W 271 ° 0 min 0 W/m² 0,4 °C 2,3 °C 12,9 km/h (3 Bft)
27.12.2019 19:46 24,6 °C 2,3 °C 46 % 87 % 1035,7 hPa 0,0 l/m² 7,5 km/h (2 Bft) W-NW 299 ° 0 min 0 W/m² 0,4 °C 1,2 °C 12,9 km/h (3 Bft)
27.12.2019 19:48 24,6 °C 2,3 °C 45 % 87 % 1035,6 hPa 0,0 l/m² 5,9 km/h (2 Bft) N-NW 327 ° 0 min 0 W/m² 0,4 °C 2,3 °C 9,7 km/h (2 Bft)
27.12.2019 19:50 24,6 °C 2,3 °C 44 % 87 % 1035,7 hPa 0,0 l/m² 7,5 km/h (2 Bft) NW 324 ° 0 min 0 W/m² 0,4 °C 1,2 °C 11,3 km/h (2 Bft)
27.12.2019 19:52 24,6 °C 2,3 °C 44 % 87 % 1035,6 hPa 0,0 l/m² 7,0 km/h (2 Bft) NW 319 ° 0 min 0 W/m² 0,4 °C 1,7 °C 11,3 km/h (2 Bft)
27.12.2019 19:54 24,6 °C 2,3 °C 45 % 87 % 1035,6 hPa 0,0 l/m² 4,9 km/h (1 Bft) W-NW 302 ° 0 min 0 W/m² 0,4 °C 2,3 °C 8,0 km/h (2 Bft)
27.12.2019 19:56 24,6 °C 2,3 °C 45 % 87 % 1035,6 hPa 0,0 l/m² 5,8 km/h (2 Bft) W-NW 299 ° 0 min 0 W/m² 0,4 °C 2,3 °C 8,0 km/h (2 Bft)
27.12.2019 19:58 24,6 °C 2,3 °C 45 % 87 % 1035,6 hPa 0,0 l/m² 3,7 km/h (1 Bft) NW 306 ° 0 min 0 W/m² 0,4 °C 2,3 °C 6,4 km/h (2 Bft)
27.12.2019 20:00 24,6 °C 2,3 °C 45 % 87 % 1035,8 hPa 0,0 l/m² 4,1 km/h (1 Bft) NW 305 ° 0 min 0 W/m² 0,4 °C 2,3 °C 6,4 km/h (2 Bft)
27.12.2019 20:02 24,6 °C 2,3 °C 46 % 87 % 1035,7 hPa 0,0 l/m² 3,8 km/h (1 Bft) NW 313 ° 0 min 0 W/m² 0,4 °C 2,3 °C 6,4 km/h (2 Bft)
27.12.2019 20:04 24,6 °C 2,3 °C 46 % 87 % 1035,8 hPa 0,0 l/m² 3,1 km/h (1 Bft) W-NW 290 ° 0 min 0 W/m² 0,4 °C 2,3 °C 4,8 km/h (1 Bft)
27.12.2019 20:06 24,6 °C 2,3 °C 46 % 87 % 1035,8 hPa 0,0 l/m² 6,1 km/h (2 Bft) NW 321 ° 0 min 0 W/m² 0,4 °C 2,3 °C 11,3 km/h (2 Bft)
27.12.2019 20:08 24,6 °C 2,3 °C 46 % 87 % 1035,8 hPa 0,0 l/m² 4,4 km/h (1 Bft) NW 313 ° 0 min 0 W/m² 0,4 °C 2,3 °C 8,0 km/h (2 Bft)
27.12.2019 20:10 24,5 °C 2,3 °C 46 % 87 % 1035,9 hPa 0,0 l/m² 6,0 km/h (2 Bft) W 280 ° 0 min 0 W/m² 0,4 °C 2,3 °C 11,3 km/h (2 Bft)
27.12.2019 20:12 24,5 °C 2,3 °C 46 % 87 % 1035,9 hPa 0,0 l/m² 6,0 km/h (2 Bft) NW 317 ° 0 min 0 W/m² 0,4 °C 2,3 °C 12,9 km/h (3 Bft)
27.12.2019 20:14 24,5 °C 2,3 °C 46 % 87 % 1035,9 hPa 0,0 l/m² 9,2 km/h (2 Bft) NW 319 ° 0 min 0 W/m² 0,4 °C -0,3 °C 16,1 km/h (3 Bft)
27.12.2019 20:16 24,5 °C 2,3 °C 46 % 87 % 1036,0 hPa 0,0 l/m² 10,5 km/h (2 Bft) N-NW 329 ° 0 min 0 W/m² 0,4 °C -1,3 °C 17,7 km/h (3 Bft)
27.12.2019 20:18 24,5 °C 2,3 °C 46 % 88 % 1036,0 hPa 0,0 l/m² 9,5 km/h (2 Bft) N-NW 343 ° 0 min 0 W/m² 0,5 °C -0,5 °C 14,5 km/h (3 Bft)
27.12.2019 20:20 24,5 °C 2,3 °C 46 % 88 % 1036,0 hPa 0,0 l/m² 8,8 km/h (2 Bft) NW 323 ° 0 min 0 W/m² 0,5 °C 0,1 °C 16,1 km/h (3 Bft)
27.12.2019 20:22 24,5 °C 2,2 °C 46 % 88 % 1036,1 hPa 0,0 l/m² 9,7 km/h (2 Bft) N-NW 328 ° 0 min 0 W/m² 0,4 °C -0,8 °C 14,5 km/h (3 Bft)
27.12.2019 20:24 24,5 °C 2,2 °C 46 % 88 % 1036,2 hPa 0,0 l/m² 11,5 km/h (2 Bft) N-NW 328 ° 0 min 0 W/m² 0,4 °C -2,1 °C 17,7 km/h (3 Bft)
27.12.2019 20:26 24,5 °C 2,2 °C 46 % 88 % 1036,2 hPa 0,0 l/m² 10,2 km/h (2 Bft) NW 314 ° 0 min 0 W/m² 0,4 °C -1,2 °C 22,5 km/h (4 Bft)
27.12.2019 20:28 24,5 °C 2,2 °C 46 % 88 % 1036,2 hPa 0,0 l/m² 10,6 km/h (2 Bft) NW 316 ° 0 min 0 W/m² 0,4 °C -1,5 °C 16,1 km/h (3 Bft)
27.12.2019 20:30 24,6 °C 2,2 °C 46 % 88 % 1036,2 hPa 0,0 l/m² 9,2 km/h (2 Bft) NW 325 ° 0 min 0 W/m² 0,4 °C -0,4 °C 16,1 km/h (3 Bft)
27.12.2019 20:32 24,6 °C 2,2 °C 46 % 88 % 1036,2 hPa 0,0 l/m² 9,4 km/h (2 Bft) NW 304 ° 0 min 0 W/m² 0,4 °C -0,5 °C 14,5 km/h (3 Bft)
27.12.2019 20:34 24,5 °C 2,2 °C 46 % 88 % 1036,3 hPa 0,0 l/m² 10,4 km/h (2 Bft) NW 319 ° 0 min 0 W/m² 0,4 °C -1,3 °C 17,7 km/h (3 Bft)
27.12.2019 20:36 24,6 °C 2,2 °C 46 % 88 % 1036,3 hPa 0,0 l/m² 13,5 km/h (3 Bft) NW 321 ° 0 min 0 W/m² 0,4 °C -3,4 °C 20,9 km/h (4 Bft)
27.12.2019 20:38 24,6 °C 2,2 °C 47 % 88 % 1036,4 hPa 0,0 l/m² 13,2 km/h (3 Bft) NW 317 ° 0 min 0 W/m² 0,4 °C -3,2 °C 20,9 km/h (4 Bft)
27.12.2019 20:40 24,6 °C 2,2 °C 47 % 88 % 1036,4 hPa 0,0 l/m² 12,8 km/h (3 Bft) NW 317 ° 0 min 0 W/m² 0,4 °C -3,0 °C 19,3 km/h (3 Bft)
27.12.2019 20:42 24,6 °C 2,2 °C 47 % 88 % 1036,5 hPa 0,0 l/m² 11,1 km/h (2 Bft) W-NW 302 ° 0 min 0 W/m² 0,4 °C -1,8 °C 17,7 km/h (3 Bft)
27.12.2019 20:44 24,6 °C 2,2 °C 47 % 88 % 1036,5 hPa 0,0 l/m² 10,2 km/h (2 Bft) NW 305 ° 0 min 0 W/m² 0,4 °C -1,2 °C 17,7 km/h (3 Bft)
27.12.2019 20:46 24,6 °C 2,2 °C 47 % 88 % 1036,6 hPa 0,0 l/m² 9,2 km/h (2 Bft) N-NW 342 ° 0 min 0 W/m² 0,4 °C -0,4 °C 16,1 km/h (3 Bft)
27.12.2019 20:48 24,6 °C 2,2 °C 47 % 88 % 1036,6 hPa 0,0 l/m² 9,7 km/h (2 Bft) N-NW 338 ° 0 min 0 W/m² 0,4 °C -0,8 °C 17,7 km/h (3 Bft)
27.12.2019 20:50 24,7 °C 2,1 °C 47 % 89 % 1036,6 hPa 0,0 l/m² 9,7 km/h (2 Bft) NW 326 ° 0 min 0 W/m² 0,5 °C -0,9 °C 19,3 km/h (3 Bft)
27.12.2019 20:52 24,7 °C 2,1 °C 47 % 89 % 1036,6 hPa 0,0 l/m² 7,7 km/h (2 Bft) N-NW 334 ° 0 min 0 W/m² 0,5 °C 0,8 °C 14,5 km/h (3 Bft)
27.12.2019 20:54 24,7 °C 2,1 °C 47 % 89 % 1036,7 hPa 0,0 l/m² 6,2 km/h (2 Bft) N-NW 330 ° 0 min 0 W/m² 0,5 °C 2,1 °C 11,3 km/h (2 Bft)
27.12.2019 20:56 24,7 °C 2,1 °C 47 % 89 % 1036,7 hPa 0,0 l/m² 8,6 km/h (2 Bft) N-NW 346 ° 0 min 0 W/m² 0,5 °C 0,0 °C 16,1 km/h (3 Bft)
27.12.2019 20:58 24,7 °C 2,1 °C 46 % 89 % 1036,7 hPa 0,0 l/m² 8,3 km/h (2 Bft) N-NW 336 ° 0 min 0 W/m² 0,5 °C 0,3 °C 14,5 km/h (3 Bft)
27.12.2019 21:00 24,7 °C 2,1 °C 46 % 89 % 1036,7 hPa 0,0 l/m² 11,5 km/h (2 Bft) N-NW 335 ° 0 min 0 W/m² 0,5 °C -2,2 °C 17,7 km/h (3 Bft)
27.12.2019 21:02 24,7 °C 2,1 °C 46 % 89 % 1036,7 hPa 0,0 l/m² 12,7 km/h (3 Bft) NW 324 ° 0 min 0 W/m² 0,5 °C -3,0 °C 20,9 km/h (4 Bft)
27.12.2019 21:04 24,7 °C 2,1 °C 46 % 89 % 1036,7 hPa 0,0 l/m² 9,5 km/h (2 Bft) NW 311 ° 0 min 0 W/m² 0,5 °C -0,7 °C 14,5 km/h (3 Bft)
27.12.2019 21:06 24,7 °C 2,1 °C 46 % 89 % 1036,8 hPa 0,0 l/m² 8,2 km/h (2 Bft) NW 306 ° 0 min 0 W/m² 0,5 °C 0,4 °C 12,9 km/h (3 Bft)
27.12.2019 21:08 24,7 °C 2,1 °C 46 % 89 % 1036,8 hPa 0,0 l/m² 11,8 km/h (2 Bft) NW 323 ° 0 min 0 W/m² 0,5 °C -2,4 °C 17,7 km/h (3 Bft)
27.12.2019 21:10 24,7 °C 2,0 °C 46 % 89 % 1036,7 hPa 0,0 l/m² 11,9 km/h (2 Bft) W-NW 290 ° 0 min 0 W/m² 0,4 °C -2,6 °C 17,7 km/h (3 Bft)
27.12.2019 21:12 24,7 °C 2,0 °C 46 % 89 % 1036,7 hPa 0,0 l/m² 10,2 km/h (2 Bft) NW 314 ° 0 min 0 W/m² 0,4 °C -1,4 °C 17,7 km/h (3 Bft)
27.12.2019 21:14 24,7 °C 2,0 °C 46 % 89 % 1036,8 hPa 0,0 l/m² 8,9 km/h (2 Bft) NW 321 ° 0 min 0 W/m² 0,4 °C -0,3 °C 14,5 km/h (3 Bft)
27.12.2019 21:16 24,7 °C 2,0 °C 46 % 89 % 1036,8 hPa 0,0 l/m² 10,6 km/h (2 Bft) W-NW 288 ° 0 min 0 W/m² 0,4 °C -1,7 °C 17,7 km/h (3 Bft)
27.12.2019 21:18 24,7 °C 2,0 °C 46 % 89 % 1036,9 hPa 0,0 l/m² 9,2 km/h (2 Bft) N-NW 338 ° 0 min 0 W/m² 0,4 °C -0,6 °C 17,7 km/h (3 Bft)
27.12.2019 21:20 24,7 °C 2,0 °C 46 % 89 % 1036,9 hPa 0,0 l/m² 11,6 km/h (2 Bft) W-NW 293 ° 0 min 0 W/m² 0,4 °C -2,4 °C 17,7 km/h (3 Bft)
27.12.2019 21:22 24,7 °C 2,0 °C 45 % 89 % 1036,9 hPa 0,0 l/m² 9,5 km/h (2 Bft) NW 311 ° 0 min 0 W/m² 0,4 °C -0,8 °C 19,3 km/h (3 Bft)
27.12.2019 21:24 24,7 °C 1,9 °C 43 % 89 % 1036,8 hPa 0,0 l/m² 12,8 km/h (3 Bft) N-NW 329 ° 0 min 0 W/m² 0,3 °C -3,3 °C 19,3 km/h (3 Bft)
27.12.2019 21:26 24,7 °C 1,9 °C 43 % 89 % 1036,9 hPa 0,0 l/m² 11,0 km/h (2 Bft) NW 319 ° 0 min 0 W/m² 0,3 °C -2,1 °C 16,1 km/h (3 Bft)
27.12.2019 21:28 24,7 °C 1,9 °C 43 % 89 % 1036,8 hPa 0,0 l/m² 10,0 km/h (2 Bft) NW 317 ° 0 min 0 W/m² 0,3 °C -1,4 °C 16,1 km/h (3 Bft)
27.12.2019 21:30 24,7 °C 1,9 °C 44 % 89 % 1036,8 hPa 0,0 l/m² 12,3 km/h (2 Bft) NW 316 ° 0 min 0 W/m² 0,3 °C -3,0 °C 17,7 km/h (3 Bft)
27.12.2019 21:32 24,7 °C 1,9 °C 44 % 89 % 1036,8 hPa 0,0 l/m² 9,7 km/h (2 Bft) NW 321 ° 0 min 0 W/m² 0,3 °C -1,1 °C 17,7 km/h (3 Bft)
27.12.2019 21:34 24,7 °C 1,9 °C 44 % 89 % 1036,9 hPa 0,0 l/m² 10,8 km/h (2 Bft) N-NW 331 ° 0 min 0 W/m² 0,3 °C -2,0 °C 16,1 km/h (3 Bft)
27.12.2019 21:36 24,7 °C 1,9 °C 44 % 89 % 1036,9 hPa 0,0 l/m² 7,7 km/h (2 Bft) N-NW 327 ° 0 min 0 W/m² 0,3 °C 0,6 °C 12,9 km/h (3 Bft)
27.12.2019 21:38 24,7 °C 1,9 °C 44 % 89 % 1036,9 hPa 0,0 l/m² 7,7 km/h (2 Bft) NW 305 ° 0 min 0 W/m² 0,3 °C 0,6 °C 12,9 km/h (3 Bft)
27.12.2019 21:40 24,7 °C 1,9 °C 44 % 89 % 1036,9 hPa 0,0 l/m² 9,2 km/h (2 Bft) N-NW 327 ° 0 min 0 W/m² 0,3 °C -0,7 °C 14,5 km/h (3 Bft)
27.12.2019 21:42 24,7 °C 1,9 °C 44 % 89 % 1037,0 hPa 0,0 l/m² 7,4 km/h (2 Bft) NW 309 ° 0 min 0 W/m² 0,3 °C 0,9 °C 14,5 km/h (3 Bft)
27.12.2019 21:44 24,7 °C 1,9 °C 45 % 89 % 1037,0 hPa 0,0 l/m² 6,5 km/h (2 Bft) N 5 ° 0 min 0 W/m² 0,3 °C 1,8 °C 12,9 km/h (3 Bft)
27.12.2019 21:46 24,7 °C 1,9 °C 45 % 90 % 1037,0 hPa 0,0 l/m² 6,5 km/h (2 Bft) NW 316 ° 0 min 0 W/m² 0,4 °C 1,8 °C 11,3 km/h (2 Bft)
27.12.2019 21:47 24,7 °C 1,8 °C 45 % 90 % 1037,0 hPa 0,0 l/m² 5,8 km/h (2 Bft) N 355 ° 0 min 0 W/m² 0,3 °C 1,8 °C 8,0 km/h (2 Bft)
27.12.2019 21:48 24,7 °C 1,9 °C 45 % 90 % 1036,9 hPa 0,0 l/m² 4,7 km/h (1 Bft) N 355 ° 0 min 0 W/m² 0,4 °C 1,9 °C 8,0 km/h (2 Bft)
27.12.2019 21:50 24,7 °C 1,8 °C 45 % 90 % 1037,0 hPa 0,0 l/m² 7,2 km/h (2 Bft) NW 325 ° 0 min 0 W/m² 0,3 °C 1,0 °C 16,1 km/h (3 Bft)
27.12.2019 21:52 24,7 °C 1,9 °C 45 % 90 % 1037,1 hPa 0,0 l/m² 10,1 km/h (2 Bft) N-NW 336 ° 0 min 0 W/m² 0,4 °C -1,4 °C 17,7 km/h (3 Bft)
27.12.2019 21:54 24,7 °C 1,9 °C 45 % 90 % 1037,0 hPa 0,0 l/m² 9,7 km/h (2 Bft) N-NW 327 ° 0 min 0 W/m² 0,4 °C -1,1 °C 16,1 km/h (3 Bft)
27.12.2019 21:56 24,7 °C 1,9 °C 45 % 90 % 1037,0 hPa 0,0 l/m² 9,2 km/h (2 Bft) NW 325 ° 0 min 0 W/m² 0,4 °C -0,7 °C 14,5 km/h (3 Bft)
27.12.2019 21:58 24,7 °C 1,9 °C 44 % 90 % 1037,2 hPa 0,0 l/m² 7,8 km/h (2 Bft) N-NW 329 ° 0 min 0 W/m² 0,4 °C 0,5 °C 12,9 km/h (3 Bft)
27.12.2019 22:00 24,8 °C 1,9 °C 44 % 90 % 1037,1 hPa 0,0 l/m² 8,4 km/h (2 Bft) NW 311 ° 0 min 0 W/m² 0,4 °C -0,0 °C 14,5 km/h (3 Bft)
27.12.2019 22:02 24,8 °C 1,9 °C 45 % 90 % 1037,2 hPa 0,0 l/m² 9,2 km/h (2 Bft) NW 326 ° 0 min 0 W/m² 0,4 °C -0,7 °C 14,5 km/h (3 Bft)
27.12.2019 22:04 24,8 °C 1,9 °C 45 % 90 % 1037,2 hPa 0,0 l/m² 10,2 km/h (2 Bft) N-NW 343 ° 0 min 0 W/m² 0,4 °C -1,5 °C 17,7 km/h (3 Bft)
27.12.2019 22:06 24,8 °C 1,9 °C 45 % 90 % 1037,2 hPa 0,0 l/m² 13,4 km/h (3 Bft) NW 313 ° 0 min 0 W/m² 0,4 °C -3,7 °C 17,7 km/h (3 Bft)
27.12.2019 22:08 24,8 °C 1,9 °C 45 % 90 % 1037,1 hPa 0,0 l/m² 10,4 km/h (2 Bft) NW 307 ° 0 min 0 W/m² 0,4 °C -1,7 °C 16,1 km/h (3 Bft)
27.12.2019 22:10 24,8 °C 1,9 °C 45 % 90 % 1037,3 hPa 0,0 l/m² 12,8 km/h (3 Bft) NW 322 ° 0 min 0 W/m² 0,4 °C -3,3 °C 17,7 km/h (3 Bft)
27.12.2019 22:12 24,8 °C 1,9 °C 45 % 90 % 1037,3 hPa 0,0 l/m² 12,8 km/h (3 Bft) N-NW 329 ° 0 min 0 W/m² 0,4 °C -3,3 °C 17,7 km/h (3 Bft)
27.12.2019 22:14 24,8 °C 1,8 °C 45 % 90 % 1037,2 hPa 0,0 l/m² 11,9 km/h (2 Bft) NW 326 ° 0 min 0 W/m² 0,3 °C -2,9 °C 17,7 km/h (3 Bft)
27.12.2019 22:16 24,8 °C 1,8 °C 45 % 90 % 1037,2 hPa 0,0 l/m² 8,3 km/h (2 Bft) NW 317 ° 0 min 0 W/m² 0,3 °C -0,0 °C 14,5 km/h (3 Bft)
27.12.2019 22:18 24,8 °C 1,8 °C 45 % 90 % 1037,2 hPa 0,0 l/m² 10,0 km/h (2 Bft) NW 326 ° 0 min 0 W/m² 0,3 °C -1,5 °C 14,5 km/h (3 Bft)
27.12.2019 22:20 24,8 °C 1,8 °C 45 % 90 % 1037,3 hPa 0,0 l/m² 8,0 km/h (2 Bft) NW 319 ° 0 min 0 W/m² 0,3 °C 0,2 °C 12,9 km/h (3 Bft)
27.12.2019 22:22 24,8 °C 1,8 °C 45 % 90 % 1037,4 hPa 0,0 l/m² 7,9 km/h (2 Bft) NW 306 ° 0 min 0 W/m² 0,3 °C 0,3 °C 14,5 km/h (3 Bft)
27.12.2019 22:24 24,8 °C 1,8 °C 45 % 90 % 1037,4 hPa 0,0 l/m² 8,5 km/h (2 Bft) N-NW 342 ° 0 min 0 W/m² 0,3 °C -0,2 °C 14,5 km/h (3 Bft)
27.12.2019 22:26 24,8 °C 1,8 °C 45 % 90 % 1037,4 hPa 0,0 l/m² 9,4 km/h (2 Bft) N 355 ° 0 min 0 W/m² 0,3 °C -1,0 °C 14,5 km/h (3 Bft)
27.12.2019 22:28 24,8 °C 1,8 °C 45 % 90 % 1037,4 hPa 0,0 l/m² 10,0 km/h (2 Bft) NW 323 ° 0 min 0 W/m² 0,3 °C -1,5 °C 14,5 km/h (3 Bft)
27.12.2019 22:30 24,8 °C 1,8 °C 45 % 90 % 1037,4 hPa 0,0 l/m² 7,5 km/h (2 Bft) NW 311 ° 0 min 0 W/m² 0,3 °C 0,7 °C 12,9 km/h (3 Bft)
27.12.2019 22:32 24,8 °C 1,8 °C 45 % 90 % 1037,4 hPa 0,0 l/m² 6,6 km/h (2 Bft) NW 311 ° 0 min 0 W/m² 0,3 °C 1,6 °C 16,1 km/h (3 Bft)
27.12.2019 22:34 24,8 °C 1,8 °C 45 % 90 % 1037,4 hPa 0,0 l/m² 9,1 km/h (2 Bft) N 350 ° 0 min 0 W/m² 0,3 °C -0,7 °C 16,1 km/h (3 Bft)
27.12.2019 22:36 24,8 °C 1,8 °C 45 % 90 % 1037,4 hPa 0,0 l/m² 6,5 km/h (2 Bft) NW 317 ° 0 min 0 W/m² 0,3 °C 1,7 °C 14,5 km/h (3 Bft)
27.12.2019 22:38 24,8 °C 1,8 °C 45 % 90 % 1037,3 hPa 0,0 l/m² 5,8 km/h (2 Bft) N-NW 333 ° 0 min 0 W/m² 0,3 °C 1,8 °C 12,9 km/h (3 Bft)
27.12.2019 22:40 24,8 °C 1,7 °C 45 % 90 % 1037,3 hPa 0,0 l/m² 7,4 km/h (2 Bft) N-NW 332 ° 0 min 0 W/m² 0,2 °C 0,7 °C 16,1 km/h (3 Bft)
27.12.2019 22:42 24,8 °C 1,7 °C 45 % 91 % 1037,4 hPa 0,0 l/m² 6,3 km/h (2 Bft) NW 319 ° 0 min 0 W/m² 0,4 °C 1,7 °C 14,5 km/h (3 Bft)
27.12.2019 22:44 24,8 °C 1,7 °C 45 % 91 % 1037,4 hPa 0,0 l/m² 10,3 km/h (2 Bft) NW 325 ° 0 min 0 W/m² 0,4 °C -1,8 °C 16,1 km/h (3 Bft)
27.12.2019 22:46 24,8 °C 1,7 °C 45 % 91 % 1037,4 hPa 0,0 l/m² 8,7 km/h (2 Bft) NW 310 ° 0 min 0 W/m² 0,4 °C -0,5 °C 14,5 km/h (3 Bft)
27.12.2019 22:48 24,8 °C 1,7 °C 45 % 91 % 1037,5 hPa 0,0 l/m² 5,6 km/h (2 Bft) N-NW 330 ° 0 min 0 W/m² 0,4 °C 1,7 °C 12,9 km/h (3 Bft)
27.12.2019 22:50 24,8 °C 1,7 °C 45 % 91 % 1037,5 hPa 0,0 l/m² 8,1 km/h (2 Bft) NW 321 ° 0 min 0 W/m² 0,4 °C 0,0 °C 12,9 km/h (3 Bft)
27.12.2019 22:52 24,8 °C 1,7 °C 45 % 91 % 1037,5 hPa 0,0 l/m² 6,6 km/h (2 Bft) W-NW 298 ° 0 min 0 W/m² 0,4 °C 1,5 °C 12,9 km/h (3 Bft)
27.12.2019 22:54 24,9 °C 1,7 °C 45 % 91 % 1037,6 hPa 0,0 l/m² 7,5 km/h (2 Bft) NW 323 ° 0 min 0 W/m² 0,4 °C 0,6 °C 14,5 km/h (3 Bft)
27.12.2019 22:56 24,9 °C 1,7 °C 45 % 91 % 1037,6 hPa 0,0 l/m² 9,2 km/h (2 Bft) N-NW 337 ° 0 min 0 W/m² 0,4 °C -0,9 °C 14,5 km/h (3 Bft)
27.12.2019 22:58 24,8 °C 1,7 °C 45 % 91 % 1037,6 hPa 0,0 l/m² 7,5 km/h (2 Bft) NW 309 ° 0 min 0 W/m² 0,4 °C 0,6 °C 14,5 km/h (3 Bft)
27.12.2019 23:00 24,9 °C 1,7 °C 45 % 91 % 1037,7 hPa 0,0 l/m² 8,9 km/h (2 Bft) NW 311 ° 0 min 0 W/m² 0,4 °C -0,7 °C 16,1 km/h (3 Bft)
27.12.2019 23:02 24,9 °C 1,7 °C 45 % 91 % 1037,7 hPa 0,0 l/m² 6,0 km/h (2 Bft) W 281 ° 0 min 0 W/m² 0,4 °C 1,7 °C 12,9 km/h (3 Bft)
27.12.2019 23:04 24,9 °C 1,7 °C 45 % 91 % 1037,7 hPa 0,0 l/m² 3,9 km/h (1 Bft) W-NW 285 ° 0 min 0 W/m² 0,4 °C 1,7 °C 6,4 km/h (2 Bft)
27.12.2019 23:06 24,9 °C 1,7 °C 45 % 91 % 1037,7 hPa 0,0 l/m² 6,1 km/h (2 Bft) N-NW 334 ° 0 min 0 W/m² 0,4 °C 1,7 °C 9,7 km/h (2 Bft)
27.12.2019 23:08 24,9 °C 1,7 °C 45 % 91 % 1037,7 hPa 0,0 l/m² 4,1 km/h (1 Bft) NW 324 ° 0 min 0 W/m² 0,4 °C 1,7 °C 6,4 km/h (2 Bft)
27.12.2019 23:10 24,9 °C 1,7 °C 45 % 91 % 1037,7 hPa 0,0 l/m² 4,1 km/h (1 Bft) NW 326 ° 0 min 0 W/m² 0,4 °C 1,7 °C 11,3 km/h (2 Bft)
27.12.2019 23:12 24,9 °C 1,7 °C 45 % 91 % 1037,7 hPa 0,0 l/m² 6,0 km/h (2 Bft) W-NW 295 ° 0 min 0 W/m² 0,4 °C 1,7 °C 12,9 km/h (3 Bft)
27.12.2019 23:14 24,9 °C 1,7 °C 45 % 91 % 1037,6 hPa 0,0 l/m² 6,1 km/h (2 Bft) NW 317 ° 0 min 0 W/m² 0,4 °C 1,7 °C 12,9 km/h (3 Bft)
27.12.2019 23:15 24,9 °C 1,7 °C 45 % 91 % 1037,6 hPa 0,0 l/m² 6,4 km/h (2 Bft) NW 315 ° 0 min 0 W/m² 0,4 °C 1,7 °C 8,0 km/h (2 Bft)
27.12.2019 23:16 25,0 °C 1,7 °C 44 % 91 % 1037,6 hPa 0,0 l/m² 4,8 km/h (1 Bft) NW 315 ° 0 min 0 W/m² 0,4 °C 1,7 °C 6,4 km/h (2 Bft)
27.12.2019 23:22 25,0 °C 1,7 °C 44 % 91 % 1038,0 hPa 0,0 l/m² 6,8 km/h (2 Bft) N 355 ° 0 min 0 W/m² 0,4 °C 1,3 °C 11,3 km/h (2 Bft)
27.12.2019 23:24 25,0 °C 1,7 °C 44 % 91 % 1037,8 hPa 0,0 l/m² 7,1 km/h (2 Bft) NW 325 ° 0 min 0 W/m² 0,4 °C 1,0 °C 11,3 km/h (2 Bft)
27.12.2019 23:25 25,0 °C 1,7 °C 44 % 91 % 1037,8 hPa 0,0 l/m² 7,0 km/h (2 Bft) NW 316 ° 0 min 0 W/m² 0,4 °C 1,1 °C 12,9 km/h (3 Bft)
27.12.2019 23:26 25,0 °C 1,7 °C 44 % 91 % 1037,8 hPa 0,0 l/m² 7,7 km/h (2 Bft) W 278 ° 0 min 0 W/m² 0,4 °C 0,4 °C 11,3 km/h (2 Bft)
27.12.2019 23:28 25,0 °C 1,7 °C 44 % 91 % 1037,9 hPa 0,0 l/m² 6,7 km/h (2 Bft) W-NW 296 ° 0 min 0 W/m² 0,4 °C 1,4 °C 12,9 km/h (3 Bft)
27.12.2019 23:30 25,1 °C 1,7 °C 44 % 91 % 1038,0 hPa 0,0 l/m² 5,3 km/h (1 Bft) NW 317 ° 0 min 0 W/m² 0,4 °C 1,7 °C 12,9 km/h (3 Bft)
27.12.2019 23:31 25,0 °C 1,7 °C 44 % 91 % 1038,0 hPa 0,0 l/m² 7,2 km/h (2 Bft) NW 305 ° 0 min 0 W/m² 0,4 °C 0,9 °C 9,7 km/h (2 Bft)
27.12.2019 23:32 25,0 °C 1,7 °C 44 % 91 % 1038,0 hPa 0,0 l/m² 6,9 km/h (2 Bft) N-NW 329 ° 0 min 0 W/m² 0,4 °C 1,2 °C 9,7 km/h (2 Bft)
27.12.2019 23:33 25,1 °C 1,7 °C 44 % 91 % 1038,0 hPa 0,0 l/m² 6,9 km/h (2 Bft) NW 318 ° 0 min 0 W/m² 0,4 °C 1,2 °C 9,7 km/h (2 Bft)
27.12.2019 23:34 25,1 °C 1,7 °C 44 % 91 % 1038,0 hPa 0,0 l/m² 4,7 km/h (1 Bft) NW 307 ° 0 min 0 W/m² 0,4 °C 1,7 °C 6,4 km/h (2 Bft)
27.12.2019 23:36 25,1 °C 1,7 °C 43 % 91 % 1037,9 hPa 0,0 l/m² 3,0 km/h (1 Bft) NW 312 ° 0 min 0 W/m² 0,4 °C 1,7 °C 4,8 km/h (1 Bft)
27.12.2019 23:38 25,0 °C 1,8 °C 43 % 91 % 1037,9 hPa 0,0 l/m² 3,8 km/h (1 Bft) N-NW 338 ° 0 min 0 W/m² 0,5 °C 1,8 °C 8,0 km/h (2 Bft)
27.12.2019 23:40 25,1 °C 1,7 °C 43 % 91 % 1037,9 hPa 0,0 l/m² 5,4 km/h (2 Bft) NW 315 ° 0 min 0 W/m² 0,4 °C 1,7 °C 8,0 km/h (2 Bft)
27.12.2019 23:41 25,1 °C 1,7 °C 43 % 91 % 1037,9 hPa 0,0 l/m² 5,9 km/h (2 Bft) NW 326 ° 0 min 0 W/m² 0,4 °C 1,7 °C 8,0 km/h (2 Bft)
27.12.2019 23:42 25,1 °C 1,7 °C 43 % 91 % 1037,9 hPa 0,0 l/m² 3,4 km/h (1 Bft) NW 309 ° 0 min 0 W/m² 0,4 °C 1,7 °C 4,8 km/h (1 Bft)
27.12.2019 23:43 25,1 °C 1,7 °C 43 % 91 % 1037,9 hPa 0,0 l/m² 5,2 km/h (1 Bft) NW 307 ° 0 min 0 W/m² 0,4 °C 1,7 °C 9,7 km/h (2 Bft)
27.12.2019 23:44 25,1 °C 1,7 °C 43 % 91 % 1037,8 hPa 0,0 l/m² 6,6 km/h (2 Bft) NW 313 ° 0 min 0 W/m² 0,4 °C 1,5 °C 9,7 km/h (2 Bft)
27.12.2019 23:46 25,1 °C 1,7 °C 43 % 91 % 1037,8 hPa 0,0 l/m² 3,2 km/h (1 Bft) W-NW 298 ° 0 min 0 W/m² 0,4 °C 1,7 °C 6,4 km/h (2 Bft)
27.12.2019 23:48 25,1 °C 1,8 °C 43 % 91 % 1037,8 hPa 0,0 l/m² 3,5 km/h (1 Bft) W-NW 284 ° 0 min 0 W/m² 0,5 °C 1,8 °C 9,7 km/h (2 Bft)
27.12.2019 23:50 25,1 °C 1,7 °C 43 % 91 % 1037,8 hPa 0,0 l/m² 3,5 km/h (1 Bft) NW 309 ° 0 min 0 W/m² 0,4 °C 1,7 °C 8,0 km/h (2 Bft)
27.12.2019 23:51 25,1 °C 1,7 °C 43 % 91 % 1037,8 hPa 0,0 l/m² 3,0 km/h (1 Bft) W-NW 291 ° 0 min 0 W/m² 0,4 °C 1,7 °C 4,8 km/h (1 Bft)
27.12.2019 23:52 25,1 °C 1,8 °C 43 % 91 % 1037,8 hPa 0,0 l/m² 2,5 km/h (1 Bft) W-NW 299 ° 0 min 0 W/m² 0,5 °C 1,8 °C 6,4 km/h (2 Bft)
27.12.2019 23:53 25,1 °C 1,7 °C 43 % 91 % 1037,9 hPa 0,0 l/m² 3,3 km/h (1 Bft) W-NW 296 ° 0 min 0 W/m² 0,4 °C 1,7 °C 6,4 km/h (2 Bft)
27.12.2019 23:55 25,1 °C 1,8 °C 43 % 91 % 1037,9 hPa 0,0 l/m² 2,8 km/h (1 Bft) NW 321 ° 0 min 0 W/m² 0,5 °C 1,8 °C 4,8 km/h (1 Bft)
27.12.2019 23:57 25,1 °C 1,8 °C 43 % 91 % 1037,9 hPa 0,0 l/m² 4,8 km/h (1 Bft) NW 304 ° 0 min 0 W/m² 0,5 °C 1,8 °C 8,0 km/h (2 Bft)
27.12.2019 23:59 25,1 °C 1,8 °C 43 % 91 % 1037,9 hPa 0,0 l/m² 4,9 km/h (1 Bft) W-NW 303 ° 0 min 0 W/m² 0,5 °C 1,8 °C 8,0 km/h (2 Bft)
_ Min-Zeit 06:21 08:43 17:56 15:06 01:42 - 10:11 - - - - 08:13 22:06 10:11
Minimum _ 23,3 °C -1,3 °C 41 % 77 % 1023,7 hPa - 0,0 km/h (0 Bft) - - - - -2,4 °C -3,7 °C 0,0 km/h (0 Bft)
_ Max-Zeit 23:59 14:04 00:59 11:01 23:34 23:59 18:12 - - 11:10 12:03 12:08 13:48 20:26
Maximum _ 25,1 °C 4,6 °C 50 % 95 % 1038,0 hPa 0,0 l/m² 14,5 km/h
N (3 Bft)
- - 6 min 207 W/m² 2,9 °C 4,6 °C 22,5 km/h
NW (4 Bft)
Durchschnitt _ 23,9 °C 2,0 °C 46 % 89 % 1029,7 hPa #0,0 l/m² 4,6 km/h (1 Bft) NW - #4:13 h 19 W/m² 0,4 °C 1,3 °C 7,7 km/h (2 Bft)
© 2009 Mathias Hoßbach